<?xml version="1.0" encoding="UTF-8" standalone="no" ?>
<gpx xmlns="http://www.topografix.com/GPX/1/1" xmlns:xsi="http://www.w3.org/2001/XMLSchema-instance" xsi:schemaLocation="http://www.topografix.com/GPX/1/1 http://www.topografix.com/GPX/1/1/gpx.xsd" version="1.1" creator="VisuGPX - https://www.visugpx.com">
  <metadata>
    <name>MARCHAIRUZ - CRET DE LA NEUVE (SUISSE)</name>
    <desc><![CDATA[Boucle Marchairuz - Crêt de la Neuve]]></desc>
  </metadata>
  <trk>
    <name><![CDATA[CRET DE LA NEUVE]]></name>
    <trkseg>
      <trkpt lat="46.55198" lon="6.25115">
        <ele>1442.11</ele>
        <time>2013-07-13T11:44:04Z</time>
      </trkpt>
      <trkpt lat="46.55199" lon="6.25115">
        <ele>1446.44</ele>
        <time>2013-07-13T11:44:05Z</time>
      </trkpt>
      <trkpt lat="46.55199" lon="6.25115">
        <ele>1443.56</ele>
        <time>2013-07-13T11:44:06Z</time>
      </trkpt>
      <trkpt lat="46.55198" lon="6.25113">
        <ele>1443.56</ele>
        <time>2013-07-13T11:44:26Z</time>
      </trkpt>
      <trkpt lat="46.55197" lon="6.25111">
        <ele>1443.56</ele>
        <time>2013-07-13T11:44:36Z</time>
      </trkpt>
      <trkpt lat="46.55196" lon="6.25107">
        <ele>1443.56</ele>
        <time>2013-07-13T11:44:39Z</time>
      </trkpt>
      <trkpt lat="46.55189" lon="6.25088">
        <ele>1443.56</ele>
        <time>2013-07-13T11:44:51Z</time>
      </trkpt>
      <trkpt lat="46.55186" lon="6.25083">
        <ele>1444.52</ele>
        <time>2013-07-13T11:45:03Z</time>
      </trkpt>
      <trkpt lat="46.55183" lon="6.25081">
        <ele>1445</ele>
        <time>2013-07-13T11:45:06Z</time>
      </trkpt>
      <trkpt lat="46.55181" lon="6.2508">
        <ele>1445</ele>
        <time>2013-07-13T11:45:08Z</time>
      </trkpt>
      <trkpt lat="46.55179" lon="6.25079">
        <ele>1445.48</ele>
        <time>2013-07-13T11:45:10Z</time>
      </trkpt>
      <trkpt lat="46.55171" lon="6.25076">
        <ele>1445.96</ele>
        <time>2013-07-13T11:45:22Z</time>
      </trkpt>
      <trkpt lat="46.55162" lon="6.25065">
        <ele>1447.4</ele>
        <time>2013-07-13T11:45:36Z</time>
      </trkpt>
      <trkpt lat="46.55161" lon="6.25064">
        <ele>1447.4</ele>
        <time>2013-07-13T11:45:38Z</time>
      </trkpt>
      <trkpt lat="46.55159" lon="6.25062">
        <ele>1447.4</ele>
        <time>2013-07-13T11:45:40Z</time>
      </trkpt>
      <trkpt lat="46.55151" lon="6.25046">
        <ele>1447.88</ele>
        <time>2013-07-13T11:45:54Z</time>
      </trkpt>
      <trkpt lat="46.55141" lon="6.25035">
        <ele>1449.32</ele>
        <time>2013-07-13T11:46:08Z</time>
      </trkpt>
      <trkpt lat="46.55134" lon="6.25029">
        <ele>1449.81</ele>
        <time>2013-07-13T11:46:14Z</time>
      </trkpt>
      <trkpt lat="46.5513" lon="6.25026">
        <ele>1449.81</ele>
        <time>2013-07-13T11:46:17Z</time>
      </trkpt>
      <trkpt lat="46.55114" lon="6.25017">
        <ele>1448.84</ele>
        <time>2013-07-13T11:46:30Z</time>
      </trkpt>
      <trkpt lat="46.55112" lon="6.25015">
        <ele>1449.32</ele>
        <time>2013-07-13T11:46:32Z</time>
      </trkpt>
      <trkpt lat="46.55105" lon="6.25002">
        <ele>1450.77</ele>
        <time>2013-07-13T11:46:45Z</time>
      </trkpt>
      <trkpt lat="46.55093" lon="6.24993">
        <ele>1452.21</ele>
        <time>2013-07-13T11:47:00Z</time>
      </trkpt>
      <trkpt lat="46.55086" lon="6.24987">
        <ele>1453.65</ele>
        <time>2013-07-13T11:47:12Z</time>
      </trkpt>
      <trkpt lat="46.55081" lon="6.24984">
        <ele>1454.61</ele>
        <time>2013-07-13T11:47:26Z</time>
      </trkpt>
      <trkpt lat="46.55067" lon="6.2498">
        <ele>1456.05</ele>
        <time>2013-07-13T11:47:39Z</time>
      </trkpt>
      <trkpt lat="46.55055" lon="6.24971">
        <ele>1457.98</ele>
        <time>2013-07-13T11:47:54Z</time>
      </trkpt>
      <trkpt lat="46.55044" lon="6.24962">
        <ele>1458.94</ele>
        <time>2013-07-13T11:48:08Z</time>
      </trkpt>
      <trkpt lat="46.55032" lon="6.24949">
        <ele>1458.46</ele>
        <time>2013-07-13T11:48:22Z</time>
      </trkpt>
      <trkpt lat="46.55025" lon="6.24944">
        <ele>1458.94</ele>
        <time>2013-07-13T11:48:37Z</time>
      </trkpt>
      <trkpt lat="46.55015" lon="6.24931">
        <ele>1457.5</ele>
        <time>2013-07-13T11:48:52Z</time>
      </trkpt>
      <trkpt lat="46.55005" lon="6.24919">
        <ele>1457.5</ele>
        <time>2013-07-13T11:49:05Z</time>
      </trkpt>
      <trkpt lat="46.54996" lon="6.24905">
        <ele>1458.94</ele>
        <time>2013-07-13T11:49:21Z</time>
      </trkpt>
      <trkpt lat="46.54974" lon="6.24879">
        <ele>1459.9</ele>
        <time>2013-07-13T11:49:37Z</time>
      </trkpt>
      <trkpt lat="46.54964" lon="6.24877">
        <ele>1461.34</ele>
        <time>2013-07-13T11:49:50Z</time>
      </trkpt>
      <trkpt lat="46.54953" lon="6.24873">
        <ele>1461.82</ele>
        <time>2013-07-13T11:50:00Z</time>
      </trkpt>
      <trkpt lat="46.5495" lon="6.24863">
        <ele>1461.82</ele>
        <time>2013-07-13T11:50:10Z</time>
      </trkpt>
      <trkpt lat="46.5495" lon="6.24853">
        <ele>1462.78</ele>
        <time>2013-07-13T11:50:17Z</time>
      </trkpt>
      <trkpt lat="46.54949" lon="6.24842">
        <ele>1463.26</ele>
        <time>2013-07-13T11:50:34Z</time>
      </trkpt>
      <trkpt lat="46.54941" lon="6.24834">
        <ele>1463.26</ele>
        <time>2013-07-13T11:50:48Z</time>
      </trkpt>
      <trkpt lat="46.54932" lon="6.24821">
        <ele>1462.78</ele>
        <time>2013-07-13T11:50:59Z</time>
      </trkpt>
      <trkpt lat="46.54927" lon="6.24799">
        <ele>1462.78</ele>
        <time>2013-07-13T11:51:15Z</time>
      </trkpt>
      <trkpt lat="46.54928" lon="6.24797">
        <ele>1461.82</ele>
        <time>2013-07-13T11:51:32Z</time>
      </trkpt>
      <trkpt lat="46.54925" lon="6.2479">
        <ele>1461.34</ele>
        <time>2013-07-13T11:51:49Z</time>
      </trkpt>
      <trkpt lat="46.54926" lon="6.24773">
        <ele>1460.38</ele>
        <time>2013-07-13T11:52:00Z</time>
      </trkpt>
      <trkpt lat="46.54923" lon="6.24753">
        <ele>1458.46</ele>
        <time>2013-07-13T11:52:14Z</time>
      </trkpt>
      <trkpt lat="46.54921" lon="6.2474">
        <ele>1457.02</ele>
        <time>2013-07-13T11:52:26Z</time>
      </trkpt>
      <trkpt lat="46.54918" lon="6.24723">
        <ele>1454.13</ele>
        <time>2013-07-13T11:52:40Z</time>
      </trkpt>
      <trkpt lat="46.54914" lon="6.24714">
        <ele>1453.65</ele>
        <time>2013-07-13T11:52:56Z</time>
      </trkpt>
      <trkpt lat="46.54909" lon="6.24699">
        <ele>1451.25</ele>
        <time>2013-07-13T11:53:11Z</time>
      </trkpt>
      <trkpt lat="46.54908" lon="6.24696">
        <ele>1451.25</ele>
        <time>2013-07-13T11:53:12Z</time>
      </trkpt>
      <trkpt lat="46.54904" lon="6.24672">
        <ele>1448.36</ele>
        <time>2013-07-13T11:53:26Z</time>
      </trkpt>
      <trkpt lat="46.54902" lon="6.2467">
        <ele>1448.36</ele>
        <time>2013-07-13T11:53:27Z</time>
      </trkpt>
      <trkpt lat="46.5489" lon="6.24657">
        <ele>1446.44</ele>
        <time>2013-07-13T11:53:39Z</time>
      </trkpt>
      <trkpt lat="46.54885" lon="6.24651">
        <ele>1445</ele>
        <time>2013-07-13T11:53:52Z</time>
      </trkpt>
      <trkpt lat="46.5488" lon="6.24644">
        <ele>1444.04</ele>
        <time>2013-07-13T11:54:06Z</time>
      </trkpt>
      <trkpt lat="46.54877" lon="6.24636">
        <ele>1443.56</ele>
        <time>2013-07-13T11:54:15Z</time>
      </trkpt>
      <trkpt lat="46.54867" lon="6.24616">
        <ele>1443.56</ele>
        <time>2013-07-13T11:54:25Z</time>
      </trkpt>
      <trkpt lat="46.54849" lon="6.24608">
        <ele>1443.08</ele>
        <time>2013-07-13T11:54:38Z</time>
      </trkpt>
      <trkpt lat="46.54846" lon="6.24605">
        <ele>1443.08</ele>
        <time>2013-07-13T11:54:42Z</time>
      </trkpt>
      <trkpt lat="46.5484" lon="6.246">
        <ele>1443.56</ele>
        <time>2013-07-13T11:54:46Z</time>
      </trkpt>
      <trkpt lat="46.54828" lon="6.24591">
        <ele>1444.04</ele>
        <time>2013-07-13T11:55:01Z</time>
      </trkpt>
      <trkpt lat="46.54822" lon="6.24589">
        <ele>1444.52</ele>
        <time>2013-07-13T11:55:14Z</time>
      </trkpt>
      <trkpt lat="46.54819" lon="6.24589">
        <ele>1444.52</ele>
        <time>2013-07-13T11:55:17Z</time>
      </trkpt>
      <trkpt lat="46.54814" lon="6.24588">
        <ele>1444.52</ele>
        <time>2013-07-13T11:55:21Z</time>
      </trkpt>
      <trkpt lat="46.54811" lon="6.24587">
        <ele>1444.52</ele>
        <time>2013-07-13T11:55:23Z</time>
      </trkpt>
      <trkpt lat="46.54808" lon="6.24586">
        <ele>1444.52</ele>
        <time>2013-07-13T11:55:25Z</time>
      </trkpt>
      <trkpt lat="46.548" lon="6.2458">
        <ele>1445</ele>
        <time>2013-07-13T11:55:33Z</time>
      </trkpt>
      <trkpt lat="46.54794" lon="6.24576">
        <ele>1445.96</ele>
        <time>2013-07-13T11:55:40Z</time>
      </trkpt>
      <trkpt lat="46.54783" lon="6.24567">
        <ele>1446.44</ele>
        <time>2013-07-13T11:55:52Z</time>
      </trkpt>
      <trkpt lat="46.54773" lon="6.24559">
        <ele>1447.88</ele>
        <time>2013-07-13T11:56:06Z</time>
      </trkpt>
      <trkpt lat="46.54767" lon="6.24541">
        <ele>1445.48</ele>
        <time>2013-07-13T11:56:22Z</time>
      </trkpt>
      <trkpt lat="46.54765" lon="6.24532">
        <ele>1444.52</ele>
        <time>2013-07-13T11:56:34Z</time>
      </trkpt>
      <trkpt lat="46.54762" lon="6.24517">
        <ele>1442.6</ele>
        <time>2013-07-13T11:56:49Z</time>
      </trkpt>
      <trkpt lat="46.54754" lon="6.24499">
        <ele>1441.15</ele>
        <time>2013-07-13T11:57:03Z</time>
      </trkpt>
      <trkpt lat="46.54752" lon="6.2449">
        <ele>1440.67</ele>
        <time>2013-07-13T11:57:07Z</time>
      </trkpt>
      <trkpt lat="46.54744" lon="6.24471">
        <ele>1439.71</ele>
        <time>2013-07-13T11:57:21Z</time>
      </trkpt>
      <trkpt lat="46.54744" lon="6.24451">
        <ele>1438.27</ele>
        <time>2013-07-13T11:57:36Z</time>
      </trkpt>
      <trkpt lat="46.54749" lon="6.24437">
        <ele>1436.83</ele>
        <time>2013-07-13T11:57:49Z</time>
      </trkpt>
      <trkpt lat="46.5474" lon="6.24422">
        <ele>1436.35</ele>
        <time>2013-07-13T11:58:02Z</time>
      </trkpt>
      <trkpt lat="46.54733" lon="6.2441">
        <ele>1434.91</ele>
        <time>2013-07-13T11:58:14Z</time>
      </trkpt>
      <trkpt lat="46.54725" lon="6.24393">
        <ele>1433.46</ele>
        <time>2013-07-13T11:58:29Z</time>
      </trkpt>
      <trkpt lat="46.54718" lon="6.24381">
        <ele>1432.5</ele>
        <time>2013-07-13T11:58:47Z</time>
      </trkpt>
      <trkpt lat="46.54707" lon="6.24364">
        <ele>1431.54</ele>
        <time>2013-07-13T11:59:00Z</time>
      </trkpt>
      <trkpt lat="46.54698" lon="6.24356">
        <ele>1431.06</ele>
        <time>2013-07-13T11:59:12Z</time>
      </trkpt>
      <trkpt lat="46.54689" lon="6.24343">
        <ele>1429.14</ele>
        <time>2013-07-13T11:59:23Z</time>
      </trkpt>
      <trkpt lat="46.5468" lon="6.24333">
        <ele>1427.7</ele>
        <time>2013-07-13T11:59:34Z</time>
      </trkpt>
      <trkpt lat="46.54677" lon="6.24333">
        <ele>1431.06</ele>
        <time>2013-07-13T11:59:37Z</time>
      </trkpt>
      <trkpt lat="46.54676" lon="6.24333">
        <ele>1427.7</ele>
        <time>2013-07-13T11:59:38Z</time>
      </trkpt>
      <trkpt lat="46.5467" lon="6.24334">
        <ele>1424.81</ele>
        <time>2013-07-13T11:59:47Z</time>
      </trkpt>
      <trkpt lat="46.54666" lon="6.24332">
        <ele>1424.81</ele>
        <time>2013-07-13T11:59:52Z</time>
      </trkpt>
      <trkpt lat="46.54652" lon="6.24336">
        <ele>1423.85</ele>
        <time>2013-07-13T12:00:04Z</time>
      </trkpt>
      <trkpt lat="46.54637" lon="6.24341">
        <ele>1423.37</ele>
        <time>2013-07-13T12:00:20Z</time>
      </trkpt>
      <trkpt lat="46.54629" lon="6.24343">
        <ele>1423.85</ele>
        <time>2013-07-13T12:00:38Z</time>
      </trkpt>
      <trkpt lat="46.54618" lon="6.24344">
        <ele>1423.37</ele>
        <time>2013-07-13T12:00:48Z</time>
      </trkpt>
      <trkpt lat="46.54613" lon="6.24348">
        <ele>1422.41</ele>
        <time>2013-07-13T12:00:53Z</time>
      </trkpt>
      <trkpt lat="46.54606" lon="6.24359">
        <ele>1421.93</ele>
        <time>2013-07-13T12:01:06Z</time>
      </trkpt>
      <trkpt lat="46.54604" lon="6.24369">
        <ele>1421.45</ele>
        <time>2013-07-13T12:01:11Z</time>
      </trkpt>
      <trkpt lat="46.546" lon="6.24392">
        <ele>1420</ele>
        <time>2013-07-13T12:01:24Z</time>
      </trkpt>
      <trkpt lat="46.54587" lon="6.24402">
        <ele>1419.04</ele>
        <time>2013-07-13T12:01:37Z</time>
      </trkpt>
      <trkpt lat="46.54573" lon="6.244">
        <ele>1418.08</ele>
        <time>2013-07-13T12:01:51Z</time>
      </trkpt>
      <trkpt lat="46.54563" lon="6.24395">
        <ele>1416.64</ele>
        <time>2013-07-13T12:02:01Z</time>
      </trkpt>
      <trkpt lat="46.54553" lon="6.24382">
        <ele>1416.16</ele>
        <time>2013-07-13T12:02:11Z</time>
      </trkpt>
      <trkpt lat="46.5455" lon="6.2438">
        <ele>1416.16</ele>
        <time>2013-07-13T12:02:14Z</time>
      </trkpt>
      <trkpt lat="46.54539" lon="6.24375">
        <ele>1416.64</ele>
        <time>2013-07-13T12:02:25Z</time>
      </trkpt>
      <trkpt lat="46.54526" lon="6.24384">
        <ele>1415.68</ele>
        <time>2013-07-13T12:02:41Z</time>
      </trkpt>
      <trkpt lat="46.54513" lon="6.24395">
        <ele>1413.28</ele>
        <time>2013-07-13T12:02:55Z</time>
      </trkpt>
      <trkpt lat="46.54509" lon="6.24394">
        <ele>1412.79</ele>
        <time>2013-07-13T12:02:58Z</time>
      </trkpt>
      <trkpt lat="46.54504" lon="6.24387">
        <ele>1412.31</ele>
        <time>2013-07-13T12:03:06Z</time>
      </trkpt>
      <trkpt lat="46.54493" lon="6.24371">
        <ele>1412.79</ele>
        <time>2013-07-13T12:03:19Z</time>
      </trkpt>
      <trkpt lat="46.54488" lon="6.24367">
        <ele>1412.79</ele>
        <time>2013-07-13T12:03:25Z</time>
      </trkpt>
      <trkpt lat="46.54476" lon="6.24357">
        <ele>1412.79</ele>
        <time>2013-07-13T12:03:39Z</time>
      </trkpt>
      <trkpt lat="46.5447" lon="6.24358">
        <ele>1412.79</ele>
        <time>2013-07-13T12:03:53Z</time>
      </trkpt>
      <trkpt lat="46.54461" lon="6.24371">
        <ele>1410.87</ele>
        <time>2013-07-13T12:04:06Z</time>
      </trkpt>
      <trkpt lat="46.54458" lon="6.24375">
        <ele>1409.91</ele>
        <time>2013-07-13T12:04:09Z</time>
      </trkpt>
      <trkpt lat="46.54441" lon="6.24384">
        <ele>1409.91</ele>
        <time>2013-07-13T12:04:23Z</time>
      </trkpt>
      <trkpt lat="46.54439" lon="6.24397">
        <ele>1409.43</ele>
        <time>2013-07-13T12:04:31Z</time>
      </trkpt>
      <trkpt lat="46.54435" lon="6.24412">
        <ele>1410.39</ele>
        <time>2013-07-13T12:04:44Z</time>
      </trkpt>
      <trkpt lat="46.54429" lon="6.24426">
        <ele>1410.87</ele>
        <time>2013-07-13T12:04:53Z</time>
      </trkpt>
      <trkpt lat="46.54428" lon="6.2443">
        <ele>1410.87</ele>
        <time>2013-07-13T12:04:55Z</time>
      </trkpt>
      <trkpt lat="46.54418" lon="6.24444">
        <ele>1409.91</ele>
        <time>2013-07-13T12:05:09Z</time>
      </trkpt>
      <trkpt lat="46.54416" lon="6.24445">
        <ele>1409.43</ele>
        <time>2013-07-13T12:05:11Z</time>
      </trkpt>
      <trkpt lat="46.54414" lon="6.24449">
        <ele>1408.95</ele>
        <time>2013-07-13T12:05:13Z</time>
      </trkpt>
      <trkpt lat="46.54404" lon="6.24464">
        <ele>1407.03</ele>
        <time>2013-07-13T12:05:26Z</time>
      </trkpt>
      <trkpt lat="46.54403" lon="6.24466">
        <ele>1406.55</ele>
        <time>2013-07-13T12:05:28Z</time>
      </trkpt>
      <trkpt lat="46.54397" lon="6.24469">
        <ele>1406.55</ele>
        <time>2013-07-13T12:05:34Z</time>
      </trkpt>
      <trkpt lat="46.5438" lon="6.24464">
        <ele>1404.14</ele>
        <time>2013-07-13T12:05:51Z</time>
      </trkpt>
      <trkpt lat="46.54364" lon="6.24462">
        <ele>1402.22</ele>
        <time>2013-07-13T12:06:04Z</time>
      </trkpt>
      <trkpt lat="46.5436" lon="6.24477">
        <ele>1401.74</ele>
        <time>2013-07-13T12:06:16Z</time>
      </trkpt>
      <trkpt lat="46.54362" lon="6.24486">
        <ele>1399.82</ele>
        <time>2013-07-13T12:06:26Z</time>
      </trkpt>
      <trkpt lat="46.54365" lon="6.24497">
        <ele>1397.41</ele>
        <time>2013-07-13T12:06:40Z</time>
      </trkpt>
      <trkpt lat="46.54369" lon="6.24507">
        <ele>1395.49</ele>
        <time>2013-07-13T12:06:48Z</time>
      </trkpt>
      <trkpt lat="46.54373" lon="6.24521">
        <ele>1392.13</ele>
        <time>2013-07-13T12:07:01Z</time>
      </trkpt>
      <trkpt lat="46.54373" lon="6.2453">
        <ele>1390.68</ele>
        <time>2013-07-13T12:07:06Z</time>
      </trkpt>
      <trkpt lat="46.54371" lon="6.24539">
        <ele>1390.2</ele>
        <time>2013-07-13T12:07:22Z</time>
      </trkpt>
      <trkpt lat="46.54373" lon="6.24539">
        <ele>1390.2</ele>
        <time>2013-07-13T12:07:50Z</time>
      </trkpt>
      <trkpt lat="46.54383" lon="6.24553">
        <ele>1387.8</ele>
        <time>2013-07-13T12:08:02Z</time>
      </trkpt>
      <trkpt lat="46.54388" lon="6.24561">
        <ele>1385.88</ele>
        <time>2013-07-13T12:08:09Z</time>
      </trkpt>
      <trkpt lat="46.54397" lon="6.24577">
        <ele>1382.51</ele>
        <time>2013-07-13T12:08:23Z</time>
      </trkpt>
      <trkpt lat="46.54399" lon="6.2458">
        <ele>1382.51</ele>
        <time>2013-07-13T12:08:25Z</time>
      </trkpt>
      <trkpt lat="46.54404" lon="6.24585">
        <ele>1382.03</ele>
        <time>2013-07-13T12:08:30Z</time>
      </trkpt>
      <trkpt lat="46.54413" lon="6.24602">
        <ele>1382.03</ele>
        <time>2013-07-13T12:08:41Z</time>
      </trkpt>
      <trkpt lat="46.54426" lon="6.24617">
        <ele>1379.63</ele>
        <time>2013-07-13T12:08:55Z</time>
      </trkpt>
      <trkpt lat="46.54429" lon="6.24636">
        <ele>1376.75</ele>
        <time>2013-07-13T12:09:07Z</time>
      </trkpt>
      <trkpt lat="46.54429" lon="6.24653">
        <ele>1374.82</ele>
        <time>2013-07-13T12:09:20Z</time>
      </trkpt>
      <trkpt lat="46.5443" lon="6.24665">
        <ele>1372.9</ele>
        <time>2013-07-13T12:09:30Z</time>
      </trkpt>
      <trkpt lat="46.54424" lon="6.24683">
        <ele>1370.98</ele>
        <time>2013-07-13T12:09:43Z</time>
      </trkpt>
      <trkpt lat="46.54416" lon="6.24695">
        <ele>1370.98</ele>
        <time>2013-07-13T12:09:56Z</time>
      </trkpt>
      <trkpt lat="46.54399" lon="6.24695">
        <ele>1370.98</ele>
        <time>2013-07-13T12:10:06Z</time>
      </trkpt>
      <trkpt lat="46.54395" lon="6.24692">
        <ele>1370.98</ele>
        <time>2013-07-13T12:10:09Z</time>
      </trkpt>
      <trkpt lat="46.54381" lon="6.24685">
        <ele>1371.46</ele>
        <time>2013-07-13T12:10:22Z</time>
      </trkpt>
      <trkpt lat="46.54369" lon="6.24685">
        <ele>1372.42</ele>
        <time>2013-07-13T12:10:35Z</time>
      </trkpt>
      <trkpt lat="46.54367" lon="6.24685">
        <ele>1372.42</ele>
        <time>2013-07-13T12:10:37Z</time>
      </trkpt>
      <trkpt lat="46.54356" lon="6.24693">
        <ele>1372.9</ele>
        <time>2013-07-13T12:10:47Z</time>
      </trkpt>
      <trkpt lat="46.54349" lon="6.24707">
        <ele>1371.94</ele>
        <time>2013-07-13T12:11:01Z</time>
      </trkpt>
      <trkpt lat="46.5435" lon="6.24721">
        <ele>1369.54</ele>
        <time>2013-07-13T12:11:14Z</time>
      </trkpt>
      <trkpt lat="46.54354" lon="6.24736">
        <ele>1367.61</ele>
        <time>2013-07-13T12:11:30Z</time>
      </trkpt>
      <trkpt lat="46.54354" lon="6.24744">
        <ele>1362.33</ele>
        <time>2013-07-13T12:11:37Z</time>
      </trkpt>
      <trkpt lat="46.54355" lon="6.24745">
        <ele>1370.02</ele>
        <time>2013-07-13T12:11:38Z</time>
      </trkpt>
      <trkpt lat="46.54355" lon="6.24747">
        <ele>1362.81</ele>
        <time>2013-07-13T12:11:39Z</time>
      </trkpt>
      <trkpt lat="46.54355" lon="6.24748">
        <ele>1368.57</ele>
        <time>2013-07-13T12:11:40Z</time>
      </trkpt>
      <trkpt lat="46.54356" lon="6.24751">
        <ele>1365.69</ele>
        <time>2013-07-13T12:11:43Z</time>
      </trkpt>
      <trkpt lat="46.54357" lon="6.24756">
        <ele>1364.73</ele>
        <time>2013-07-13T12:11:47Z</time>
      </trkpt>
      <trkpt lat="46.54355" lon="6.24765">
        <ele>1364.73</ele>
        <time>2013-07-13T12:11:53Z</time>
      </trkpt>
      <trkpt lat="46.54352" lon="6.24776">
        <ele>1364.25</ele>
        <time>2013-07-13T12:12:05Z</time>
      </trkpt>
      <trkpt lat="46.54351" lon="6.24772">
        <ele>1364.25</ele>
        <time>2013-07-13T12:12:17Z</time>
      </trkpt>
      <trkpt lat="46.54344" lon="6.24754">
        <ele>1360.4</ele>
        <time>2013-07-13T12:12:32Z</time>
      </trkpt>
      <trkpt lat="46.54343" lon="6.24753">
        <ele>1366.65</ele>
        <time>2013-07-13T12:12:33Z</time>
      </trkpt>
      <trkpt lat="46.54342" lon="6.24749">
        <ele>1363.29</ele>
        <time>2013-07-13T12:12:36Z</time>
      </trkpt>
      <trkpt lat="46.54334" lon="6.24738">
        <ele>1362.81</ele>
        <time>2013-07-13T12:12:49Z</time>
      </trkpt>
      <trkpt lat="46.54331" lon="6.24735">
        <ele>1362.33</ele>
        <time>2013-07-13T12:13:03Z</time>
      </trkpt>
      <trkpt lat="46.5433" lon="6.24733">
        <ele>1361.84</ele>
        <time>2013-07-13T12:13:20Z</time>
      </trkpt>
      <trkpt lat="46.5433" lon="6.24732">
        <ele>1361.84</ele>
        <time>2013-07-13T12:13:21Z</time>
      </trkpt>
      <trkpt lat="46.5432" lon="6.2472">
        <ele>1361.84</ele>
        <time>2013-07-13T12:13:33Z</time>
      </trkpt>
      <trkpt lat="46.54315" lon="6.2471">
        <ele>1361.36</ele>
        <time>2013-07-13T12:13:46Z</time>
      </trkpt>
      <trkpt lat="46.54315" lon="6.2471">
        <ele>1361.36</ele>
        <time>2013-07-13T12:14:17Z</time>
      </trkpt>
      <trkpt lat="46.54313" lon="6.24709">
        <ele>1360.88</ele>
        <time>2013-07-13T12:14:40Z</time>
      </trkpt>
      <trkpt lat="46.54302" lon="6.2469">
        <ele>1360.4</ele>
        <time>2013-07-13T12:14:53Z</time>
      </trkpt>
      <trkpt lat="46.54291" lon="6.24677">
        <ele>1359.44</ele>
        <time>2013-07-13T12:15:05Z</time>
      </trkpt>
      <trkpt lat="46.54287" lon="6.24671">
        <ele>1359.44</ele>
        <time>2013-07-13T12:15:10Z</time>
      </trkpt>
      <trkpt lat="46.54281" lon="6.24666">
        <ele>1358.96</ele>
        <time>2013-07-13T12:15:16Z</time>
      </trkpt>
      <trkpt lat="46.54271" lon="6.24654">
        <ele>1358</ele>
        <time>2013-07-13T12:15:27Z</time>
      </trkpt>
      <trkpt lat="46.54263" lon="6.24637">
        <ele>1357.04</ele>
        <time>2013-07-13T12:15:40Z</time>
      </trkpt>
      <trkpt lat="46.54259" lon="6.2463">
        <ele>1356.08</ele>
        <time>2013-07-13T12:15:46Z</time>
      </trkpt>
      <trkpt lat="46.54252" lon="6.2461">
        <ele>1354.63</ele>
        <time>2013-07-13T12:15:59Z</time>
      </trkpt>
      <trkpt lat="46.54248" lon="6.24601">
        <ele>1354.15</ele>
        <time>2013-07-13T12:16:05Z</time>
      </trkpt>
      <trkpt lat="46.54239" lon="6.24583">
        <ele>1352.71</ele>
        <time>2013-07-13T12:16:17Z</time>
      </trkpt>
      <trkpt lat="46.5423" lon="6.24563">
        <ele>1351.75</ele>
        <time>2013-07-13T12:16:29Z</time>
      </trkpt>
      <trkpt lat="46.54221" lon="6.24545">
        <ele>1350.31</ele>
        <time>2013-07-13T12:16:42Z</time>
      </trkpt>
      <trkpt lat="46.54221" lon="6.24544">
        <ele>1350.79</ele>
        <time>2013-07-13T12:16:43Z</time>
      </trkpt>
      <trkpt lat="46.54212" lon="6.24531">
        <ele>1349.83</ele>
        <time>2013-07-13T12:16:55Z</time>
      </trkpt>
      <trkpt lat="46.54202" lon="6.24517">
        <ele>1348.87</ele>
        <time>2013-07-13T12:17:07Z</time>
      </trkpt>
      <trkpt lat="46.54193" lon="6.24506">
        <ele>1348.39</ele>
        <time>2013-07-13T12:17:18Z</time>
      </trkpt>
      <trkpt lat="46.54191" lon="6.24505">
        <ele>1348.39</ele>
        <time>2013-07-13T12:17:20Z</time>
      </trkpt>
      <trkpt lat="46.54178" lon="6.24493">
        <ele>1347.43</ele>
        <time>2013-07-13T12:17:34Z</time>
      </trkpt>
      <trkpt lat="46.54168" lon="6.24477">
        <ele>1345.98</ele>
        <time>2013-07-13T12:17:48Z</time>
      </trkpt>
      <trkpt lat="46.54157" lon="6.24467">
        <ele>1345.5</ele>
        <time>2013-07-13T12:18:00Z</time>
      </trkpt>
      <trkpt lat="46.54151" lon="6.24461">
        <ele>1345.02</ele>
        <time>2013-07-13T12:18:06Z</time>
      </trkpt>
      <trkpt lat="46.54147" lon="6.24455">
        <ele>1345.02</ele>
        <time>2013-07-13T12:18:11Z</time>
      </trkpt>
      <trkpt lat="46.54141" lon="6.24447">
        <ele>1344.54</ele>
        <time>2013-07-13T12:18:18Z</time>
      </trkpt>
      <trkpt lat="46.5413" lon="6.24435">
        <ele>1343.58</ele>
        <time>2013-07-13T12:18:32Z</time>
      </trkpt>
      <trkpt lat="46.54112" lon="6.24423">
        <ele>1343.1</ele>
        <time>2013-07-13T12:18:47Z</time>
      </trkpt>
      <trkpt lat="46.54103" lon="6.24418">
        <ele>1342.62</ele>
        <time>2013-07-13T12:18:56Z</time>
      </trkpt>
      <trkpt lat="46.54092" lon="6.24411">
        <ele>1342.62</ele>
        <time>2013-07-13T12:19:08Z</time>
      </trkpt>
      <trkpt lat="46.54086" lon="6.24406">
        <ele>1342.14</ele>
        <time>2013-07-13T12:19:14Z</time>
      </trkpt>
      <trkpt lat="46.54082" lon="6.24401">
        <ele>1342.14</ele>
        <time>2013-07-13T12:19:19Z</time>
      </trkpt>
      <trkpt lat="46.54079" lon="6.24397">
        <ele>1341.66</ele>
        <time>2013-07-13T12:19:24Z</time>
      </trkpt>
      <trkpt lat="46.54074" lon="6.24391">
        <ele>1341.66</ele>
        <time>2013-07-13T12:19:29Z</time>
      </trkpt>
      <trkpt lat="46.5407" lon="6.24381">
        <ele>1340.7</ele>
        <time>2013-07-13T12:19:35Z</time>
      </trkpt>
      <trkpt lat="46.54069" lon="6.24364">
        <ele>1339.73</ele>
        <time>2013-07-13T12:19:47Z</time>
      </trkpt>
      <trkpt lat="46.54067" lon="6.24347">
        <ele>1338.29</ele>
        <time>2013-07-13T12:19:58Z</time>
      </trkpt>
      <trkpt lat="46.54061" lon="6.24329">
        <ele>1336.85</ele>
        <time>2013-07-13T12:20:10Z</time>
      </trkpt>
      <trkpt lat="46.54056" lon="6.24312">
        <ele>1335.41</ele>
        <time>2013-07-13T12:20:23Z</time>
      </trkpt>
      <trkpt lat="46.54055" lon="6.24306">
        <ele>1335.89</ele>
        <time>2013-07-13T12:20:27Z</time>
      </trkpt>
      <trkpt lat="46.54054" lon="6.24304">
        <ele>1335.41</ele>
        <time>2013-07-13T12:20:29Z</time>
      </trkpt>
      <trkpt lat="46.54048" lon="6.24286">
        <ele>1334.45</ele>
        <time>2013-07-13T12:20:41Z</time>
      </trkpt>
      <trkpt lat="46.54045" lon="6.24271">
        <ele>1333.49</ele>
        <time>2013-07-13T12:20:51Z</time>
      </trkpt>
      <trkpt lat="46.54041" lon="6.24257">
        <ele>1332.52</ele>
        <time>2013-07-13T12:21:04Z</time>
      </trkpt>
      <trkpt lat="46.54039" lon="6.24251">
        <ele>1332.04</ele>
        <time>2013-07-13T12:21:07Z</time>
      </trkpt>
      <trkpt lat="46.54038" lon="6.24245">
        <ele>1331.56</ele>
        <time>2013-07-13T12:21:10Z</time>
      </trkpt>
      <trkpt lat="46.54039" lon="6.2424">
        <ele>1331.56</ele>
        <time>2013-07-13T12:21:13Z</time>
      </trkpt>
      <trkpt lat="46.54031" lon="6.24221">
        <ele>1330.12</ele>
        <time>2013-07-13T12:21:25Z</time>
      </trkpt>
      <trkpt lat="46.54026" lon="6.2421">
        <ele>1329.64</ele>
        <time>2013-07-13T12:21:31Z</time>
      </trkpt>
      <trkpt lat="46.54022" lon="6.24204">
        <ele>1329.16</ele>
        <time>2013-07-13T12:21:36Z</time>
      </trkpt>
      <trkpt lat="46.54016" lon="6.24195">
        <ele>1328.68</ele>
        <time>2013-07-13T12:21:43Z</time>
      </trkpt>
      <trkpt lat="46.54013" lon="6.24188">
        <ele>1328.2</ele>
        <time>2013-07-13T12:21:49Z</time>
      </trkpt>
      <trkpt lat="46.54001" lon="6.24175">
        <ele>1327.24</ele>
        <time>2013-07-13T12:22:01Z</time>
      </trkpt>
      <trkpt lat="46.53994" lon="6.24171">
        <ele>1326.28</ele>
        <time>2013-07-13T12:22:12Z</time>
      </trkpt>
      <trkpt lat="46.53977" lon="6.24157">
        <ele>1324.83</ele>
        <time>2013-07-13T12:22:26Z</time>
      </trkpt>
      <trkpt lat="46.53967" lon="6.24145">
        <ele>1323.39</ele>
        <time>2013-07-13T12:22:38Z</time>
      </trkpt>
      <trkpt lat="46.53954" lon="6.24134">
        <ele>1322.43</ele>
        <time>2013-07-13T12:22:52Z</time>
      </trkpt>
      <trkpt lat="46.53946" lon="6.24125">
        <ele>1321.47</ele>
        <time>2013-07-13T12:23:04Z</time>
      </trkpt>
      <trkpt lat="46.53937" lon="6.24119">
        <ele>1320.99</ele>
        <time>2013-07-13T12:23:11Z</time>
      </trkpt>
      <trkpt lat="46.53934" lon="6.24111">
        <ele>1320.51</ele>
        <time>2013-07-13T12:23:17Z</time>
      </trkpt>
      <trkpt lat="46.53927" lon="6.24107">
        <ele>1320.03</ele>
        <time>2013-07-13T12:23:22Z</time>
      </trkpt>
      <trkpt lat="46.53923" lon="6.24103">
        <ele>1319.07</ele>
        <time>2013-07-13T12:23:28Z</time>
      </trkpt>
      <trkpt lat="46.53914" lon="6.24087">
        <ele>1318.59</ele>
        <time>2013-07-13T12:23:40Z</time>
      </trkpt>
      <trkpt lat="46.53908" lon="6.24086">
        <ele>1318.1</ele>
        <time>2013-07-13T12:23:44Z</time>
      </trkpt>
      <trkpt lat="46.53906" lon="6.2408">
        <ele>1318.1</ele>
        <time>2013-07-13T12:23:49Z</time>
      </trkpt>
      <trkpt lat="46.53903" lon="6.24078">
        <ele>1317.62</ele>
        <time>2013-07-13T12:23:52Z</time>
      </trkpt>
      <trkpt lat="46.53896" lon="6.24068">
        <ele>1316.66</ele>
        <time>2013-07-13T12:24:09Z</time>
      </trkpt>
      <trkpt lat="46.5389" lon="6.24075">
        <ele>1316.18</ele>
        <time>2013-07-13T12:24:23Z</time>
      </trkpt>
      <trkpt lat="46.53883" lon="6.24068">
        <ele>1315.7</ele>
        <time>2013-07-13T12:24:41Z</time>
      </trkpt>
      <trkpt lat="46.53873" lon="6.2406">
        <ele>1314.26</ele>
        <time>2013-07-13T12:24:51Z</time>
      </trkpt>
      <trkpt lat="46.5386" lon="6.24051">
        <ele>1313.3</ele>
        <time>2013-07-13T12:25:06Z</time>
      </trkpt>
      <trkpt lat="46.53855" lon="6.24046">
        <ele>1312.34</ele>
        <time>2013-07-13T12:25:11Z</time>
      </trkpt>
      <trkpt lat="46.53852" lon="6.24043">
        <ele>1312.34</ele>
        <time>2013-07-13T12:25:14Z</time>
      </trkpt>
      <trkpt lat="46.53841" lon="6.24034">
        <ele>1310.9</ele>
        <time>2013-07-13T12:25:27Z</time>
      </trkpt>
      <trkpt lat="46.53835" lon="6.2403">
        <ele>1309.93</ele>
        <time>2013-07-13T12:25:33Z</time>
      </trkpt>
      <trkpt lat="46.53832" lon="6.24029">
        <ele>1309.93</ele>
        <time>2013-07-13T12:25:35Z</time>
      </trkpt>
      <trkpt lat="46.53825" lon="6.24019">
        <ele>1308.97</ele>
        <time>2013-07-13T12:25:45Z</time>
      </trkpt>
      <trkpt lat="46.53821" lon="6.24016">
        <ele>1308.49</ele>
        <time>2013-07-13T12:25:57Z</time>
      </trkpt>
      <trkpt lat="46.53821" lon="6.24016">
        <ele>1308.49</ele>
        <time>2013-07-13T12:26:02Z</time>
      </trkpt>
      <trkpt lat="46.53816" lon="6.2401">
        <ele>1308.01</ele>
        <time>2013-07-13T12:26:08Z</time>
      </trkpt>
      <trkpt lat="46.53806" lon="6.23996">
        <ele>1306.57</ele>
        <time>2013-07-13T12:26:21Z</time>
      </trkpt>
      <trkpt lat="46.53801" lon="6.23992">
        <ele>1306.57</ele>
        <time>2013-07-13T12:26:27Z</time>
      </trkpt>
      <trkpt lat="46.53798" lon="6.23989">
        <ele>1305.61</ele>
        <time>2013-07-13T12:26:30Z</time>
      </trkpt>
      <trkpt lat="46.53791" lon="6.23985">
        <ele>1305.61</ele>
        <time>2013-07-13T12:26:35Z</time>
      </trkpt>
      <trkpt lat="46.53777" lon="6.23985">
        <ele>1305.13</ele>
        <time>2013-07-13T12:26:46Z</time>
      </trkpt>
      <trkpt lat="46.53773" lon="6.23988">
        <ele>1304.65</ele>
        <time>2013-07-13T12:26:51Z</time>
      </trkpt>
      <trkpt lat="46.53768" lon="6.23991">
        <ele>1304.65</ele>
        <time>2013-07-13T12:26:56Z</time>
      </trkpt>
      <trkpt lat="46.53765" lon="6.23991">
        <ele>1304.17</ele>
        <time>2013-07-13T12:26:58Z</time>
      </trkpt>
      <trkpt lat="46.5376" lon="6.23995">
        <ele>1304.17</ele>
        <time>2013-07-13T12:27:03Z</time>
      </trkpt>
      <trkpt lat="46.53756" lon="6.23997">
        <ele>1303.69</ele>
        <time>2013-07-13T12:27:07Z</time>
      </trkpt>
      <trkpt lat="46.53745" lon="6.24002">
        <ele>1303.2</ele>
        <time>2013-07-13T12:27:19Z</time>
      </trkpt>
      <trkpt lat="46.53744" lon="6.24002">
        <ele>1303.2</ele>
        <time>2013-07-13T12:27:20Z</time>
      </trkpt>
      <trkpt lat="46.53742" lon="6.24003">
        <ele>1303.2</ele>
        <time>2013-07-13T12:27:22Z</time>
      </trkpt>
      <trkpt lat="46.53736" lon="6.24005">
        <ele>1302.72</ele>
        <time>2013-07-13T12:27:29Z</time>
      </trkpt>
      <trkpt lat="46.53732" lon="6.24007">
        <ele>1302.72</ele>
        <time>2013-07-13T12:27:34Z</time>
      </trkpt>
      <trkpt lat="46.5373" lon="6.24008">
        <ele>1302.72</ele>
        <time>2013-07-13T12:27:36Z</time>
      </trkpt>
      <trkpt lat="46.53723" lon="6.2401">
        <ele>1302.72</ele>
        <time>2013-07-13T12:27:43Z</time>
      </trkpt>
      <trkpt lat="46.53712" lon="6.24011">
        <ele>1302.24</ele>
        <time>2013-07-13T12:27:53Z</time>
      </trkpt>
      <trkpt lat="46.53707" lon="6.2401">
        <ele>1302.24</ele>
        <time>2013-07-13T12:27:57Z</time>
      </trkpt>
      <trkpt lat="46.53705" lon="6.24009">
        <ele>1302.72</ele>
        <time>2013-07-13T12:27:59Z</time>
      </trkpt>
      <trkpt lat="46.53696" lon="6.24004">
        <ele>1302.24</ele>
        <time>2013-07-13T12:28:09Z</time>
      </trkpt>
      <trkpt lat="46.53688" lon="6.24001">
        <ele>1301.76</ele>
        <time>2013-07-13T12:28:18Z</time>
      </trkpt>
      <trkpt lat="46.53687" lon="6.24001">
        <ele>1301.76</ele>
        <time>2013-07-13T12:28:19Z</time>
      </trkpt>
      <trkpt lat="46.5368" lon="6.23997">
        <ele>1301.76</ele>
        <time>2013-07-13T12:28:26Z</time>
      </trkpt>
      <trkpt lat="46.53663" lon="6.23988">
        <ele>1301.76</ele>
        <time>2013-07-13T12:28:39Z</time>
      </trkpt>
      <trkpt lat="46.53656" lon="6.23983">
        <ele>1301.76</ele>
        <time>2013-07-13T12:28:46Z</time>
      </trkpt>
      <trkpt lat="46.53646" lon="6.23978">
        <ele>1302.24</ele>
        <time>2013-07-13T12:28:57Z</time>
      </trkpt>
      <trkpt lat="46.53644" lon="6.23976">
        <ele>1302.24</ele>
        <time>2013-07-13T12:28:59Z</time>
      </trkpt>
      <trkpt lat="46.53634" lon="6.23971">
        <ele>1302.24</ele>
        <time>2013-07-13T12:29:09Z</time>
      </trkpt>
      <trkpt lat="46.53629" lon="6.23969">
        <ele>1301.76</ele>
        <time>2013-07-13T12:29:14Z</time>
      </trkpt>
      <trkpt lat="46.53625" lon="6.23968">
        <ele>1302.24</ele>
        <time>2013-07-13T12:29:17Z</time>
      </trkpt>
      <trkpt lat="46.53623" lon="6.23966">
        <ele>1301.76</ele>
        <time>2013-07-13T12:29:19Z</time>
      </trkpt>
      <trkpt lat="46.5362" lon="6.23964">
        <ele>1301.76</ele>
        <time>2013-07-13T12:29:21Z</time>
      </trkpt>
      <trkpt lat="46.53618" lon="6.23963">
        <ele>1301.76</ele>
        <time>2013-07-13T12:29:23Z</time>
      </trkpt>
      <trkpt lat="46.53614" lon="6.23962">
        <ele>1302.24</ele>
        <time>2013-07-13T12:29:27Z</time>
      </trkpt>
      <trkpt lat="46.53612" lon="6.23961">
        <ele>1301.76</ele>
        <time>2013-07-13T12:29:29Z</time>
      </trkpt>
      <trkpt lat="46.53609" lon="6.23961">
        <ele>1301.76</ele>
        <time>2013-07-13T12:29:33Z</time>
      </trkpt>
      <trkpt lat="46.53606" lon="6.2396">
        <ele>1301.76</ele>
        <time>2013-07-13T12:29:36Z</time>
      </trkpt>
      <trkpt lat="46.53601" lon="6.23956">
        <ele>1301.76</ele>
        <time>2013-07-13T12:29:41Z</time>
      </trkpt>
      <trkpt lat="46.53596" lon="6.23958">
        <ele>1302.24</ele>
        <time>2013-07-13T12:29:45Z</time>
      </trkpt>
      <trkpt lat="46.53584" lon="6.23962">
        <ele>1301.76</ele>
        <time>2013-07-13T12:29:56Z</time>
      </trkpt>
      <trkpt lat="46.53579" lon="6.23963">
        <ele>1301.76</ele>
        <time>2013-07-13T12:30:00Z</time>
      </trkpt>
      <trkpt lat="46.53573" lon="6.23962">
        <ele>1301.76</ele>
        <time>2013-07-13T12:30:04Z</time>
      </trkpt>
      <trkpt lat="46.53572" lon="6.23964">
        <ele>1302.24</ele>
        <time>2013-07-13T12:30:17Z</time>
      </trkpt>
      <trkpt lat="46.53573" lon="6.23965">
        <ele>1302.24</ele>
        <time>2013-07-13T12:30:44Z</time>
      </trkpt>
      <trkpt lat="46.53574" lon="6.23962">
        <ele>1302.24</ele>
        <time>2013-07-13T12:30:54Z</time>
      </trkpt>
      <trkpt lat="46.53575" lon="6.23956">
        <ele>1302.24</ele>
        <time>2013-07-13T12:30:59Z</time>
      </trkpt>
      <trkpt lat="46.53577" lon="6.23959">
        <ele>1301.76</ele>
        <time>2013-07-13T12:31:12Z</time>
      </trkpt>
      <trkpt lat="46.53576" lon="6.23966">
        <ele>1302.24</ele>
        <time>2013-07-13T12:31:23Z</time>
      </trkpt>
      <trkpt lat="46.53572" lon="6.23961">
        <ele>1302.24</ele>
        <time>2013-07-13T12:31:34Z</time>
      </trkpt>
      <trkpt lat="46.53572" lon="6.23959">
        <ele>1302.24</ele>
        <time>2013-07-13T12:31:43Z</time>
      </trkpt>
      <trkpt lat="46.5357" lon="6.23953">
        <ele>1302.24</ele>
        <time>2013-07-13T12:31:47Z</time>
      </trkpt>
      <trkpt lat="46.53567" lon="6.23946">
        <ele>1302.24</ele>
        <time>2013-07-13T12:31:52Z</time>
      </trkpt>
      <trkpt lat="46.53564" lon="6.23938">
        <ele>1302.24</ele>
        <time>2013-07-13T12:31:57Z</time>
      </trkpt>
      <trkpt lat="46.53565" lon="6.23934">
        <ele>1301.76</ele>
        <time>2013-07-13T12:32:04Z</time>
      </trkpt>
      <trkpt lat="46.5355" lon="6.23925">
        <ele>1302.24</ele>
        <time>2013-07-13T12:32:17Z</time>
      </trkpt>
      <trkpt lat="46.53542" lon="6.23921">
        <ele>1301.76</ele>
        <time>2013-07-13T12:32:27Z</time>
      </trkpt>
      <trkpt lat="46.53529" lon="6.23917">
        <ele>1302.24</ele>
        <time>2013-07-13T12:32:37Z</time>
      </trkpt>
      <trkpt lat="46.53525" lon="6.23916">
        <ele>1302.24</ele>
        <time>2013-07-13T12:32:41Z</time>
      </trkpt>
      <trkpt lat="46.53518" lon="6.23916">
        <ele>1301.76</ele>
        <time>2013-07-13T12:32:51Z</time>
      </trkpt>
      <trkpt lat="46.53518" lon="6.23915">
        <ele>1301.76</ele>
        <time>2013-07-13T12:32:53Z</time>
      </trkpt>
      <trkpt lat="46.53512" lon="6.23921">
        <ele>1301.76</ele>
        <time>2013-07-13T12:32:59Z</time>
      </trkpt>
      <trkpt lat="46.5351" lon="6.23924">
        <ele>1301.76</ele>
        <time>2013-07-13T12:33:02Z</time>
      </trkpt>
      <trkpt lat="46.53503" lon="6.2393">
        <ele>1301.76</ele>
        <time>2013-07-13T12:33:13Z</time>
      </trkpt>
      <trkpt lat="46.53501" lon="6.23938">
        <ele>1301.76</ele>
        <time>2013-07-13T12:33:25Z</time>
      </trkpt>
      <trkpt lat="46.53501" lon="6.23934">
        <ele>1301.76</ele>
        <time>2013-07-13T12:33:50Z</time>
      </trkpt>
      <trkpt lat="46.535" lon="6.23937">
        <ele>1301.28</ele>
        <time>2013-07-13T12:34:14Z</time>
      </trkpt>
      <trkpt lat="46.53501" lon="6.23941">
        <ele>1301.28</ele>
        <time>2013-07-13T12:34:42Z</time>
      </trkpt>
      <trkpt lat="46.53499" lon="6.23942">
        <ele>1301.28</ele>
        <time>2013-07-13T12:34:45Z</time>
      </trkpt>
      <trkpt lat="46.53486" lon="6.23947">
        <ele>1300.8</ele>
        <time>2013-07-13T12:34:58Z</time>
      </trkpt>
      <trkpt lat="46.53483" lon="6.23946">
        <ele>1300.32</ele>
        <time>2013-07-13T12:35:01Z</time>
      </trkpt>
      <trkpt lat="46.53465" lon="6.23942">
        <ele>1299.84</ele>
        <time>2013-07-13T12:35:17Z</time>
      </trkpt>
      <trkpt lat="46.53446" lon="6.2394">
        <ele>1299.36</ele>
        <time>2013-07-13T12:35:31Z</time>
      </trkpt>
      <trkpt lat="46.53428" lon="6.23944">
        <ele>1299.36</ele>
        <time>2013-07-13T12:35:47Z</time>
      </trkpt>
      <trkpt lat="46.53414" lon="6.2395">
        <ele>1298.88</ele>
        <time>2013-07-13T12:36:03Z</time>
      </trkpt>
      <trkpt lat="46.53403" lon="6.23954">
        <ele>1297.92</ele>
        <time>2013-07-13T12:36:13Z</time>
      </trkpt>
      <trkpt lat="46.53395" lon="6.23959">
        <ele>1297.92</ele>
        <time>2013-07-13T12:36:21Z</time>
      </trkpt>
      <trkpt lat="46.53391" lon="6.23963">
        <ele>1297.92</ele>
        <time>2013-07-13T12:36:26Z</time>
      </trkpt>
      <trkpt lat="46.53388" lon="6.23965">
        <ele>1297.92</ele>
        <time>2013-07-13T12:36:30Z</time>
      </trkpt>
      <trkpt lat="46.53375" lon="6.23976">
        <ele>1297.44</ele>
        <time>2013-07-13T12:36:39Z</time>
      </trkpt>
      <trkpt lat="46.53367" lon="6.23994">
        <ele>1297.44</ele>
        <time>2013-07-13T12:36:55Z</time>
      </trkpt>
      <trkpt lat="46.53363" lon="6.24015">
        <ele>1297.92</ele>
        <time>2013-07-13T12:37:11Z</time>
      </trkpt>
      <trkpt lat="46.53361" lon="6.24032">
        <ele>1295.99</ele>
        <time>2013-07-13T12:37:21Z</time>
      </trkpt>
      <trkpt lat="46.5335" lon="6.24055">
        <ele>1294.55</ele>
        <time>2013-07-13T12:37:38Z</time>
      </trkpt>
      <trkpt lat="46.53347" lon="6.24075">
        <ele>1292.63</ele>
        <time>2013-07-13T12:37:55Z</time>
      </trkpt>
      <trkpt lat="46.53347" lon="6.24079">
        <ele>1290.23</ele>
        <time>2013-07-13T12:38:03Z</time>
      </trkpt>
      <trkpt lat="46.53347" lon="6.24079">
        <ele>1296.48</ele>
        <time>2013-07-13T12:38:04Z</time>
      </trkpt>
      <trkpt lat="46.53347" lon="6.24079">
        <ele>1292.63</ele>
        <time>2013-07-13T12:38:05Z</time>
      </trkpt>
      <trkpt lat="46.53347" lon="6.24082">
        <ele>1292.15</ele>
        <time>2013-07-13T12:38:30Z</time>
      </trkpt>
      <trkpt lat="46.53345" lon="6.24092">
        <ele>1291.67</ele>
        <time>2013-07-13T12:38:42Z</time>
      </trkpt>
      <trkpt lat="46.53341" lon="6.24112">
        <ele>1291.19</ele>
        <time>2013-07-13T12:38:55Z</time>
      </trkpt>
      <trkpt lat="46.53339" lon="6.24124">
        <ele>1290.23</ele>
        <time>2013-07-13T12:39:07Z</time>
      </trkpt>
      <trkpt lat="46.53337" lon="6.24132">
        <ele>1288.78</ele>
        <time>2013-07-13T12:39:25Z</time>
      </trkpt>
      <trkpt lat="46.53333" lon="6.24146">
        <ele>1288.3</ele>
        <time>2013-07-13T12:39:38Z</time>
      </trkpt>
      <trkpt lat="46.53326" lon="6.24165">
        <ele>1286.86</ele>
        <time>2013-07-13T12:39:55Z</time>
      </trkpt>
      <trkpt lat="46.53321" lon="6.24176">
        <ele>1285.9</ele>
        <time>2013-07-13T12:40:09Z</time>
      </trkpt>
      <trkpt lat="46.53314" lon="6.24194">
        <ele>1285.42</ele>
        <time>2013-07-13T12:40:26Z</time>
      </trkpt>
      <trkpt lat="46.5331" lon="6.24202">
        <ele>1285.42</ele>
        <time>2013-07-13T12:40:43Z</time>
      </trkpt>
      <trkpt lat="46.533" lon="6.24221">
        <ele>1283.98</ele>
        <time>2013-07-13T12:40:57Z</time>
      </trkpt>
      <trkpt lat="46.53294" lon="6.24231">
        <ele>1282.54</ele>
        <time>2013-07-13T12:41:12Z</time>
      </trkpt>
      <trkpt lat="46.53286" lon="6.24243">
        <ele>1281.57</ele>
        <time>2013-07-13T12:41:27Z</time>
      </trkpt>
      <trkpt lat="46.53276" lon="6.24248">
        <ele>1280.61</ele>
        <time>2013-07-13T12:41:44Z</time>
      </trkpt>
      <trkpt lat="46.53261" lon="6.24248">
        <ele>1279.17</ele>
        <time>2013-07-13T12:42:04Z</time>
      </trkpt>
      <trkpt lat="46.53257" lon="6.24249">
        <ele>1278.21</ele>
        <time>2013-07-13T12:42:20Z</time>
      </trkpt>
      <trkpt lat="46.53243" lon="6.24244">
        <ele>1277.25</ele>
        <time>2013-07-13T12:42:36Z</time>
      </trkpt>
      <trkpt lat="46.53229" lon="6.24236">
        <ele>1276.29</ele>
        <time>2013-07-13T12:42:50Z</time>
      </trkpt>
      <trkpt lat="46.53212" lon="6.24223">
        <ele>1274.85</ele>
        <time>2013-07-13T12:43:04Z</time>
      </trkpt>
      <trkpt lat="46.53192" lon="6.24219">
        <ele>1273.88</ele>
        <time>2013-07-13T12:43:21Z</time>
      </trkpt>
      <trkpt lat="46.53179" lon="6.24226">
        <ele>1272.44</ele>
        <time>2013-07-13T12:43:36Z</time>
      </trkpt>
      <trkpt lat="46.53168" lon="6.24235">
        <ele>1271.48</ele>
        <time>2013-07-13T12:43:51Z</time>
      </trkpt>
      <trkpt lat="46.53149" lon="6.24239">
        <ele>1269.08</ele>
        <time>2013-07-13T12:44:08Z</time>
      </trkpt>
      <trkpt lat="46.53128" lon="6.2423">
        <ele>1268.12</ele>
        <time>2013-07-13T12:44:27Z</time>
      </trkpt>
      <trkpt lat="46.53116" lon="6.24232">
        <ele>1266.19</ele>
        <time>2013-07-13T12:44:45Z</time>
      </trkpt>
      <trkpt lat="46.53111" lon="6.24226">
        <ele>1265.71</ele>
        <time>2013-07-13T12:45:03Z</time>
      </trkpt>
      <trkpt lat="46.5311" lon="6.24225">
        <ele>1265.23</ele>
        <time>2013-07-13T12:45:24Z</time>
      </trkpt>
      <trkpt lat="46.53106" lon="6.24226">
        <ele>1265.23</ele>
        <time>2013-07-13T12:45:43Z</time>
      </trkpt>
      <trkpt lat="46.53093" lon="6.24225">
        <ele>1264.27</ele>
        <time>2013-07-13T12:45:58Z</time>
      </trkpt>
      <trkpt lat="46.5309" lon="6.24224">
        <ele>1264.27</ele>
        <time>2013-07-13T12:46:00Z</time>
      </trkpt>
      <trkpt lat="46.53085" lon="6.24222">
        <ele>1263.79</ele>
        <time>2013-07-13T12:46:03Z</time>
      </trkpt>
      <trkpt lat="46.53071" lon="6.24209">
        <ele>1263.31</ele>
        <time>2013-07-13T12:46:19Z</time>
      </trkpt>
      <trkpt lat="46.53066" lon="6.24206">
        <ele>1262.35</ele>
        <time>2013-07-13T12:46:25Z</time>
      </trkpt>
      <trkpt lat="46.53054" lon="6.24196">
        <ele>1260.91</ele>
        <time>2013-07-13T12:46:37Z</time>
      </trkpt>
      <trkpt lat="46.53044" lon="6.24189">
        <ele>1259.94</ele>
        <time>2013-07-13T12:46:48Z</time>
      </trkpt>
      <trkpt lat="46.53032" lon="6.24187">
        <ele>1258.5</ele>
        <time>2013-07-13T12:47:03Z</time>
      </trkpt>
      <trkpt lat="46.53017" lon="6.24183">
        <ele>1257.06</ele>
        <time>2013-07-13T12:47:18Z</time>
      </trkpt>
      <trkpt lat="46.53004" lon="6.24168">
        <ele>1256.1</ele>
        <time>2013-07-13T12:47:32Z</time>
      </trkpt>
      <trkpt lat="46.52982" lon="6.2416">
        <ele>1255.14</ele>
        <time>2013-07-13T12:47:46Z</time>
      </trkpt>
      <trkpt lat="46.52965" lon="6.24156">
        <ele>1254.66</ele>
        <time>2013-07-13T12:48:02Z</time>
      </trkpt>
      <trkpt lat="46.52948" lon="6.2416">
        <ele>1254.66</ele>
        <time>2013-07-13T12:48:16Z</time>
      </trkpt>
      <trkpt lat="46.5293" lon="6.24166">
        <ele>1254.66</ele>
        <time>2013-07-13T12:48:32Z</time>
      </trkpt>
      <trkpt lat="46.52908" lon="6.2418">
        <ele>1254.18</ele>
        <time>2013-07-13T12:48:50Z</time>
      </trkpt>
      <trkpt lat="46.52884" lon="6.24193">
        <ele>1254.66</ele>
        <time>2013-07-13T12:49:08Z</time>
      </trkpt>
      <trkpt lat="46.52865" lon="6.24212">
        <ele>1254.18</ele>
        <time>2013-07-13T12:49:29Z</time>
      </trkpt>
      <trkpt lat="46.52849" lon="6.24216">
        <ele>1254.66</ele>
        <time>2013-07-13T12:49:46Z</time>
      </trkpt>
      <trkpt lat="46.52847" lon="6.24214">
        <ele>1254.18</ele>
        <time>2013-07-13T12:49:49Z</time>
      </trkpt>
      <trkpt lat="46.52843" lon="6.24216">
        <ele>1254.18</ele>
        <time>2013-07-13T12:49:55Z</time>
      </trkpt>
      <trkpt lat="46.52828" lon="6.24208">
        <ele>1253.7</ele>
        <time>2013-07-13T12:50:09Z</time>
      </trkpt>
      <trkpt lat="46.52808" lon="6.242">
        <ele>1253.22</ele>
        <time>2013-07-13T12:50:24Z</time>
      </trkpt>
      <trkpt lat="46.52793" lon="6.24196">
        <ele>1252.74</ele>
        <time>2013-07-13T12:50:37Z</time>
      </trkpt>
      <trkpt lat="46.52786" lon="6.2419">
        <ele>1252.74</ele>
        <time>2013-07-13T12:50:58Z</time>
      </trkpt>
      <trkpt lat="46.52786" lon="6.2419">
        <ele>1253.22</ele>
        <time>2013-07-13T12:51:19Z</time>
      </trkpt>
      <trkpt lat="46.52784" lon="6.24187">
        <ele>1253.7</ele>
        <time>2013-07-13T12:51:25Z</time>
      </trkpt>
      <trkpt lat="46.52778" lon="6.24178">
        <ele>1255.14</ele>
        <time>2013-07-13T12:51:33Z</time>
      </trkpt>
      <trkpt lat="46.52764" lon="6.24167">
        <ele>1256.1</ele>
        <time>2013-07-13T12:51:46Z</time>
      </trkpt>
      <trkpt lat="46.52751" lon="6.24163">
        <ele>1257.54</ele>
        <time>2013-07-13T12:52:03Z</time>
      </trkpt>
      <trkpt lat="46.52743" lon="6.24161">
        <ele>1260.43</ele>
        <time>2013-07-13T12:52:18Z</time>
      </trkpt>
      <trkpt lat="46.52728" lon="6.24151">
        <ele>1261.87</ele>
        <time>2013-07-13T12:52:31Z</time>
      </trkpt>
      <trkpt lat="46.52716" lon="6.24135">
        <ele>1262.83</ele>
        <time>2013-07-13T12:52:46Z</time>
      </trkpt>
      <trkpt lat="46.5271" lon="6.2413">
        <ele>1266.19</ele>
        <time>2013-07-13T12:52:58Z</time>
      </trkpt>
      <trkpt lat="46.52706" lon="6.24127">
        <ele>1265.71</ele>
        <time>2013-07-13T12:53:02Z</time>
      </trkpt>
      <trkpt lat="46.52694" lon="6.24115">
        <ele>1266.67</ele>
        <time>2013-07-13T12:53:18Z</time>
      </trkpt>
      <trkpt lat="46.52693" lon="6.24115">
        <ele>1268.6</ele>
        <time>2013-07-13T12:53:20Z</time>
      </trkpt>
      <trkpt lat="46.52681" lon="6.24108">
        <ele>1269.08</ele>
        <time>2013-07-13T12:53:36Z</time>
      </trkpt>
      <trkpt lat="46.52665" lon="6.241">
        <ele>1271</ele>
        <time>2013-07-13T12:53:51Z</time>
      </trkpt>
      <trkpt lat="46.52656" lon="6.24099">
        <ele>1271</ele>
        <time>2013-07-13T12:53:59Z</time>
      </trkpt>
      <trkpt lat="46.5265" lon="6.24091">
        <ele>1274.85</ele>
        <time>2013-07-13T12:54:14Z</time>
      </trkpt>
      <trkpt lat="46.52645" lon="6.24082">
        <ele>1276.29</ele>
        <time>2013-07-13T12:54:27Z</time>
      </trkpt>
      <trkpt lat="46.5263" lon="6.24077">
        <ele>1277.25</ele>
        <time>2013-07-13T12:54:45Z</time>
      </trkpt>
      <trkpt lat="46.5262" lon="6.24075">
        <ele>1279.17</ele>
        <time>2013-07-13T12:54:55Z</time>
      </trkpt>
      <trkpt lat="46.52616" lon="6.24077">
        <ele>1279.17</ele>
        <time>2013-07-13T12:55:13Z</time>
      </trkpt>
      <trkpt lat="46.52618" lon="6.24079">
        <ele>1279.17</ele>
        <time>2013-07-13T12:55:36Z</time>
      </trkpt>
      <trkpt lat="46.52602" lon="6.24067">
        <ele>1280.61</ele>
        <time>2013-07-13T12:55:56Z</time>
      </trkpt>
      <trkpt lat="46.52588" lon="6.24066">
        <ele>1282.54</ele>
        <time>2013-07-13T12:56:14Z</time>
      </trkpt>
      <trkpt lat="46.52582" lon="6.24061">
        <ele>1283.5</ele>
        <time>2013-07-13T12:56:25Z</time>
      </trkpt>
      <trkpt lat="46.52572" lon="6.24052">
        <ele>1287.82</ele>
        <time>2013-07-13T12:56:37Z</time>
      </trkpt>
      <trkpt lat="46.52572" lon="6.2405">
        <ele>1285.42</ele>
        <time>2013-07-13T12:57:00Z</time>
      </trkpt>
      <trkpt lat="46.52573" lon="6.24051">
        <ele>1285.42</ele>
        <time>2013-07-13T12:57:23Z</time>
      </trkpt>
      <trkpt lat="46.52574" lon="6.24048">
        <ele>1285.9</ele>
        <time>2013-07-13T12:57:51Z</time>
      </trkpt>
      <trkpt lat="46.52577" lon="6.24045">
        <ele>1285.42</ele>
        <time>2013-07-13T12:58:23Z</time>
      </trkpt>
      <trkpt lat="46.52577" lon="6.24043">
        <ele>1285.9</ele>
        <time>2013-07-13T12:58:58Z</time>
      </trkpt>
      <trkpt lat="46.52578" lon="6.24044">
        <ele>1285.9</ele>
        <time>2013-07-13T12:59:34Z</time>
      </trkpt>
      <trkpt lat="46.52578" lon="6.24043">
        <ele>1285.9</ele>
        <time>2013-07-13T13:00:13Z</time>
      </trkpt>
      <trkpt lat="46.5258" lon="6.24042">
        <ele>1285.9</ele>
        <time>2013-07-13T13:00:52Z</time>
      </trkpt>
      <trkpt lat="46.5258" lon="6.24044">
        <ele>1286.38</ele>
        <time>2013-07-13T13:01:25Z</time>
      </trkpt>
      <trkpt lat="46.52581" lon="6.24045">
        <ele>1286.38</ele>
        <time>2013-07-13T13:02:05Z</time>
      </trkpt>
      <trkpt lat="46.52581" lon="6.24044">
        <ele>1286.86</ele>
        <time>2013-07-13T13:02:29Z</time>
      </trkpt>
      <trkpt lat="46.52579" lon="6.24043">
        <ele>1286.86</ele>
        <time>2013-07-13T13:03:06Z</time>
      </trkpt>
      <trkpt lat="46.5258" lon="6.24043">
        <ele>1287.34</ele>
        <time>2013-07-13T13:03:41Z</time>
      </trkpt>
      <trkpt lat="46.52582" lon="6.24043">
        <ele>1287.34</ele>
        <time>2013-07-13T13:04:18Z</time>
      </trkpt>
      <trkpt lat="46.52582" lon="6.24043">
        <ele>1287.82</ele>
        <time>2013-07-13T13:04:54Z</time>
      </trkpt>
      <trkpt lat="46.52583" lon="6.24044">
        <ele>1288.3</ele>
        <time>2013-07-13T13:05:24Z</time>
      </trkpt>
      <trkpt lat="46.52583" lon="6.24045">
        <ele>1288.78</ele>
        <time>2013-07-13T13:06:06Z</time>
      </trkpt>
      <trkpt lat="46.52582" lon="6.24046">
        <ele>1289.27</ele>
        <time>2013-07-13T13:06:44Z</time>
      </trkpt>
      <trkpt lat="46.52582" lon="6.24046">
        <ele>1289.27</ele>
        <time>2013-07-13T13:07:14Z</time>
      </trkpt>
      <trkpt lat="46.52581" lon="6.24045">
        <ele>1289.27</ele>
        <time>2013-07-13T13:07:42Z</time>
      </trkpt>
      <trkpt lat="46.5258" lon="6.24045">
        <ele>1289.75</ele>
        <time>2013-07-13T13:08:03Z</time>
      </trkpt>
      <trkpt lat="46.52578" lon="6.24047">
        <ele>1289.75</ele>
        <time>2013-07-13T13:08:28Z</time>
      </trkpt>
      <trkpt lat="46.52575" lon="6.24049">
        <ele>1290.23</ele>
        <time>2013-07-13T13:08:56Z</time>
      </trkpt>
      <trkpt lat="46.52575" lon="6.24049">
        <ele>1290.23</ele>
        <time>2013-07-13T13:09:15Z</time>
      </trkpt>
      <trkpt lat="46.52575" lon="6.24049">
        <ele>1293.11</ele>
        <time>2013-07-13T13:09:16Z</time>
      </trkpt>
      <trkpt lat="46.52575" lon="6.24049">
        <ele>1291.67</ele>
        <time>2013-07-13T13:09:37Z</time>
      </trkpt>
      <trkpt lat="46.52576" lon="6.24051">
        <ele>1292.15</ele>
        <time>2013-07-13T13:10:04Z</time>
      </trkpt>
      <trkpt lat="46.52576" lon="6.24054">
        <ele>1291.67</ele>
        <time>2013-07-13T13:10:34Z</time>
      </trkpt>
      <trkpt lat="46.52576" lon="6.24053">
        <ele>1292.15</ele>
        <time>2013-07-13T13:10:51Z</time>
      </trkpt>
      <trkpt lat="46.52578" lon="6.24051">
        <ele>1292.15</ele>
        <time>2013-07-13T13:11:18Z</time>
      </trkpt>
      <trkpt lat="46.52575" lon="6.24051">
        <ele>1292.63</ele>
        <time>2013-07-13T13:11:51Z</time>
      </trkpt>
      <trkpt lat="46.52562" lon="6.24043">
        <ele>1294.55</ele>
        <time>2013-07-13T13:12:08Z</time>
      </trkpt>
      <trkpt lat="46.52547" lon="6.24031">
        <ele>1295.99</ele>
        <time>2013-07-13T13:12:27Z</time>
      </trkpt>
      <trkpt lat="46.52545" lon="6.2403">
        <ele>1297.44</ele>
        <time>2013-07-13T13:12:30Z</time>
      </trkpt>
      <trkpt lat="46.52535" lon="6.24014">
        <ele>1297.92</ele>
        <time>2013-07-13T13:12:44Z</time>
      </trkpt>
      <trkpt lat="46.52525" lon="6.24009">
        <ele>1298.4</ele>
        <time>2013-07-13T13:12:57Z</time>
      </trkpt>
      <trkpt lat="46.52515" lon="6.2399">
        <ele>1298.88</ele>
        <time>2013-07-13T13:13:09Z</time>
      </trkpt>
      <trkpt lat="46.52504" lon="6.23973">
        <ele>1299.84</ele>
        <time>2013-07-13T13:13:23Z</time>
      </trkpt>
      <trkpt lat="46.52486" lon="6.23964">
        <ele>1304.65</ele>
        <time>2013-07-13T13:13:43Z</time>
      </trkpt>
      <trkpt lat="46.52485" lon="6.23963">
        <ele>1303.2</ele>
        <time>2013-07-13T13:13:44Z</time>
      </trkpt>
      <trkpt lat="46.52478" lon="6.23955">
        <ele>1304.65</ele>
        <time>2013-07-13T13:14:02Z</time>
      </trkpt>
      <trkpt lat="46.5246" lon="6.23943">
        <ele>1308.49</ele>
        <time>2013-07-13T13:14:18Z</time>
      </trkpt>
      <trkpt lat="46.52448" lon="6.23937">
        <ele>1310.9</ele>
        <time>2013-07-13T13:14:33Z</time>
      </trkpt>
      <trkpt lat="46.52446" lon="6.23932">
        <ele>1314.74</ele>
        <time>2013-07-13T13:14:45Z</time>
      </trkpt>
      <trkpt lat="46.52437" lon="6.23934">
        <ele>1316.18</ele>
        <time>2013-07-13T13:15:03Z</time>
      </trkpt>
      <trkpt lat="46.52421" lon="6.23938">
        <ele>1318.1</ele>
        <time>2013-07-13T13:15:19Z</time>
      </trkpt>
      <trkpt lat="46.52416" lon="6.23937">
        <ele>1320.99</ele>
        <time>2013-07-13T13:15:30Z</time>
      </trkpt>
      <trkpt lat="46.5241" lon="6.23942">
        <ele>1323.87</ele>
        <time>2013-07-13T13:15:41Z</time>
      </trkpt>
      <trkpt lat="46.52398" lon="6.23939">
        <ele>1327.72</ele>
        <time>2013-07-13T13:15:57Z</time>
      </trkpt>
      <trkpt lat="46.52394" lon="6.23938">
        <ele>1329.64</ele>
        <time>2013-07-13T13:16:15Z</time>
      </trkpt>
      <trkpt lat="46.52381" lon="6.2394">
        <ele>1332.04</ele>
        <time>2013-07-13T13:16:31Z</time>
      </trkpt>
      <trkpt lat="46.52369" lon="6.23935">
        <ele>1333.97</ele>
        <time>2013-07-13T13:16:45Z</time>
      </trkpt>
      <trkpt lat="46.52357" lon="6.23936">
        <ele>1336.37</ele>
        <time>2013-07-13T13:17:05Z</time>
      </trkpt>
      <trkpt lat="46.52329" lon="6.23938">
        <ele>1339.25</ele>
        <time>2013-07-13T13:17:24Z</time>
      </trkpt>
      <trkpt lat="46.52321" lon="6.23937">
        <ele>1338.29</ele>
        <time>2013-07-13T13:17:39Z</time>
      </trkpt>
      <trkpt lat="46.52324" lon="6.23936">
        <ele>1338.77</ele>
        <time>2013-07-13T13:18:01Z</time>
      </trkpt>
      <trkpt lat="46.5232" lon="6.23935">
        <ele>1338.77</ele>
        <time>2013-07-13T13:18:31Z</time>
      </trkpt>
      <trkpt lat="46.52321" lon="6.23935">
        <ele>1338.77</ele>
        <time>2013-07-13T13:18:58Z</time>
      </trkpt>
      <trkpt lat="46.52321" lon="6.23937">
        <ele>1338.77</ele>
        <time>2013-07-13T13:19:21Z</time>
      </trkpt>
      <trkpt lat="46.52321" lon="6.23939">
        <ele>1338.77</ele>
        <time>2013-07-13T13:19:44Z</time>
      </trkpt>
      <trkpt lat="46.52321" lon="6.23939">
        <ele>1338.29</ele>
        <time>2013-07-13T13:20:01Z</time>
      </trkpt>
      <trkpt lat="46.52313" lon="6.23942">
        <ele>1336.85</ele>
        <time>2013-07-13T13:20:13Z</time>
      </trkpt>
      <trkpt lat="46.52279" lon="6.23947">
        <ele>1333.97</ele>
        <time>2013-07-13T13:20:34Z</time>
      </trkpt>
      <trkpt lat="46.5226" lon="6.23943">
        <ele>1331.08</ele>
        <time>2013-07-13T13:20:51Z</time>
      </trkpt>
      <trkpt lat="46.52246" lon="6.23942">
        <ele>1328.2</ele>
        <time>2013-07-13T13:21:09Z</time>
      </trkpt>
      <trkpt lat="46.52233" lon="6.23942">
        <ele>1325.8</ele>
        <time>2013-07-13T13:21:24Z</time>
      </trkpt>
      <trkpt lat="46.52234" lon="6.23941">
        <ele>1325.8</ele>
        <time>2013-07-13T13:21:25Z</time>
      </trkpt>
      <trkpt lat="46.52236" lon="6.23932">
        <ele>1327.24</ele>
        <time>2013-07-13T13:21:37Z</time>
      </trkpt>
      <trkpt lat="46.52245" lon="6.23916">
        <ele>1326.76</ele>
        <time>2013-07-13T13:21:54Z</time>
      </trkpt>
      <trkpt lat="46.52239" lon="6.239">
        <ele>1330.12</ele>
        <time>2013-07-13T13:22:10Z</time>
      </trkpt>
      <trkpt lat="46.52228" lon="6.23879">
        <ele>1332.52</ele>
        <time>2013-07-13T13:22:28Z</time>
      </trkpt>
      <trkpt lat="46.52213" lon="6.23861">
        <ele>1333.97</ele>
        <time>2013-07-13T13:22:46Z</time>
      </trkpt>
      <trkpt lat="46.52205" lon="6.23843">
        <ele>1335.41</ele>
        <time>2013-07-13T13:23:04Z</time>
      </trkpt>
      <trkpt lat="46.52192" lon="6.23828">
        <ele>1338.29</ele>
        <time>2013-07-13T13:23:21Z</time>
      </trkpt>
      <trkpt lat="46.52177" lon="6.23812">
        <ele>1341.18</ele>
        <time>2013-07-13T13:23:43Z</time>
      </trkpt>
      <trkpt lat="46.52165" lon="6.23805">
        <ele>1342.62</ele>
        <time>2013-07-13T13:24:01Z</time>
      </trkpt>
      <trkpt lat="46.52147" lon="6.23793">
        <ele>1345.98</ele>
        <time>2013-07-13T13:24:19Z</time>
      </trkpt>
      <trkpt lat="46.52145" lon="6.23789">
        <ele>1344.54</ele>
        <time>2013-07-13T13:24:20Z</time>
      </trkpt>
      <trkpt lat="46.52137" lon="6.23774">
        <ele>1345.98</ele>
        <time>2013-07-13T13:24:33Z</time>
      </trkpt>
      <trkpt lat="46.52134" lon="6.2377">
        <ele>1346.46</ele>
        <time>2013-07-13T13:24:49Z</time>
      </trkpt>
      <trkpt lat="46.52127" lon="6.23754">
        <ele>1348.39</ele>
        <time>2013-07-13T13:25:04Z</time>
      </trkpt>
      <trkpt lat="46.52126" lon="6.23749">
        <ele>1348.39</ele>
        <time>2013-07-13T13:25:08Z</time>
      </trkpt>
      <trkpt lat="46.52125" lon="6.23742">
        <ele>1348.87</ele>
        <time>2013-07-13T13:25:20Z</time>
      </trkpt>
      <trkpt lat="46.52129" lon="6.23727">
        <ele>1349.35</ele>
        <time>2013-07-13T13:25:32Z</time>
      </trkpt>
      <trkpt lat="46.52134" lon="6.23705">
        <ele>1349.35</ele>
        <time>2013-07-13T13:25:47Z</time>
      </trkpt>
      <trkpt lat="46.52135" lon="6.23703">
        <ele>1349.83</ele>
        <time>2013-07-13T13:25:49Z</time>
      </trkpt>
      <trkpt lat="46.52135" lon="6.23699">
        <ele>1348.87</ele>
        <time>2013-07-13T13:25:51Z</time>
      </trkpt>
      <trkpt lat="46.52137" lon="6.23679">
        <ele>1349.35</ele>
        <time>2013-07-13T13:26:03Z</time>
      </trkpt>
      <trkpt lat="46.52139" lon="6.23663">
        <ele>1349.35</ele>
        <time>2013-07-13T13:26:14Z</time>
      </trkpt>
      <trkpt lat="46.5214" lon="6.23648">
        <ele>1348.87</ele>
        <time>2013-07-13T13:26:23Z</time>
      </trkpt>
      <trkpt lat="46.52139" lon="6.23639">
        <ele>1348.87</ele>
        <time>2013-07-13T13:26:29Z</time>
      </trkpt>
      <trkpt lat="46.52141" lon="6.23618">
        <ele>1348.87</ele>
        <time>2013-07-13T13:26:44Z</time>
      </trkpt>
      <trkpt lat="46.52143" lon="6.23594">
        <ele>1347.91</ele>
        <time>2013-07-13T13:26:58Z</time>
      </trkpt>
      <trkpt lat="46.52139" lon="6.23567">
        <ele>1347.43</ele>
        <time>2013-07-13T13:27:11Z</time>
      </trkpt>
      <trkpt lat="46.52137" lon="6.23554">
        <ele>1347.91</ele>
        <time>2013-07-13T13:27:19Z</time>
      </trkpt>
      <trkpt lat="46.52134" lon="6.23537">
        <ele>1346.94</ele>
        <time>2013-07-13T13:27:34Z</time>
      </trkpt>
      <trkpt lat="46.5213" lon="6.23515">
        <ele>1346.94</ele>
        <time>2013-07-13T13:27:49Z</time>
      </trkpt>
      <trkpt lat="46.52131" lon="6.23492">
        <ele>1346.46</ele>
        <time>2013-07-13T13:28:04Z</time>
      </trkpt>
      <trkpt lat="46.52131" lon="6.23479">
        <ele>1346.94</ele>
        <time>2013-07-13T13:28:10Z</time>
      </trkpt>
      <trkpt lat="46.52139" lon="6.23462">
        <ele>1346.94</ele>
        <time>2013-07-13T13:28:25Z</time>
      </trkpt>
      <trkpt lat="46.5214" lon="6.23461">
        <ele>1346.94</ele>
        <time>2013-07-13T13:28:26Z</time>
      </trkpt>
      <trkpt lat="46.52148" lon="6.23436">
        <ele>1347.43</ele>
        <time>2013-07-13T13:28:42Z</time>
      </trkpt>
      <trkpt lat="46.52145" lon="6.23419">
        <ele>1348.87</ele>
        <time>2013-07-13T13:28:49Z</time>
      </trkpt>
      <trkpt lat="46.52138" lon="6.23395">
        <ele>1349.83</ele>
        <time>2013-07-13T13:29:04Z</time>
      </trkpt>
      <trkpt lat="46.52137" lon="6.23392">
        <ele>1350.79</ele>
        <time>2013-07-13T13:29:06Z</time>
      </trkpt>
      <trkpt lat="46.52135" lon="6.23389">
        <ele>1350.31</ele>
        <time>2013-07-13T13:29:08Z</time>
      </trkpt>
      <trkpt lat="46.52134" lon="6.23382">
        <ele>1351.75</ele>
        <time>2013-07-13T13:29:13Z</time>
      </trkpt>
      <trkpt lat="46.5213" lon="6.23375">
        <ele>1351.27</ele>
        <time>2013-07-13T13:29:19Z</time>
      </trkpt>
      <trkpt lat="46.52128" lon="6.2337">
        <ele>1351.75</ele>
        <time>2013-07-13T13:29:23Z</time>
      </trkpt>
      <trkpt lat="46.52124" lon="6.23358">
        <ele>1354.15</ele>
        <time>2013-07-13T13:29:32Z</time>
      </trkpt>
      <trkpt lat="46.52125" lon="6.2335">
        <ele>1353.67</ele>
        <time>2013-07-13T13:29:36Z</time>
      </trkpt>
      <trkpt lat="46.52122" lon="6.23344">
        <ele>1354.15</ele>
        <time>2013-07-13T13:29:40Z</time>
      </trkpt>
      <trkpt lat="46.52118" lon="6.23332">
        <ele>1356.56</ele>
        <time>2013-07-13T13:29:49Z</time>
      </trkpt>
      <trkpt lat="46.52115" lon="6.2332">
        <ele>1357.04</ele>
        <time>2013-07-13T13:29:57Z</time>
      </trkpt>
      <trkpt lat="46.52109" lon="6.23301">
        <ele>1358</ele>
        <time>2013-07-13T13:30:11Z</time>
      </trkpt>
      <trkpt lat="46.52104" lon="6.23281">
        <ele>1359.44</ele>
        <time>2013-07-13T13:30:24Z</time>
      </trkpt>
      <trkpt lat="46.52099" lon="6.23263">
        <ele>1359.92</ele>
        <time>2013-07-13T13:30:37Z</time>
      </trkpt>
      <trkpt lat="46.52097" lon="6.23243">
        <ele>1361.84</ele>
        <time>2013-07-13T13:30:50Z</time>
      </trkpt>
      <trkpt lat="46.52099" lon="6.23234">
        <ele>1361.84</ele>
        <time>2013-07-13T13:30:57Z</time>
      </trkpt>
      <trkpt lat="46.52106" lon="6.23215">
        <ele>1362.81</ele>
        <time>2013-07-13T13:31:11Z</time>
      </trkpt>
      <trkpt lat="46.52108" lon="6.23208">
        <ele>1363.29</ele>
        <time>2013-07-13T13:31:15Z</time>
      </trkpt>
      <trkpt lat="46.52112" lon="6.23196">
        <ele>1364.73</ele>
        <time>2013-07-13T13:31:25Z</time>
      </trkpt>
      <trkpt lat="46.52117" lon="6.23184">
        <ele>1366.17</ele>
        <time>2013-07-13T13:31:34Z</time>
      </trkpt>
      <trkpt lat="46.52124" lon="6.23162">
        <ele>1366.65</ele>
        <time>2013-07-13T13:31:49Z</time>
      </trkpt>
      <trkpt lat="46.5213" lon="6.23143">
        <ele>1367.61</ele>
        <time>2013-07-13T13:32:01Z</time>
      </trkpt>
      <trkpt lat="46.52133" lon="6.23134">
        <ele>1369.05</ele>
        <time>2013-07-13T13:32:08Z</time>
      </trkpt>
      <trkpt lat="46.52134" lon="6.23133">
        <ele>1368.57</ele>
        <time>2013-07-13T13:32:09Z</time>
      </trkpt>
      <trkpt lat="46.52136" lon="6.23119">
        <ele>1370.02</ele>
        <time>2013-07-13T13:32:19Z</time>
      </trkpt>
      <trkpt lat="46.5214" lon="6.2311">
        <ele>1370.5</ele>
        <time>2013-07-13T13:32:27Z</time>
      </trkpt>
      <trkpt lat="46.52145" lon="6.231">
        <ele>1370.98</ele>
        <time>2013-07-13T13:32:35Z</time>
      </trkpt>
      <trkpt lat="46.52153" lon="6.23082">
        <ele>1372.42</ele>
        <time>2013-07-13T13:32:47Z</time>
      </trkpt>
      <trkpt lat="46.5216" lon="6.23067">
        <ele>1373.38</ele>
        <time>2013-07-13T13:32:58Z</time>
      </trkpt>
      <trkpt lat="46.52167" lon="6.23053">
        <ele>1373.86</ele>
        <time>2013-07-13T13:33:11Z</time>
      </trkpt>
      <trkpt lat="46.52173" lon="6.23037">
        <ele>1374.82</ele>
        <time>2013-07-13T13:33:24Z</time>
      </trkpt>
      <trkpt lat="46.5218" lon="6.23024">
        <ele>1375.78</ele>
        <time>2013-07-13T13:33:36Z</time>
      </trkpt>
      <trkpt lat="46.52181" lon="6.23019">
        <ele>1376.26</ele>
        <time>2013-07-13T13:33:47Z</time>
      </trkpt>
      <trkpt lat="46.52181" lon="6.23019">
        <ele>1375.78</ele>
        <time>2013-07-13T13:33:49Z</time>
      </trkpt>
      <trkpt lat="46.52185" lon="6.2301">
        <ele>1375.78</ele>
        <time>2013-07-13T13:33:58Z</time>
      </trkpt>
      <trkpt lat="46.52187" lon="6.23005">
        <ele>1376.75</ele>
        <time>2013-07-13T13:34:08Z</time>
      </trkpt>
      <trkpt lat="46.52186" lon="6.23005">
        <ele>1371.46</ele>
        <time>2013-07-13T13:34:16Z</time>
      </trkpt>
      <trkpt lat="46.52186" lon="6.23005">
        <ele>1375.78</ele>
        <time>2013-07-13T13:34:17Z</time>
      </trkpt>
      <trkpt lat="46.52186" lon="6.23004">
        <ele>1375.3</ele>
        <time>2013-07-13T13:34:50Z</time>
      </trkpt>
      <trkpt lat="46.52186" lon="6.23003">
        <ele>1375.78</ele>
        <time>2013-07-13T13:35:11Z</time>
      </trkpt>
      <trkpt lat="46.52185" lon="6.23003">
        <ele>1375.3</ele>
        <time>2013-07-13T13:35:44Z</time>
      </trkpt>
      <trkpt lat="46.52185" lon="6.23003">
        <ele>1374.82</ele>
        <time>2013-07-13T13:36:17Z</time>
      </trkpt>
      <trkpt lat="46.52185" lon="6.23002">
        <ele>1375.3</ele>
        <time>2013-07-13T13:36:22Z</time>
      </trkpt>
      <trkpt lat="46.52185" lon="6.23002">
        <ele>1375.3</ele>
        <time>2013-07-13T13:36:44Z</time>
      </trkpt>
      <trkpt lat="46.52187" lon="6.23004">
        <ele>1375.3</ele>
        <time>2013-07-13T13:37:05Z</time>
      </trkpt>
      <trkpt lat="46.52187" lon="6.23005">
        <ele>1375.3</ele>
        <time>2013-07-13T13:37:23Z</time>
      </trkpt>
      <trkpt lat="46.52193" lon="6.22997">
        <ele>1374.82</ele>
        <time>2013-07-13T13:37:35Z</time>
      </trkpt>
      <trkpt lat="46.522" lon="6.22985">
        <ele>1376.26</ele>
        <time>2013-07-13T13:37:46Z</time>
      </trkpt>
      <trkpt lat="46.52207" lon="6.22975">
        <ele>1375.78</ele>
        <time>2013-07-13T13:37:57Z</time>
      </trkpt>
      <trkpt lat="46.52212" lon="6.22967">
        <ele>1376.26</ele>
        <time>2013-07-13T13:38:11Z</time>
      </trkpt>
      <trkpt lat="46.52216" lon="6.22956">
        <ele>1376.26</ele>
        <time>2013-07-13T13:38:25Z</time>
      </trkpt>
      <trkpt lat="46.52226" lon="6.22941">
        <ele>1376.75</ele>
        <time>2013-07-13T13:38:38Z</time>
      </trkpt>
      <trkpt lat="46.52228" lon="6.22939">
        <ele>1376.26</ele>
        <time>2013-07-13T13:38:40Z</time>
      </trkpt>
      <trkpt lat="46.52237" lon="6.2292">
        <ele>1377.23</ele>
        <time>2013-07-13T13:38:56Z</time>
      </trkpt>
      <trkpt lat="46.52244" lon="6.22907">
        <ele>1377.71</ele>
        <time>2013-07-13T13:39:08Z</time>
      </trkpt>
      <trkpt lat="46.52255" lon="6.22889">
        <ele>1378.67</ele>
        <time>2013-07-13T13:39:23Z</time>
      </trkpt>
      <trkpt lat="46.52264" lon="6.22871">
        <ele>1380.11</ele>
        <time>2013-07-13T13:39:36Z</time>
      </trkpt>
      <trkpt lat="46.52265" lon="6.22868">
        <ele>1380.11</ele>
        <time>2013-07-13T13:39:55Z</time>
      </trkpt>
      <trkpt lat="46.52266" lon="6.22863">
        <ele>1380.59</ele>
        <time>2013-07-13T13:40:12Z</time>
      </trkpt>
      <trkpt lat="46.52267" lon="6.22861">
        <ele>1379.63</ele>
        <time>2013-07-13T13:40:15Z</time>
      </trkpt>
      <trkpt lat="46.52272" lon="6.22849">
        <ele>1380.11</ele>
        <time>2013-07-13T13:40:29Z</time>
      </trkpt>
      <trkpt lat="46.52273" lon="6.22846">
        <ele>1380.59</ele>
        <time>2013-07-13T13:40:31Z</time>
      </trkpt>
      <trkpt lat="46.52275" lon="6.2284">
        <ele>1380.59</ele>
        <time>2013-07-13T13:40:35Z</time>
      </trkpt>
      <trkpt lat="46.52278" lon="6.22834">
        <ele>1381.55</ele>
        <time>2013-07-13T13:40:39Z</time>
      </trkpt>
      <trkpt lat="46.52281" lon="6.22831">
        <ele>1382.03</ele>
        <time>2013-07-13T13:40:52Z</time>
      </trkpt>
      <trkpt lat="46.52281" lon="6.2282">
        <ele>1382.03</ele>
        <time>2013-07-13T13:41:05Z</time>
      </trkpt>
      <trkpt lat="46.52283" lon="6.22815">
        <ele>1383.96</ele>
        <time>2013-07-13T13:41:10Z</time>
      </trkpt>
      <trkpt lat="46.52285" lon="6.2281">
        <ele>1383.47</ele>
        <time>2013-07-13T13:41:14Z</time>
      </trkpt>
      <trkpt lat="46.5229" lon="6.22794">
        <ele>1385.88</ele>
        <time>2013-07-13T13:41:27Z</time>
      </trkpt>
      <trkpt lat="46.5229" lon="6.22792">
        <ele>1385.88</ele>
        <time>2013-07-13T13:41:28Z</time>
      </trkpt>
      <trkpt lat="46.52298" lon="6.22782">
        <ele>1386.84</ele>
        <time>2013-07-13T13:41:35Z</time>
      </trkpt>
      <trkpt lat="46.52303" lon="6.2277">
        <ele>1387.32</ele>
        <time>2013-07-13T13:41:42Z</time>
      </trkpt>
      <trkpt lat="46.52298" lon="6.22755">
        <ele>1388.76</ele>
        <time>2013-07-13T13:41:51Z</time>
      </trkpt>
      <trkpt lat="46.52286" lon="6.22738">
        <ele>1389.24</ele>
        <time>2013-07-13T13:42:05Z</time>
      </trkpt>
      <trkpt lat="46.52275" lon="6.22733">
        <ele>1389.72</ele>
        <time>2013-07-13T13:42:17Z</time>
      </trkpt>
      <trkpt lat="46.52274" lon="6.22731">
        <ele>1389.72</ele>
        <time>2013-07-13T13:42:19Z</time>
      </trkpt>
      <trkpt lat="46.52272" lon="6.22728">
        <ele>1389.24</ele>
        <time>2013-07-13T13:42:21Z</time>
      </trkpt>
      <trkpt lat="46.52262" lon="6.22717">
        <ele>1390.2</ele>
        <time>2013-07-13T13:42:33Z</time>
      </trkpt>
      <trkpt lat="46.52251" lon="6.22707">
        <ele>1390.2</ele>
        <time>2013-07-13T13:42:45Z</time>
      </trkpt>
      <trkpt lat="46.52249" lon="6.22705">
        <ele>1390.2</ele>
        <time>2013-07-13T13:42:49Z</time>
      </trkpt>
      <trkpt lat="46.52244" lon="6.22696">
        <ele>1390.68</ele>
        <time>2013-07-13T13:43:01Z</time>
      </trkpt>
      <trkpt lat="46.52246" lon="6.22687">
        <ele>1390.2</ele>
        <time>2013-07-13T13:43:07Z</time>
      </trkpt>
      <trkpt lat="46.52248" lon="6.22677">
        <ele>1389.24</ele>
        <time>2013-07-13T13:43:14Z</time>
      </trkpt>
      <trkpt lat="46.52249" lon="6.22671">
        <ele>1388.76</ele>
        <time>2013-07-13T13:43:18Z</time>
      </trkpt>
      <trkpt lat="46.52251" lon="6.22664">
        <ele>1389.24</ele>
        <time>2013-07-13T13:43:25Z</time>
      </trkpt>
      <trkpt lat="46.52253" lon="6.22662">
        <ele>1389.24</ele>
        <time>2013-07-13T13:43:40Z</time>
      </trkpt>
      <trkpt lat="46.52253" lon="6.22657">
        <ele>1390.2</ele>
        <time>2013-07-13T13:43:52Z</time>
      </trkpt>
      <trkpt lat="46.52253" lon="6.22656">
        <ele>1389.72</ele>
        <time>2013-07-13T13:44:15Z</time>
      </trkpt>
      <trkpt lat="46.52253" lon="6.22655">
        <ele>1388.76</ele>
        <time>2013-07-13T13:44:33Z</time>
      </trkpt>
      <trkpt lat="46.52252" lon="6.22654">
        <ele>1389.24</ele>
        <time>2013-07-13T13:44:35Z</time>
      </trkpt>
      <trkpt lat="46.5225" lon="6.22652">
        <ele>1389.72</ele>
        <time>2013-07-13T13:44:37Z</time>
      </trkpt>
      <trkpt lat="46.52244" lon="6.22642">
        <ele>1390.2</ele>
        <time>2013-07-13T13:44:44Z</time>
      </trkpt>
      <trkpt lat="46.52239" lon="6.22635">
        <ele>1391.65</ele>
        <time>2013-07-13T13:44:51Z</time>
      </trkpt>
      <trkpt lat="46.52238" lon="6.22631">
        <ele>1393.09</ele>
        <time>2013-07-13T13:44:55Z</time>
      </trkpt>
      <trkpt lat="46.52232" lon="6.2262">
        <ele>1395.49</ele>
        <time>2013-07-13T13:45:04Z</time>
      </trkpt>
      <trkpt lat="46.52231" lon="6.22619">
        <ele>1394.53</ele>
        <time>2013-07-13T13:45:05Z</time>
      </trkpt>
      <trkpt lat="46.52222" lon="6.22603">
        <ele>1396.93</ele>
        <time>2013-07-13T13:45:21Z</time>
      </trkpt>
      <trkpt lat="46.52221" lon="6.22601">
        <ele>1396.93</ele>
        <time>2013-07-13T13:45:23Z</time>
      </trkpt>
      <trkpt lat="46.52216" lon="6.22593">
        <ele>1396.45</ele>
        <time>2013-07-13T13:45:29Z</time>
      </trkpt>
      <trkpt lat="46.52213" lon="6.22584">
        <ele>1396.45</ele>
        <time>2013-07-13T13:45:34Z</time>
      </trkpt>
      <trkpt lat="46.52209" lon="6.2258">
        <ele>1395.97</ele>
        <time>2013-07-13T13:45:38Z</time>
      </trkpt>
      <trkpt lat="46.52205" lon="6.22568">
        <ele>1397.41</ele>
        <time>2013-07-13T13:45:53Z</time>
      </trkpt>
      <trkpt lat="46.52211" lon="6.22562">
        <ele>1396.45</ele>
        <time>2013-07-13T13:46:07Z</time>
      </trkpt>
      <trkpt lat="46.5221" lon="6.22567">
        <ele>1396.93</ele>
        <time>2013-07-13T13:46:25Z</time>
      </trkpt>
      <trkpt lat="46.52205" lon="6.22568">
        <ele>1396.93</ele>
        <time>2013-07-13T13:46:44Z</time>
      </trkpt>
      <trkpt lat="46.52212" lon="6.22561">
        <ele>1397.41</ele>
        <time>2013-07-13T13:47:02Z</time>
      </trkpt>
      <trkpt lat="46.5222" lon="6.22556">
        <ele>1397.89</ele>
        <time>2013-07-13T13:47:16Z</time>
      </trkpt>
      <trkpt lat="46.52227" lon="6.22549">
        <ele>1397.41</ele>
        <time>2013-07-13T13:47:37Z</time>
      </trkpt>
      <trkpt lat="46.52226" lon="6.22544">
        <ele>1397.41</ele>
        <time>2013-07-13T13:47:55Z</time>
      </trkpt>
      <trkpt lat="46.52223" lon="6.22529">
        <ele>1399.34</ele>
        <time>2013-07-13T13:48:10Z</time>
      </trkpt>
      <trkpt lat="46.52223" lon="6.22517">
        <ele>1400.3</ele>
        <time>2013-07-13T13:48:22Z</time>
      </trkpt>
      <trkpt lat="46.52213" lon="6.22503">
        <ele>1403.18</ele>
        <time>2013-07-13T13:48:41Z</time>
      </trkpt>
      <trkpt lat="46.52204" lon="6.22491">
        <ele>1406.07</ele>
        <time>2013-07-13T13:48:55Z</time>
      </trkpt>
      <trkpt lat="46.52204" lon="6.22481">
        <ele>1408.95</ele>
        <time>2013-07-13T13:49:11Z</time>
      </trkpt>
      <trkpt lat="46.52197" lon="6.22467">
        <ele>1412.31</ele>
        <time>2013-07-13T13:49:26Z</time>
      </trkpt>
      <trkpt lat="46.52183" lon="6.22445">
        <ele>1414.24</ele>
        <time>2013-07-13T13:49:44Z</time>
      </trkpt>
      <trkpt lat="46.52189" lon="6.22428">
        <ele>1417.12</ele>
        <time>2013-07-13T13:49:57Z</time>
      </trkpt>
      <trkpt lat="46.52182" lon="6.22419">
        <ele>1420.97</ele>
        <time>2013-07-13T13:50:14Z</time>
      </trkpt>
      <trkpt lat="46.52179" lon="6.22401">
        <ele>1424.81</ele>
        <time>2013-07-13T13:50:30Z</time>
      </trkpt>
      <trkpt lat="46.52176" lon="6.22391">
        <ele>1425.29</ele>
        <time>2013-07-13T13:50:38Z</time>
      </trkpt>
      <trkpt lat="46.5217" lon="6.22366">
        <ele>1426.73</ele>
        <time>2013-07-13T13:50:54Z</time>
      </trkpt>
      <trkpt lat="46.52174" lon="6.22359">
        <ele>1428.66</ele>
        <time>2013-07-13T13:51:03Z</time>
      </trkpt>
      <trkpt lat="46.5218" lon="6.22359">
        <ele>1432.5</ele>
        <time>2013-07-13T13:51:19Z</time>
      </trkpt>
      <trkpt lat="46.52184" lon="6.22358">
        <ele>1433.46</ele>
        <time>2013-07-13T13:51:25Z</time>
      </trkpt>
      <trkpt lat="46.52191" lon="6.22359">
        <ele>1434.42</ele>
        <time>2013-07-13T13:51:32Z</time>
      </trkpt>
      <trkpt lat="46.52207" lon="6.22352">
        <ele>1436.35</ele>
        <time>2013-07-13T13:51:45Z</time>
      </trkpt>
      <trkpt lat="46.52214" lon="6.22333">
        <ele>1438.27</ele>
        <time>2013-07-13T13:51:59Z</time>
      </trkpt>
      <trkpt lat="46.52217" lon="6.22328">
        <ele>1439.23</ele>
        <time>2013-07-13T13:52:06Z</time>
      </trkpt>
      <trkpt lat="46.5222" lon="6.22322">
        <ele>1442.11</ele>
        <time>2013-07-13T13:52:11Z</time>
      </trkpt>
      <trkpt lat="46.52221" lon="6.22319">
        <ele>1442.11</ele>
        <time>2013-07-13T13:52:15Z</time>
      </trkpt>
      <trkpt lat="46.52223" lon="6.22309">
        <ele>1443.08</ele>
        <time>2013-07-13T13:52:30Z</time>
      </trkpt>
      <trkpt lat="46.52227" lon="6.22307">
        <ele>1444.04</ele>
        <time>2013-07-13T13:52:42Z</time>
      </trkpt>
      <trkpt lat="46.52236" lon="6.22307">
        <ele>1445.96</ele>
        <time>2013-07-13T13:52:59Z</time>
      </trkpt>
      <trkpt lat="46.52251" lon="6.2231">
        <ele>1449.32</ele>
        <time>2013-07-13T13:53:15Z</time>
      </trkpt>
      <trkpt lat="46.52263" lon="6.22309">
        <ele>1450.77</ele>
        <time>2013-07-13T13:53:31Z</time>
      </trkpt>
      <trkpt lat="46.52267" lon="6.22302">
        <ele>1450.77</ele>
        <time>2013-07-13T13:53:49Z</time>
      </trkpt>
      <trkpt lat="46.52275" lon="6.22295">
        <ele>1450.77</ele>
        <time>2013-07-13T13:54:08Z</time>
      </trkpt>
      <trkpt lat="46.52275" lon="6.22294">
        <ele>1450.77</ele>
        <time>2013-07-13T13:54:33Z</time>
      </trkpt>
      <trkpt lat="46.52277" lon="6.22295">
        <ele>1450.77</ele>
        <time>2013-07-13T13:54:51Z</time>
      </trkpt>
      <trkpt lat="46.52278" lon="6.22296">
        <ele>1450.29</ele>
        <time>2013-07-13T13:54:59Z</time>
      </trkpt>
      <trkpt lat="46.52283" lon="6.22303">
        <ele>1450.29</ele>
        <time>2013-07-13T13:55:15Z</time>
      </trkpt>
      <trkpt lat="46.52283" lon="6.22304">
        <ele>1450.77</ele>
        <time>2013-07-13T13:55:41Z</time>
      </trkpt>
      <trkpt lat="46.52288" lon="6.22303">
        <ele>1450.77</ele>
        <time>2013-07-13T13:56:00Z</time>
      </trkpt>
      <trkpt lat="46.52288" lon="6.22297">
        <ele>1450.77</ele>
        <time>2013-07-13T13:56:21Z</time>
      </trkpt>
      <trkpt lat="46.52293" lon="6.22288">
        <ele>1451.25</ele>
        <time>2013-07-13T13:56:26Z</time>
      </trkpt>
      <trkpt lat="46.52293" lon="6.22272">
        <ele>1453.65</ele>
        <time>2013-07-13T13:56:39Z</time>
      </trkpt>
      <trkpt lat="46.52293" lon="6.22269">
        <ele>1453.65</ele>
        <time>2013-07-13T13:56:41Z</time>
      </trkpt>
      <trkpt lat="46.52293" lon="6.22265">
        <ele>1454.13</ele>
        <time>2013-07-13T13:56:45Z</time>
      </trkpt>
      <trkpt lat="46.52294" lon="6.22263">
        <ele>1455.57</ele>
        <time>2013-07-13T13:56:47Z</time>
      </trkpt>
      <trkpt lat="46.52294" lon="6.22257">
        <ele>1457.02</ele>
        <time>2013-07-13T13:56:52Z</time>
      </trkpt>
      <trkpt lat="46.52294" lon="6.22249">
        <ele>1460.38</ele>
        <time>2013-07-13T13:57:00Z</time>
      </trkpt>
      <trkpt lat="46.52292" lon="6.22244">
        <ele>1463.26</ele>
        <time>2013-07-13T13:57:14Z</time>
      </trkpt>
      <trkpt lat="46.52293" lon="6.22244">
        <ele>1466.15</ele>
        <time>2013-07-13T13:57:25Z</time>
      </trkpt>
      <trkpt lat="46.52296" lon="6.22242">
        <ele>1467.11</ele>
        <time>2013-07-13T13:57:31Z</time>
      </trkpt>
      <trkpt lat="46.52305" lon="6.22241">
        <ele>1468.55</ele>
        <time>2013-07-13T13:57:37Z</time>
      </trkpt>
      <trkpt lat="46.52318" lon="6.22254">
        <ele>1471.44</ele>
        <time>2013-07-13T13:57:52Z</time>
      </trkpt>
      <trkpt lat="46.52331" lon="6.22248">
        <ele>1473.84</ele>
        <time>2013-07-13T13:58:08Z</time>
      </trkpt>
      <trkpt lat="46.52338" lon="6.22233">
        <ele>1475.76</ele>
        <time>2013-07-13T13:58:23Z</time>
      </trkpt>
      <trkpt lat="46.52336" lon="6.22231">
        <ele>1476.24</ele>
        <time>2013-07-13T13:58:25Z</time>
      </trkpt>
      <trkpt lat="46.52333" lon="6.22222">
        <ele>1476.24</ele>
        <time>2013-07-13T13:58:33Z</time>
      </trkpt>
      <trkpt lat="46.52333" lon="6.22216">
        <ele>1477.68</ele>
        <time>2013-07-13T13:58:37Z</time>
      </trkpt>
      <trkpt lat="46.52332" lon="6.2221">
        <ele>1478.16</ele>
        <time>2013-07-13T13:58:41Z</time>
      </trkpt>
      <trkpt lat="46.52331" lon="6.22204">
        <ele>1471.92</ele>
        <time>2013-07-13T13:58:45Z</time>
      </trkpt>
      <trkpt lat="46.52331" lon="6.22203">
        <ele>1485.37</ele>
        <time>2013-07-13T13:58:46Z</time>
      </trkpt>
      <trkpt lat="46.5233" lon="6.22202">
        <ele>1478.65</ele>
        <time>2013-07-13T13:58:47Z</time>
      </trkpt>
      <trkpt lat="46.52329" lon="6.22201">
        <ele>1480.09</ele>
        <time>2013-07-13T13:58:50Z</time>
      </trkpt>
      <trkpt lat="46.52331" lon="6.22196">
        <ele>1482.49</ele>
        <time>2013-07-13T13:58:57Z</time>
      </trkpt>
      <trkpt lat="46.52334" lon="6.22194">
        <ele>1478.16</ele>
        <time>2013-07-13T13:59:05Z</time>
      </trkpt>
      <trkpt lat="46.52334" lon="6.22194">
        <ele>1485.85</ele>
        <time>2013-07-13T13:59:06Z</time>
      </trkpt>
      <trkpt lat="46.52334" lon="6.22195">
        <ele>1482.49</ele>
        <time>2013-07-13T13:59:07Z</time>
      </trkpt>
      <trkpt lat="46.52335" lon="6.22199">
        <ele>1482.49</ele>
        <time>2013-07-13T13:59:20Z</time>
      </trkpt>
      <trkpt lat="46.52334" lon="6.22199">
        <ele>1482.49</ele>
        <time>2013-07-13T13:59:42Z</time>
      </trkpt>
      <trkpt lat="46.52333" lon="6.22199">
        <ele>1482.97</ele>
        <time>2013-07-13T14:00:14Z</time>
      </trkpt>
      <trkpt lat="46.52334" lon="6.22198">
        <ele>1482.97</ele>
        <time>2013-07-13T14:00:33Z</time>
      </trkpt>
      <trkpt lat="46.52334" lon="6.22198">
        <ele>1482.01</ele>
        <time>2013-07-13T14:00:58Z</time>
      </trkpt>
      <trkpt lat="46.52335" lon="6.22199">
        <ele>1482.97</ele>
        <time>2013-07-13T14:01:07Z</time>
      </trkpt>
      <trkpt lat="46.52336" lon="6.22198">
        <ele>1483.45</ele>
        <time>2013-07-13T14:01:40Z</time>
      </trkpt>
      <trkpt lat="46.52335" lon="6.22199">
        <ele>1483.45</ele>
        <time>2013-07-13T14:02:24Z</time>
      </trkpt>
      <trkpt lat="46.52334" lon="6.22199">
        <ele>1483.45</ele>
        <time>2013-07-13T14:03:04Z</time>
      </trkpt>
      <trkpt lat="46.52335" lon="6.22198">
        <ele>1483.93</ele>
        <time>2013-07-13T14:03:47Z</time>
      </trkpt>
      <trkpt lat="46.52335" lon="6.22199">
        <ele>1483.93</ele>
        <time>2013-07-13T14:04:29Z</time>
      </trkpt>
      <trkpt lat="46.52335" lon="6.22198">
        <ele>1483.93</ele>
        <time>2013-07-13T14:05:10Z</time>
      </trkpt>
      <trkpt lat="46.52335" lon="6.22199">
        <ele>1484.41</ele>
        <time>2013-07-13T14:05:38Z</time>
      </trkpt>
      <trkpt lat="46.52336" lon="6.22199">
        <ele>1484.41</ele>
        <time>2013-07-13T14:06:08Z</time>
      </trkpt>
      <trkpt lat="46.52336" lon="6.22199">
        <ele>1477.2</ele>
        <time>2013-07-13T14:06:19Z</time>
      </trkpt>
      <trkpt lat="46.52336" lon="6.22199">
        <ele>1485.37</ele>
        <time>2013-07-13T14:06:20Z</time>
      </trkpt>
      <trkpt lat="46.52336" lon="6.22199">
        <ele>1482.01</ele>
        <time>2013-07-13T14:06:22Z</time>
      </trkpt>
      <trkpt lat="46.52336" lon="6.22199">
        <ele>1482.49</ele>
        <time>2013-07-13T14:06:23Z</time>
      </trkpt>
      <trkpt lat="46.52336" lon="6.22199">
        <ele>1488.26</ele>
        <time>2013-07-13T14:06:24Z</time>
      </trkpt>
      <trkpt lat="46.52336" lon="6.22199">
        <ele>1485.85</ele>
        <time>2013-07-13T14:06:25Z</time>
      </trkpt>
      <trkpt lat="46.52336" lon="6.22199">
        <ele>1484.89</ele>
        <time>2013-07-13T14:06:27Z</time>
      </trkpt>
      <trkpt lat="46.52336" lon="6.22199">
        <ele>1481.53</ele>
        <time>2013-07-13T14:06:42Z</time>
      </trkpt>
      <trkpt lat="46.52336" lon="6.22199">
        <ele>1487.3</ele>
        <time>2013-07-13T14:06:43Z</time>
      </trkpt>
      <trkpt lat="46.52336" lon="6.22199">
        <ele>1484.41</ele>
        <time>2013-07-13T14:06:48Z</time>
      </trkpt>
      <trkpt lat="46.52336" lon="6.22199">
        <ele>1484.41</ele>
        <time>2013-07-13T14:07:17Z</time>
      </trkpt>
      <trkpt lat="46.52335" lon="6.22199">
        <ele>1484.41</ele>
        <time>2013-07-13T14:07:48Z</time>
      </trkpt>
      <trkpt lat="46.52335" lon="6.22199">
        <ele>1484.89</ele>
        <time>2013-07-13T14:08:22Z</time>
      </trkpt>
      <trkpt lat="46.52335" lon="6.22199">
        <ele>1485.37</ele>
        <time>2013-07-13T14:08:46Z</time>
      </trkpt>
      <trkpt lat="46.52335" lon="6.22199">
        <ele>1484.41</ele>
        <time>2013-07-13T14:09:19Z</time>
      </trkpt>
      <trkpt lat="46.52335" lon="6.22199">
        <ele>1484.41</ele>
        <time>2013-07-13T14:09:48Z</time>
      </trkpt>
      <trkpt lat="46.52335" lon="6.22198">
        <ele>1484.89</ele>
        <time>2013-07-13T14:10:22Z</time>
      </trkpt>
      <trkpt lat="46.52336" lon="6.22199">
        <ele>1485.37</ele>
        <time>2013-07-13T14:10:59Z</time>
      </trkpt>
      <trkpt lat="46.52336" lon="6.22198">
        <ele>1485.85</ele>
        <time>2013-07-13T14:11:28Z</time>
      </trkpt>
      <trkpt lat="46.52336" lon="6.22198">
        <ele>1485.85</ele>
        <time>2013-07-13T14:11:51Z</time>
      </trkpt>
      <trkpt lat="46.52336" lon="6.22199">
        <ele>1485.85</ele>
        <time>2013-07-13T14:12:06Z</time>
      </trkpt>
      <trkpt lat="46.52336" lon="6.22199">
        <ele>1485.85</ele>
        <time>2013-07-13T14:12:40Z</time>
      </trkpt>
      <trkpt lat="46.52336" lon="6.22199">
        <ele>1485.37</ele>
        <time>2013-07-13T14:13:17Z</time>
      </trkpt>
      <trkpt lat="46.52336" lon="6.22199">
        <ele>1485.37</ele>
        <time>2013-07-13T14:13:38Z</time>
      </trkpt>
      <trkpt lat="46.52336" lon="6.22199">
        <ele>1485.85</ele>
        <time>2013-07-13T14:14:11Z</time>
      </trkpt>
      <trkpt lat="46.52336" lon="6.22199">
        <ele>1485.85</ele>
        <time>2013-07-13T14:14:49Z</time>
      </trkpt>
      <trkpt lat="46.52336" lon="6.22199">
        <ele>1485.85</ele>
        <time>2013-07-13T14:15:26Z</time>
      </trkpt>
      <trkpt lat="46.52337" lon="6.222">
        <ele>1486.34</ele>
        <time>2013-07-13T14:16:00Z</time>
      </trkpt>
      <trkpt lat="46.52336" lon="6.222">
        <ele>1486.34</ele>
        <time>2013-07-13T14:16:31Z</time>
      </trkpt>
      <trkpt lat="46.52336" lon="6.22199">
        <ele>1486.34</ele>
        <time>2013-07-13T14:17:05Z</time>
      </trkpt>
      <trkpt lat="46.52336" lon="6.22199">
        <ele>1486.82</ele>
        <time>2013-07-13T14:17:38Z</time>
      </trkpt>
      <trkpt lat="46.52337" lon="6.22199">
        <ele>1486.34</ele>
        <time>2013-07-13T14:18:17Z</time>
      </trkpt>
      <trkpt lat="46.52337" lon="6.22198">
        <ele>1486.82</ele>
        <time>2013-07-13T14:18:53Z</time>
      </trkpt>
      <trkpt lat="46.52337" lon="6.22198">
        <ele>1486.82</ele>
        <time>2013-07-13T14:19:26Z</time>
      </trkpt>
      <trkpt lat="46.52337" lon="6.22198">
        <ele>1486.82</ele>
        <time>2013-07-13T14:19:57Z</time>
      </trkpt>
      <trkpt lat="46.52337" lon="6.22198">
        <ele>1486.82</ele>
        <time>2013-07-13T14:20:31Z</time>
      </trkpt>
      <trkpt lat="46.52337" lon="6.22199">
        <ele>1487.3</ele>
        <time>2013-07-13T14:21:01Z</time>
      </trkpt>
      <trkpt lat="46.52337" lon="6.222">
        <ele>1487.3</ele>
        <time>2013-07-13T14:21:28Z</time>
      </trkpt>
      <trkpt lat="46.52337" lon="6.222">
        <ele>1487.3</ele>
        <time>2013-07-13T14:21:56Z</time>
      </trkpt>
      <trkpt lat="46.52337" lon="6.222">
        <ele>1487.78</ele>
        <time>2013-07-13T14:22:24Z</time>
      </trkpt>
      <trkpt lat="46.52336" lon="6.222">
        <ele>1487.78</ele>
        <time>2013-07-13T14:22:54Z</time>
      </trkpt>
      <trkpt lat="46.52336" lon="6.22201">
        <ele>1487.78</ele>
        <time>2013-07-13T14:23:28Z</time>
      </trkpt>
      <trkpt lat="46.52336" lon="6.22201">
        <ele>1487.3</ele>
        <time>2013-07-13T14:24:03Z</time>
      </trkpt>
      <trkpt lat="46.52336" lon="6.222">
        <ele>1487.78</ele>
        <time>2013-07-13T14:24:39Z</time>
      </trkpt>
      <trkpt lat="46.52336" lon="6.222">
        <ele>1487.78</ele>
        <time>2013-07-13T14:25:15Z</time>
      </trkpt>
      <trkpt lat="46.52336" lon="6.222">
        <ele>1487.78</ele>
        <time>2013-07-13T14:25:51Z</time>
      </trkpt>
      <trkpt lat="46.52337" lon="6.222">
        <ele>1487.78</ele>
        <time>2013-07-13T14:26:28Z</time>
      </trkpt>
      <trkpt lat="46.52337" lon="6.222">
        <ele>1487.78</ele>
        <time>2013-07-13T14:27:02Z</time>
      </trkpt>
      <trkpt lat="46.52337" lon="6.222">
        <ele>1487.78</ele>
        <time>2013-07-13T14:27:23Z</time>
      </trkpt>
      <trkpt lat="46.52338" lon="6.22199">
        <ele>1486.34</ele>
        <time>2013-07-13T14:27:40Z</time>
      </trkpt>
      <trkpt lat="46.52354" lon="6.22202">
        <ele>1484.41</ele>
        <time>2013-07-13T14:27:58Z</time>
      </trkpt>
      <trkpt lat="46.52356" lon="6.22202">
        <ele>1483.93</ele>
        <time>2013-07-13T14:28:01Z</time>
      </trkpt>
      <trkpt lat="46.52366" lon="6.22201">
        <ele>1481.53</ele>
        <time>2013-07-13T14:28:15Z</time>
      </trkpt>
      <trkpt lat="46.52372" lon="6.22201">
        <ele>1480.09</ele>
        <time>2013-07-13T14:28:33Z</time>
      </trkpt>
      <trkpt lat="46.52376" lon="6.22201">
        <ele>1479.13</ele>
        <time>2013-07-13T14:28:54Z</time>
      </trkpt>
      <trkpt lat="46.52386" lon="6.222">
        <ele>1477.2</ele>
        <time>2013-07-13T14:29:13Z</time>
      </trkpt>
      <trkpt lat="46.52393" lon="6.22197">
        <ele>1475.28</ele>
        <time>2013-07-13T14:29:29Z</time>
      </trkpt>
      <trkpt lat="46.52396" lon="6.22187">
        <ele>1473.84</ele>
        <time>2013-07-13T14:29:40Z</time>
      </trkpt>
      <trkpt lat="46.52397" lon="6.22185">
        <ele>1475.28</ele>
        <time>2013-07-13T14:29:42Z</time>
      </trkpt>
      <trkpt lat="46.524" lon="6.22174">
        <ele>1475.28</ele>
        <time>2013-07-13T14:29:59Z</time>
      </trkpt>
      <trkpt lat="46.52419" lon="6.22148">
        <ele>1474.32</ele>
        <time>2013-07-13T14:30:15Z</time>
      </trkpt>
      <trkpt lat="46.5242" lon="6.22143">
        <ele>1471.44</ele>
        <time>2013-07-13T14:30:33Z</time>
      </trkpt>
      <trkpt lat="46.52436" lon="6.22113">
        <ele>1469.99</ele>
        <time>2013-07-13T14:30:48Z</time>
      </trkpt>
      <trkpt lat="46.52445" lon="6.22101">
        <ele>1468.55</ele>
        <time>2013-07-13T14:31:07Z</time>
      </trkpt>
      <trkpt lat="46.52445" lon="6.22096">
        <ele>1467.11</ele>
        <time>2013-07-13T14:31:31Z</time>
      </trkpt>
      <trkpt lat="46.52445" lon="6.22081">
        <ele>1464.71</ele>
        <time>2013-07-13T14:31:48Z</time>
      </trkpt>
      <trkpt lat="46.52459" lon="6.22072">
        <ele>1463.26</ele>
        <time>2013-07-13T14:32:03Z</time>
      </trkpt>
      <trkpt lat="46.52457" lon="6.22072">
        <ele>1462.3</ele>
        <time>2013-07-13T14:32:22Z</time>
      </trkpt>
      <trkpt lat="46.52453" lon="6.22073">
        <ele>1461.82</ele>
        <time>2013-07-13T14:32:44Z</time>
      </trkpt>
      <trkpt lat="46.52466" lon="6.22052">
        <ele>1459.42</ele>
        <time>2013-07-13T14:33:02Z</time>
      </trkpt>
      <trkpt lat="46.52471" lon="6.22027">
        <ele>1457.02</ele>
        <time>2013-07-13T14:33:19Z</time>
      </trkpt>
      <trkpt lat="46.52482" lon="6.22014">
        <ele>1456.05</ele>
        <time>2013-07-13T14:33:31Z</time>
      </trkpt>
      <trkpt lat="46.52494" lon="6.21988">
        <ele>1457.5</ele>
        <time>2013-07-13T14:33:45Z</time>
      </trkpt>
      <trkpt lat="46.52504" lon="6.21979">
        <ele>1457.02</ele>
        <time>2013-07-13T14:33:58Z</time>
      </trkpt>
      <trkpt lat="46.52505" lon="6.21977">
        <ele>1456.53</ele>
        <time>2013-07-13T14:34:00Z</time>
      </trkpt>
      <trkpt lat="46.52507" lon="6.21966">
        <ele>1456.05</ele>
        <time>2013-07-13T14:34:17Z</time>
      </trkpt>
      <trkpt lat="46.52507" lon="6.21955">
        <ele>1455.57</ele>
        <time>2013-07-13T14:34:39Z</time>
      </trkpt>
      <trkpt lat="46.52515" lon="6.21941">
        <ele>1452.69</ele>
        <time>2013-07-13T14:34:55Z</time>
      </trkpt>
      <trkpt lat="46.5252" lon="6.21933">
        <ele>1449.81</ele>
        <time>2013-07-13T14:35:06Z</time>
      </trkpt>
      <trkpt lat="46.52528" lon="6.21916">
        <ele>1449.32</ele>
        <time>2013-07-13T14:35:18Z</time>
      </trkpt>
      <trkpt lat="46.52529" lon="6.21906">
        <ele>1449.81</ele>
        <time>2013-07-13T14:35:22Z</time>
      </trkpt>
      <trkpt lat="46.52532" lon="6.2189">
        <ele>1449.32</ele>
        <time>2013-07-13T14:35:32Z</time>
      </trkpt>
      <trkpt lat="46.52542" lon="6.21875">
        <ele>1448.84</ele>
        <time>2013-07-13T14:35:49Z</time>
      </trkpt>
      <trkpt lat="46.52543" lon="6.21872">
        <ele>1448.84</ele>
        <time>2013-07-13T14:35:51Z</time>
      </trkpt>
      <trkpt lat="46.52546" lon="6.21857">
        <ele>1448.84</ele>
        <time>2013-07-13T14:36:06Z</time>
      </trkpt>
      <trkpt lat="46.52546" lon="6.21855">
        <ele>1449.32</ele>
        <time>2013-07-13T14:36:08Z</time>
      </trkpt>
      <trkpt lat="46.52546" lon="6.21838">
        <ele>1447.88</ele>
        <time>2013-07-13T14:36:21Z</time>
      </trkpt>
      <trkpt lat="46.52551" lon="6.21818">
        <ele>1447.4</ele>
        <time>2013-07-13T14:36:36Z</time>
      </trkpt>
      <trkpt lat="46.52549" lon="6.2181">
        <ele>1446.92</ele>
        <time>2013-07-13T14:36:41Z</time>
      </trkpt>
      <trkpt lat="46.52549" lon="6.21808">
        <ele>1446.44</ele>
        <time>2013-07-13T14:36:43Z</time>
      </trkpt>
      <trkpt lat="46.52547" lon="6.21805">
        <ele>1446.92</ele>
        <time>2013-07-13T14:36:45Z</time>
      </trkpt>
      <trkpt lat="46.52542" lon="6.21782">
        <ele>1445.96</ele>
        <time>2013-07-13T14:37:00Z</time>
      </trkpt>
      <trkpt lat="46.52549" lon="6.21769">
        <ele>1445.96</ele>
        <time>2013-07-13T14:37:15Z</time>
      </trkpt>
      <trkpt lat="46.52565" lon="6.21763">
        <ele>1445</ele>
        <time>2013-07-13T14:37:32Z</time>
      </trkpt>
      <trkpt lat="46.5257" lon="6.21766">
        <ele>1445</ele>
        <time>2013-07-13T14:37:41Z</time>
      </trkpt>
      <trkpt lat="46.52574" lon="6.21777">
        <ele>1445</ele>
        <time>2013-07-13T14:37:54Z</time>
      </trkpt>
      <trkpt lat="46.52574" lon="6.21779">
        <ele>1444.04</ele>
        <time>2013-07-13T14:38:16Z</time>
      </trkpt>
      <trkpt lat="46.52577" lon="6.21778">
        <ele>1444.04</ele>
        <time>2013-07-13T14:38:29Z</time>
      </trkpt>
      <trkpt lat="46.52579" lon="6.21778">
        <ele>1444.04</ele>
        <time>2013-07-13T14:38:41Z</time>
      </trkpt>
      <trkpt lat="46.52585" lon="6.21772">
        <ele>1443.08</ele>
        <time>2013-07-13T14:38:57Z</time>
      </trkpt>
      <trkpt lat="46.52601" lon="6.21767">
        <ele>1442.6</ele>
        <time>2013-07-13T14:39:14Z</time>
      </trkpt>
      <trkpt lat="46.5261" lon="6.21766">
        <ele>1442.6</ele>
        <time>2013-07-13T14:39:25Z</time>
      </trkpt>
      <trkpt lat="46.52623" lon="6.21766">
        <ele>1442.11</ele>
        <time>2013-07-13T14:39:39Z</time>
      </trkpt>
      <trkpt lat="46.5263" lon="6.21768">
        <ele>1441.63</ele>
        <time>2013-07-13T14:39:46Z</time>
      </trkpt>
      <trkpt lat="46.52634" lon="6.21769">
        <ele>1441.15</ele>
        <time>2013-07-13T14:39:51Z</time>
      </trkpt>
      <trkpt lat="46.52645" lon="6.21776">
        <ele>1440.19</ele>
        <time>2013-07-13T14:40:05Z</time>
      </trkpt>
      <trkpt lat="46.52654" lon="6.21782">
        <ele>1439.23</ele>
        <time>2013-07-13T14:40:16Z</time>
      </trkpt>
      <trkpt lat="46.52659" lon="6.2179">
        <ele>1438.27</ele>
        <time>2013-07-13T14:40:22Z</time>
      </trkpt>
      <trkpt lat="46.52671" lon="6.21803">
        <ele>1436.83</ele>
        <time>2013-07-13T14:40:35Z</time>
      </trkpt>
      <trkpt lat="46.52674" lon="6.21807">
        <ele>1436.35</ele>
        <time>2013-07-13T14:40:38Z</time>
      </trkpt>
      <trkpt lat="46.52678" lon="6.21812">
        <ele>1435.87</ele>
        <time>2013-07-13T14:40:43Z</time>
      </trkpt>
      <trkpt lat="46.52689" lon="6.21822">
        <ele>1434.91</ele>
        <time>2013-07-13T14:40:57Z</time>
      </trkpt>
      <trkpt lat="46.52692" lon="6.21824">
        <ele>1434.91</ele>
        <time>2013-07-13T14:41:00Z</time>
      </trkpt>
      <trkpt lat="46.52694" lon="6.2183">
        <ele>1435.39</ele>
        <time>2013-07-13T14:41:04Z</time>
      </trkpt>
      <trkpt lat="46.52701" lon="6.21842">
        <ele>1433.94</ele>
        <time>2013-07-13T14:41:15Z</time>
      </trkpt>
      <trkpt lat="46.52704" lon="6.21845">
        <ele>1433.94</ele>
        <time>2013-07-13T14:41:18Z</time>
      </trkpt>
      <trkpt lat="46.5271" lon="6.21852">
        <ele>1433.46</ele>
        <time>2013-07-13T14:41:29Z</time>
      </trkpt>
      <trkpt lat="46.5271" lon="6.21852">
        <ele>1432.98</ele>
        <time>2013-07-13T14:41:31Z</time>
      </trkpt>
      <trkpt lat="46.52723" lon="6.21857">
        <ele>1432.5</ele>
        <time>2013-07-13T14:41:44Z</time>
      </trkpt>
      <trkpt lat="46.52737" lon="6.21865">
        <ele>1430.58</ele>
        <time>2013-07-13T14:41:58Z</time>
      </trkpt>
      <trkpt lat="46.52745" lon="6.21871">
        <ele>1429.62</ele>
        <time>2013-07-13T14:42:09Z</time>
      </trkpt>
      <trkpt lat="46.52755" lon="6.21883">
        <ele>1428.66</ele>
        <time>2013-07-13T14:42:23Z</time>
      </trkpt>
      <trkpt lat="46.52765" lon="6.21895">
        <ele>1426.73</ele>
        <time>2013-07-13T14:42:36Z</time>
      </trkpt>
      <trkpt lat="46.52781" lon="6.21901">
        <ele>1423.37</ele>
        <time>2013-07-13T14:42:53Z</time>
      </trkpt>
      <trkpt lat="46.52787" lon="6.21904">
        <ele>1421.93</ele>
        <time>2013-07-13T14:43:02Z</time>
      </trkpt>
      <trkpt lat="46.52802" lon="6.21916">
        <ele>1420</ele>
        <time>2013-07-13T14:43:16Z</time>
      </trkpt>
      <trkpt lat="46.52804" lon="6.21918">
        <ele>1419.52</ele>
        <time>2013-07-13T14:43:20Z</time>
      </trkpt>
      <trkpt lat="46.52811" lon="6.21923">
        <ele>1417.6</ele>
        <time>2013-07-13T14:43:26Z</time>
      </trkpt>
      <trkpt lat="46.52819" lon="6.21928">
        <ele>1417.6</ele>
        <time>2013-07-13T14:43:40Z</time>
      </trkpt>
      <trkpt lat="46.52825" lon="6.21934">
        <ele>1418.08</ele>
        <time>2013-07-13T14:43:50Z</time>
      </trkpt>
      <trkpt lat="46.52835" lon="6.21948">
        <ele>1418.08</ele>
        <time>2013-07-13T14:44:03Z</time>
      </trkpt>
      <trkpt lat="46.5284" lon="6.21951">
        <ele>1418.08</ele>
        <time>2013-07-13T14:44:07Z</time>
      </trkpt>
      <trkpt lat="46.52844" lon="6.21952">
        <ele>1418.08</ele>
        <time>2013-07-13T14:44:11Z</time>
      </trkpt>
      <trkpt lat="46.52856" lon="6.21961">
        <ele>1416.64</ele>
        <time>2013-07-13T14:44:25Z</time>
      </trkpt>
      <trkpt lat="46.52858" lon="6.21963">
        <ele>1416.16</ele>
        <time>2013-07-13T14:44:28Z</time>
      </trkpt>
      <trkpt lat="46.52866" lon="6.21973">
        <ele>1415.68</ele>
        <time>2013-07-13T14:44:41Z</time>
      </trkpt>
      <trkpt lat="46.52868" lon="6.21975">
        <ele>1415.2</ele>
        <time>2013-07-13T14:44:44Z</time>
      </trkpt>
      <trkpt lat="46.52875" lon="6.21982">
        <ele>1413.28</ele>
        <time>2013-07-13T14:44:57Z</time>
      </trkpt>
      <trkpt lat="46.52875" lon="6.21982">
        <ele>1413.28</ele>
        <time>2013-07-13T14:44:59Z</time>
      </trkpt>
      <trkpt lat="46.5288" lon="6.21983">
        <ele>1412.31</ele>
        <time>2013-07-13T14:45:03Z</time>
      </trkpt>
      <trkpt lat="46.52888" lon="6.2199">
        <ele>1411.83</ele>
        <time>2013-07-13T14:45:10Z</time>
      </trkpt>
      <trkpt lat="46.52902" lon="6.22003">
        <ele>1409.91</ele>
        <time>2013-07-13T14:45:24Z</time>
      </trkpt>
      <trkpt lat="46.52908" lon="6.22009">
        <ele>1409.43</ele>
        <time>2013-07-13T14:45:33Z</time>
      </trkpt>
      <trkpt lat="46.5291" lon="6.2201">
        <ele>1409.43</ele>
        <time>2013-07-13T14:45:35Z</time>
      </trkpt>
      <trkpt lat="46.52917" lon="6.22018">
        <ele>1408.47</ele>
        <time>2013-07-13T14:45:43Z</time>
      </trkpt>
      <trkpt lat="46.52931" lon="6.22033">
        <ele>1407.03</ele>
        <time>2013-07-13T14:45:57Z</time>
      </trkpt>
      <trkpt lat="46.52943" lon="6.22049">
        <ele>1407.03</ele>
        <time>2013-07-13T14:46:12Z</time>
      </trkpt>
      <trkpt lat="46.52946" lon="6.22053">
        <ele>1407.03</ele>
        <time>2013-07-13T14:46:16Z</time>
      </trkpt>
      <trkpt lat="46.52954" lon="6.22061">
        <ele>1406.55</ele>
        <time>2013-07-13T14:46:25Z</time>
      </trkpt>
      <trkpt lat="46.52962" lon="6.22074">
        <ele>1405.1</ele>
        <time>2013-07-13T14:46:39Z</time>
      </trkpt>
      <trkpt lat="46.52963" lon="6.22074">
        <ele>1405.1</ele>
        <time>2013-07-13T14:46:41Z</time>
      </trkpt>
      <trkpt lat="46.52968" lon="6.22075">
        <ele>1404.62</ele>
        <time>2013-07-13T14:46:47Z</time>
      </trkpt>
      <trkpt lat="46.52973" lon="6.22082">
        <ele>1403.66</ele>
        <time>2013-07-13T14:46:52Z</time>
      </trkpt>
      <trkpt lat="46.5299" lon="6.22098">
        <ele>1402.7</ele>
        <time>2013-07-13T14:47:09Z</time>
      </trkpt>
      <trkpt lat="46.53005" lon="6.22112">
        <ele>1402.22</ele>
        <time>2013-07-13T14:47:28Z</time>
      </trkpt>
      <trkpt lat="46.53016" lon="6.22121">
        <ele>1401.26</ele>
        <time>2013-07-13T14:47:40Z</time>
      </trkpt>
      <trkpt lat="46.53024" lon="6.22126">
        <ele>1399.34</ele>
        <time>2013-07-13T14:47:53Z</time>
      </trkpt>
      <trkpt lat="46.53038" lon="6.22146">
        <ele>1399.34</ele>
        <time>2013-07-13T14:48:10Z</time>
      </trkpt>
      <trkpt lat="46.53046" lon="6.22147">
        <ele>1398.86</ele>
        <time>2013-07-13T14:48:29Z</time>
      </trkpt>
      <trkpt lat="46.53052" lon="6.22163">
        <ele>1398.86</ele>
        <time>2013-07-13T14:48:41Z</time>
      </trkpt>
      <trkpt lat="46.5306" lon="6.22176">
        <ele>1398.37</ele>
        <time>2013-07-13T14:48:56Z</time>
      </trkpt>
      <trkpt lat="46.53068" lon="6.22182">
        <ele>1397.89</ele>
        <time>2013-07-13T14:49:04Z</time>
      </trkpt>
      <trkpt lat="46.53084" lon="6.22197">
        <ele>1396.45</ele>
        <time>2013-07-13T14:49:20Z</time>
      </trkpt>
      <trkpt lat="46.53096" lon="6.22204">
        <ele>1394.05</ele>
        <time>2013-07-13T14:49:34Z</time>
      </trkpt>
      <trkpt lat="46.53107" lon="6.22215">
        <ele>1390.68</ele>
        <time>2013-07-13T14:49:51Z</time>
      </trkpt>
      <trkpt lat="46.53115" lon="6.22219">
        <ele>1387.8</ele>
        <time>2013-07-13T14:50:06Z</time>
      </trkpt>
      <trkpt lat="46.53116" lon="6.22223">
        <ele>1386.84</ele>
        <time>2013-07-13T14:50:08Z</time>
      </trkpt>
      <trkpt lat="46.53132" lon="6.22239">
        <ele>1385.4</ele>
        <time>2013-07-13T14:50:27Z</time>
      </trkpt>
      <trkpt lat="46.53145" lon="6.22248">
        <ele>1383.47</ele>
        <time>2013-07-13T14:50:40Z</time>
      </trkpt>
      <trkpt lat="46.53155" lon="6.22261">
        <ele>1382.03</ele>
        <time>2013-07-13T14:50:52Z</time>
      </trkpt>
      <trkpt lat="46.53165" lon="6.22272">
        <ele>1381.07</ele>
        <time>2013-07-13T14:51:06Z</time>
      </trkpt>
      <trkpt lat="46.53175" lon="6.22293">
        <ele>1378.19</ele>
        <time>2013-07-13T14:51:22Z</time>
      </trkpt>
      <trkpt lat="46.53184" lon="6.22309">
        <ele>1376.75</ele>
        <time>2013-07-13T14:51:37Z</time>
      </trkpt>
      <trkpt lat="46.53194" lon="6.2232">
        <ele>1374.82</ele>
        <time>2013-07-13T14:51:49Z</time>
      </trkpt>
      <trkpt lat="46.53207" lon="6.22316">
        <ele>1372.9</ele>
        <time>2013-07-13T14:52:06Z</time>
      </trkpt>
      <trkpt lat="46.53223" lon="6.22323">
        <ele>1369.54</ele>
        <time>2013-07-13T14:52:25Z</time>
      </trkpt>
      <trkpt lat="46.53229" lon="6.22328">
        <ele>1369.54</ele>
        <time>2013-07-13T14:52:35Z</time>
      </trkpt>
      <trkpt lat="46.53238" lon="6.22332">
        <ele>1366.65</ele>
        <time>2013-07-13T14:52:52Z</time>
      </trkpt>
      <trkpt lat="46.53245" lon="6.22336">
        <ele>1364.73</ele>
        <time>2013-07-13T14:53:11Z</time>
      </trkpt>
      <trkpt lat="46.53252" lon="6.22342">
        <ele>1362.33</ele>
        <time>2013-07-13T14:53:28Z</time>
      </trkpt>
      <trkpt lat="46.53256" lon="6.22356">
        <ele>1359.44</ele>
        <time>2013-07-13T14:53:48Z</time>
      </trkpt>
      <trkpt lat="46.53258" lon="6.22362">
        <ele>1357.04</ele>
        <time>2013-07-13T14:54:02Z</time>
      </trkpt>
      <trkpt lat="46.53269" lon="6.22361">
        <ele>1356.08</ele>
        <time>2013-07-13T14:54:16Z</time>
      </trkpt>
      <trkpt lat="46.53284" lon="6.22371">
        <ele>1354.15</ele>
        <time>2013-07-13T14:54:32Z</time>
      </trkpt>
      <trkpt lat="46.53293" lon="6.22383">
        <ele>1353.19</ele>
        <time>2013-07-13T14:54:45Z</time>
      </trkpt>
      <trkpt lat="46.53297" lon="6.22386">
        <ele>1352.71</ele>
        <time>2013-07-13T14:54:49Z</time>
      </trkpt>
      <trkpt lat="46.53308" lon="6.2241">
        <ele>1352.71</ele>
        <time>2013-07-13T14:55:02Z</time>
      </trkpt>
      <trkpt lat="46.53313" lon="6.22413">
        <ele>1352.71</ele>
        <time>2013-07-13T14:55:18Z</time>
      </trkpt>
      <trkpt lat="46.53319" lon="6.22412">
        <ele>1351.75</ele>
        <time>2013-07-13T14:55:37Z</time>
      </trkpt>
      <trkpt lat="46.53325" lon="6.22425">
        <ele>1351.75</ele>
        <time>2013-07-13T14:55:50Z</time>
      </trkpt>
      <trkpt lat="46.53333" lon="6.22436">
        <ele>1351.27</ele>
        <time>2013-07-13T14:56:08Z</time>
      </trkpt>
      <trkpt lat="46.53345" lon="6.22443">
        <ele>1350.31</ele>
        <time>2013-07-13T14:56:23Z</time>
      </trkpt>
      <trkpt lat="46.53347" lon="6.22448">
        <ele>1349.83</ele>
        <time>2013-07-13T14:56:27Z</time>
      </trkpt>
      <trkpt lat="46.53357" lon="6.22464">
        <ele>1347.91</ele>
        <time>2013-07-13T14:56:40Z</time>
      </trkpt>
      <trkpt lat="46.53366" lon="6.22476">
        <ele>1347.43</ele>
        <time>2013-07-13T14:56:53Z</time>
      </trkpt>
      <trkpt lat="46.5338" lon="6.22489">
        <ele>1346.94</ele>
        <time>2013-07-13T14:57:08Z</time>
      </trkpt>
      <trkpt lat="46.53382" lon="6.22498">
        <ele>1348.39</ele>
        <time>2013-07-13T14:57:11Z</time>
      </trkpt>
      <trkpt lat="46.53381" lon="6.22508">
        <ele>1348.39</ele>
        <time>2013-07-13T14:57:18Z</time>
      </trkpt>
      <trkpt lat="46.53383" lon="6.22513">
        <ele>1348.39</ele>
        <time>2013-07-13T14:57:35Z</time>
      </trkpt>
      <trkpt lat="46.53383" lon="6.22517">
        <ele>1349.35</ele>
        <time>2013-07-13T14:57:42Z</time>
      </trkpt>
      <trkpt lat="46.53385" lon="6.22523">
        <ele>1348.87</ele>
        <time>2013-07-13T14:57:55Z</time>
      </trkpt>
      <trkpt lat="46.53387" lon="6.22526">
        <ele>1349.83</ele>
        <time>2013-07-13T14:58:01Z</time>
      </trkpt>
      <trkpt lat="46.53387" lon="6.22526">
        <ele>1348.39</ele>
        <time>2013-07-13T14:58:02Z</time>
      </trkpt>
      <trkpt lat="46.53387" lon="6.22529">
        <ele>1349.35</ele>
        <time>2013-07-13T14:58:23Z</time>
      </trkpt>
      <trkpt lat="46.5339" lon="6.22529">
        <ele>1350.79</ele>
        <time>2013-07-13T14:58:36Z</time>
      </trkpt>
      <trkpt lat="46.5339" lon="6.2253">
        <ele>1348.87</ele>
        <time>2013-07-13T14:58:37Z</time>
      </trkpt>
      <trkpt lat="46.5339" lon="6.22532">
        <ele>1350.31</ele>
        <time>2013-07-13T14:58:38Z</time>
      </trkpt>
      <trkpt lat="46.53392" lon="6.22537">
        <ele>1351.27</ele>
        <time>2013-07-13T14:58:43Z</time>
      </trkpt>
      <trkpt lat="46.53395" lon="6.22546">
        <ele>1353.19</ele>
        <time>2013-07-13T14:58:53Z</time>
      </trkpt>
      <trkpt lat="46.53395" lon="6.22547">
        <ele>1351.75</ele>
        <time>2013-07-13T14:58:54Z</time>
      </trkpt>
      <trkpt lat="46.53395" lon="6.22547">
        <ele>1353.67</ele>
        <time>2013-07-13T14:58:55Z</time>
      </trkpt>
      <trkpt lat="46.53399" lon="6.22556">
        <ele>1352.71</ele>
        <time>2013-07-13T14:59:06Z</time>
      </trkpt>
      <trkpt lat="46.534" lon="6.22557">
        <ele>1355.6</ele>
        <time>2013-07-13T14:59:07Z</time>
      </trkpt>
      <trkpt lat="46.534" lon="6.22564">
        <ele>1356.08</ele>
        <time>2013-07-13T14:59:14Z</time>
      </trkpt>
      <trkpt lat="46.53404" lon="6.22573">
        <ele>1358</ele>
        <time>2013-07-13T14:59:22Z</time>
      </trkpt>
      <trkpt lat="46.53406" lon="6.22575">
        <ele>1358.48</ele>
        <time>2013-07-13T14:59:25Z</time>
      </trkpt>
      <trkpt lat="46.53407" lon="6.22577">
        <ele>1358.96</ele>
        <time>2013-07-13T14:59:28Z</time>
      </trkpt>
      <trkpt lat="46.53407" lon="6.22579">
        <ele>1359.92</ele>
        <time>2013-07-13T14:59:31Z</time>
      </trkpt>
      <trkpt lat="46.53408" lon="6.22581">
        <ele>1358.48</ele>
        <time>2013-07-13T14:59:32Z</time>
      </trkpt>
      <trkpt lat="46.53415" lon="6.2258">
        <ele>1359.92</ele>
        <time>2013-07-13T14:59:49Z</time>
      </trkpt>
      <trkpt lat="46.53415" lon="6.22581">
        <ele>1360.88</ele>
        <time>2013-07-13T14:59:53Z</time>
      </trkpt>
      <trkpt lat="46.53415" lon="6.22584">
        <ele>1360.88</ele>
        <time>2013-07-13T14:59:59Z</time>
      </trkpt>
      <trkpt lat="46.53415" lon="6.22586">
        <ele>1360.88</ele>
        <time>2013-07-13T15:00:01Z</time>
      </trkpt>
      <trkpt lat="46.53418" lon="6.2259">
        <ele>1360.4</ele>
        <time>2013-07-13T15:00:08Z</time>
      </trkpt>
      <trkpt lat="46.53418" lon="6.22591">
        <ele>1362.33</ele>
        <time>2013-07-13T15:00:09Z</time>
      </trkpt>
      <trkpt lat="46.53422" lon="6.22597">
        <ele>1363.77</ele>
        <time>2013-07-13T15:00:16Z</time>
      </trkpt>
      <trkpt lat="46.53423" lon="6.22597">
        <ele>1362.33</ele>
        <time>2013-07-13T15:00:17Z</time>
      </trkpt>
      <trkpt lat="46.53424" lon="6.22597">
        <ele>1363.77</ele>
        <time>2013-07-13T15:00:19Z</time>
      </trkpt>
      <trkpt lat="46.53427" lon="6.226">
        <ele>1364.73</ele>
        <time>2013-07-13T15:00:23Z</time>
      </trkpt>
      <trkpt lat="46.5343" lon="6.22602">
        <ele>1363.29</ele>
        <time>2013-07-13T15:00:27Z</time>
      </trkpt>
      <trkpt lat="46.53432" lon="6.22603">
        <ele>1365.69</ele>
        <time>2013-07-13T15:00:29Z</time>
      </trkpt>
      <trkpt lat="46.53433" lon="6.22603">
        <ele>1364.25</ele>
        <time>2013-07-13T15:00:30Z</time>
      </trkpt>
      <trkpt lat="46.53437" lon="6.22604">
        <ele>1366.17</ele>
        <time>2013-07-13T15:00:33Z</time>
      </trkpt>
      <trkpt lat="46.53445" lon="6.2262">
        <ele>1367.13</ele>
        <time>2013-07-13T15:00:45Z</time>
      </trkpt>
      <trkpt lat="46.53448" lon="6.22627">
        <ele>1367.61</ele>
        <time>2013-07-13T15:00:49Z</time>
      </trkpt>
      <trkpt lat="46.5345" lon="6.22632">
        <ele>1367.13</ele>
        <time>2013-07-13T15:00:52Z</time>
      </trkpt>
      <trkpt lat="46.53458" lon="6.22649">
        <ele>1369.05</ele>
        <time>2013-07-13T15:01:05Z</time>
      </trkpt>
      <trkpt lat="46.53466" lon="6.22658">
        <ele>1369.05</ele>
        <time>2013-07-13T15:01:14Z</time>
      </trkpt>
      <trkpt lat="46.53468" lon="6.2266">
        <ele>1369.54</ele>
        <time>2013-07-13T15:01:17Z</time>
      </trkpt>
      <trkpt lat="46.5347" lon="6.22663">
        <ele>1369.54</ele>
        <time>2013-07-13T15:01:20Z</time>
      </trkpt>
      <trkpt lat="46.5348" lon="6.2267">
        <ele>1370.98</ele>
        <time>2013-07-13T15:01:32Z</time>
      </trkpt>
      <trkpt lat="46.53484" lon="6.22675">
        <ele>1371.46</ele>
        <time>2013-07-13T15:01:36Z</time>
      </trkpt>
      <trkpt lat="46.53485" lon="6.22677">
        <ele>1370.5</ele>
        <time>2013-07-13T15:01:37Z</time>
      </trkpt>
      <trkpt lat="46.53495" lon="6.22689">
        <ele>1371.94</ele>
        <time>2013-07-13T15:01:49Z</time>
      </trkpt>
      <trkpt lat="46.53496" lon="6.22693">
        <ele>1372.9</ele>
        <time>2013-07-13T15:01:52Z</time>
      </trkpt>
      <trkpt lat="46.53498" lon="6.227">
        <ele>1372.9</ele>
        <time>2013-07-13T15:01:59Z</time>
      </trkpt>
      <trkpt lat="46.53504" lon="6.22708">
        <ele>1372.9</ele>
        <time>2013-07-13T15:02:15Z</time>
      </trkpt>
      <trkpt lat="46.53502" lon="6.22709">
        <ele>1374.34</ele>
        <time>2013-07-13T15:02:17Z</time>
      </trkpt>
      <trkpt lat="46.53505" lon="6.22716">
        <ele>1373.86</ele>
        <time>2013-07-13T15:02:31Z</time>
      </trkpt>
      <trkpt lat="46.53506" lon="6.22715">
        <ele>1374.82</ele>
        <time>2013-07-13T15:02:33Z</time>
      </trkpt>
      <trkpt lat="46.53506" lon="6.22716">
        <ele>1374.82</ele>
        <time>2013-07-13T15:02:48Z</time>
      </trkpt>
      <trkpt lat="46.53509" lon="6.22721">
        <ele>1374.34</ele>
        <time>2013-07-13T15:03:02Z</time>
      </trkpt>
      <trkpt lat="46.5351" lon="6.22722">
        <ele>1372.9</ele>
        <time>2013-07-13T15:03:10Z</time>
      </trkpt>
      <trkpt lat="46.53511" lon="6.22722">
        <ele>1374.82</ele>
        <time>2013-07-13T15:03:11Z</time>
      </trkpt>
      <trkpt lat="46.53514" lon="6.22725">
        <ele>1374.34</ele>
        <time>2013-07-13T15:03:15Z</time>
      </trkpt>
      <trkpt lat="46.53518" lon="6.22724">
        <ele>1375.78</ele>
        <time>2013-07-13T15:03:19Z</time>
      </trkpt>
      <trkpt lat="46.53535" lon="6.22725">
        <ele>1376.75</ele>
        <time>2013-07-13T15:03:33Z</time>
      </trkpt>
      <trkpt lat="46.53541" lon="6.22739">
        <ele>1377.23</ele>
        <time>2013-07-13T15:03:43Z</time>
      </trkpt>
      <trkpt lat="46.53542" lon="6.22742">
        <ele>1379.15</ele>
        <time>2013-07-13T15:03:45Z</time>
      </trkpt>
      <trkpt lat="46.53547" lon="6.22756">
        <ele>1381.55</ele>
        <time>2013-07-13T15:03:58Z</time>
      </trkpt>
      <trkpt lat="46.53554" lon="6.22763">
        <ele>1383.47</ele>
        <time>2013-07-13T15:04:08Z</time>
      </trkpt>
      <trkpt lat="46.53559" lon="6.22767">
        <ele>1384.44</ele>
        <time>2013-07-13T15:04:11Z</time>
      </trkpt>
      <trkpt lat="46.53564" lon="6.2277">
        <ele>1383.96</ele>
        <time>2013-07-13T15:04:26Z</time>
      </trkpt>
      <trkpt lat="46.53564" lon="6.2277">
        <ele>1383.96</ele>
        <time>2013-07-13T15:04:27Z</time>
      </trkpt>
      <trkpt lat="46.53566" lon="6.22769">
        <ele>1388.76</ele>
        <time>2013-07-13T15:04:43Z</time>
      </trkpt>
      <trkpt lat="46.53567" lon="6.2277">
        <ele>1383.96</ele>
        <time>2013-07-13T15:04:44Z</time>
      </trkpt>
      <trkpt lat="46.5357" lon="6.22775">
        <ele>1384.92</ele>
        <time>2013-07-13T15:04:50Z</time>
      </trkpt>
      <trkpt lat="46.5358" lon="6.22792">
        <ele>1384.44</ele>
        <time>2013-07-13T15:05:05Z</time>
      </trkpt>
      <trkpt lat="46.53586" lon="6.22807">
        <ele>1386.84</ele>
        <time>2013-07-13T15:05:17Z</time>
      </trkpt>
      <trkpt lat="46.53594" lon="6.22819">
        <ele>1385.88</ele>
        <time>2013-07-13T15:05:27Z</time>
      </trkpt>
      <trkpt lat="46.53595" lon="6.2282">
        <ele>1387.32</ele>
        <time>2013-07-13T15:05:28Z</time>
      </trkpt>
      <trkpt lat="46.53607" lon="6.22829">
        <ele>1388.76</ele>
        <time>2013-07-13T15:05:42Z</time>
      </trkpt>
      <trkpt lat="46.53612" lon="6.22834">
        <ele>1389.72</ele>
        <time>2013-07-13T15:05:46Z</time>
      </trkpt>
      <trkpt lat="46.53614" lon="6.22837">
        <ele>1387.8</ele>
        <time>2013-07-13T15:05:48Z</time>
      </trkpt>
      <trkpt lat="46.53615" lon="6.22838">
        <ele>1389.24</ele>
        <time>2013-07-13T15:05:50Z</time>
      </trkpt>
      <trkpt lat="46.53616" lon="6.2285">
        <ele>1388.76</ele>
        <time>2013-07-13T15:05:58Z</time>
      </trkpt>
      <trkpt lat="46.53635" lon="6.22858">
        <ele>1388.28</ele>
        <time>2013-07-13T15:06:14Z</time>
      </trkpt>
      <trkpt lat="46.53638" lon="6.2286">
        <ele>1387.8</ele>
        <time>2013-07-13T15:06:19Z</time>
      </trkpt>
      <trkpt lat="46.53649" lon="6.22881">
        <ele>1387.32</ele>
        <time>2013-07-13T15:06:37Z</time>
      </trkpt>
      <trkpt lat="46.53653" lon="6.22886">
        <ele>1386.84</ele>
        <time>2013-07-13T15:06:43Z</time>
      </trkpt>
      <trkpt lat="46.53665" lon="6.22899">
        <ele>1386.36</ele>
        <time>2013-07-13T15:06:57Z</time>
      </trkpt>
      <trkpt lat="46.53672" lon="6.229">
        <ele>1386.36</ele>
        <time>2013-07-13T15:07:03Z</time>
      </trkpt>
      <trkpt lat="46.53683" lon="6.22908">
        <ele>1385.88</ele>
        <time>2013-07-13T15:07:14Z</time>
      </trkpt>
      <trkpt lat="46.53686" lon="6.22908">
        <ele>1385.88</ele>
        <time>2013-07-13T15:07:16Z</time>
      </trkpt>
      <trkpt lat="46.53696" lon="6.22917">
        <ele>1384.92</ele>
        <time>2013-07-13T15:07:29Z</time>
      </trkpt>
      <trkpt lat="46.53697" lon="6.22918">
        <ele>1384.92</ele>
        <time>2013-07-13T15:07:30Z</time>
      </trkpt>
      <trkpt lat="46.53699" lon="6.22922">
        <ele>1384.44</ele>
        <time>2013-07-13T15:07:33Z</time>
      </trkpt>
      <trkpt lat="46.53711" lon="6.22939">
        <ele>1382.99</ele>
        <time>2013-07-13T15:07:47Z</time>
      </trkpt>
      <trkpt lat="46.53723" lon="6.22946">
        <ele>1382.51</ele>
        <time>2013-07-13T15:07:59Z</time>
      </trkpt>
      <trkpt lat="46.53733" lon="6.22952">
        <ele>1381.07</ele>
        <time>2013-07-13T15:08:13Z</time>
      </trkpt>
      <trkpt lat="46.53746" lon="6.22958">
        <ele>1379.63</ele>
        <time>2013-07-13T15:08:26Z</time>
      </trkpt>
      <trkpt lat="46.5376" lon="6.2297">
        <ele>1379.15</ele>
        <time>2013-07-13T15:08:38Z</time>
      </trkpt>
      <trkpt lat="46.5377" lon="6.22979">
        <ele>1379.15</ele>
        <time>2013-07-13T15:08:51Z</time>
      </trkpt>
      <trkpt lat="46.53783" lon="6.22989">
        <ele>1378.67</ele>
        <time>2013-07-13T15:09:06Z</time>
      </trkpt>
      <trkpt lat="46.53802" lon="6.23004">
        <ele>1378.67</ele>
        <time>2013-07-13T15:09:24Z</time>
      </trkpt>
      <trkpt lat="46.53813" lon="6.23013">
        <ele>1379.15</ele>
        <time>2013-07-13T15:09:38Z</time>
      </trkpt>
      <trkpt lat="46.53816" lon="6.23017">
        <ele>1379.15</ele>
        <time>2013-07-13T15:09:42Z</time>
      </trkpt>
      <trkpt lat="46.53825" lon="6.23032">
        <ele>1379.15</ele>
        <time>2013-07-13T15:09:54Z</time>
      </trkpt>
      <trkpt lat="46.5383" lon="6.23039">
        <ele>1380.59</ele>
        <time>2013-07-13T15:10:08Z</time>
      </trkpt>
      <trkpt lat="46.53832" lon="6.23037">
        <ele>1380.59</ele>
        <time>2013-07-13T15:10:30Z</time>
      </trkpt>
      <trkpt lat="46.53834" lon="6.2304">
        <ele>1380.59</ele>
        <time>2013-07-13T15:10:35Z</time>
      </trkpt>
      <trkpt lat="46.53846" lon="6.23053">
        <ele>1381.55</ele>
        <time>2013-07-13T15:10:50Z</time>
      </trkpt>
      <trkpt lat="46.53847" lon="6.23055">
        <ele>1381.55</ele>
        <time>2013-07-13T15:10:52Z</time>
      </trkpt>
      <trkpt lat="46.53857" lon="6.2307">
        <ele>1382.03</ele>
        <time>2013-07-13T15:11:04Z</time>
      </trkpt>
      <trkpt lat="46.53862" lon="6.23077">
        <ele>1382.51</ele>
        <time>2013-07-13T15:11:10Z</time>
      </trkpt>
      <trkpt lat="46.53872" lon="6.23082">
        <ele>1382.51</ele>
        <time>2013-07-13T15:11:19Z</time>
      </trkpt>
      <trkpt lat="46.5388" lon="6.23093">
        <ele>1382.03</ele>
        <time>2013-07-13T15:11:30Z</time>
      </trkpt>
      <trkpt lat="46.53883" lon="6.23097">
        <ele>1382.51</ele>
        <time>2013-07-13T15:11:34Z</time>
      </trkpt>
      <trkpt lat="46.53891" lon="6.23104">
        <ele>1382.03</ele>
        <time>2013-07-13T15:11:43Z</time>
      </trkpt>
      <trkpt lat="46.53906" lon="6.23115">
        <ele>1382.03</ele>
        <time>2013-07-13T15:11:57Z</time>
      </trkpt>
      <trkpt lat="46.5392" lon="6.23125">
        <ele>1381.55</ele>
        <time>2013-07-13T15:12:09Z</time>
      </trkpt>
      <trkpt lat="46.53922" lon="6.23129">
        <ele>1382.03</ele>
        <time>2013-07-13T15:12:12Z</time>
      </trkpt>
      <trkpt lat="46.53929" lon="6.23145">
        <ele>1382.03</ele>
        <time>2013-07-13T15:12:25Z</time>
      </trkpt>
      <trkpt lat="46.53932" lon="6.2315">
        <ele>1381.55</ele>
        <time>2013-07-13T15:12:30Z</time>
      </trkpt>
      <trkpt lat="46.53934" lon="6.23154">
        <ele>1381.55</ele>
        <time>2013-07-13T15:12:33Z</time>
      </trkpt>
      <trkpt lat="46.5395" lon="6.23163">
        <ele>1381.55</ele>
        <time>2013-07-13T15:12:48Z</time>
      </trkpt>
      <trkpt lat="46.53956" lon="6.23169">
        <ele>1381.07</ele>
        <time>2013-07-13T15:12:57Z</time>
      </trkpt>
      <trkpt lat="46.53961" lon="6.23172">
        <ele>1381.07</ele>
        <time>2013-07-13T15:13:03Z</time>
      </trkpt>
      <trkpt lat="46.53964" lon="6.23175">
        <ele>1381.55</ele>
        <time>2013-07-13T15:13:07Z</time>
      </trkpt>
      <trkpt lat="46.53979" lon="6.23184">
        <ele>1381.07</ele>
        <time>2013-07-13T15:13:21Z</time>
      </trkpt>
      <trkpt lat="46.53984" lon="6.23189">
        <ele>1380.59</ele>
        <time>2013-07-13T15:13:27Z</time>
      </trkpt>
      <trkpt lat="46.54003" lon="6.232">
        <ele>1380.11</ele>
        <time>2013-07-13T15:13:43Z</time>
      </trkpt>
      <trkpt lat="46.54012" lon="6.23203">
        <ele>1380.11</ele>
        <time>2013-07-13T15:13:55Z</time>
      </trkpt>
      <trkpt lat="46.54013" lon="6.23204">
        <ele>1380.59</ele>
        <time>2013-07-13T15:13:56Z</time>
      </trkpt>
      <trkpt lat="46.54017" lon="6.23208">
        <ele>1379.63</ele>
        <time>2013-07-13T15:14:01Z</time>
      </trkpt>
      <trkpt lat="46.54024" lon="6.23217">
        <ele>1380.11</ele>
        <time>2013-07-13T15:14:09Z</time>
      </trkpt>
      <trkpt lat="46.54031" lon="6.23236">
        <ele>1380.59</ele>
        <time>2013-07-13T15:14:22Z</time>
      </trkpt>
      <trkpt lat="46.54035" lon="6.23245">
        <ele>1381.07</ele>
        <time>2013-07-13T15:14:29Z</time>
      </trkpt>
      <trkpt lat="46.54042" lon="6.23268">
        <ele>1380.59</ele>
        <time>2013-07-13T15:14:44Z</time>
      </trkpt>
      <trkpt lat="46.54043" lon="6.23269">
        <ele>1381.07</ele>
        <time>2013-07-13T15:14:45Z</time>
      </trkpt>
      <trkpt lat="46.54053" lon="6.23287">
        <ele>1380.11</ele>
        <time>2013-07-13T15:14:58Z</time>
      </trkpt>
      <trkpt lat="46.54064" lon="6.23301">
        <ele>1379.63</ele>
        <time>2013-07-13T15:15:12Z</time>
      </trkpt>
      <trkpt lat="46.54066" lon="6.23304">
        <ele>1379.63</ele>
        <time>2013-07-13T15:15:15Z</time>
      </trkpt>
      <trkpt lat="46.54069" lon="6.23304">
        <ele>1379.15</ele>
        <time>2013-07-13T15:15:17Z</time>
      </trkpt>
      <trkpt lat="46.54074" lon="6.23307">
        <ele>1378.67</ele>
        <time>2013-07-13T15:15:22Z</time>
      </trkpt>
      <trkpt lat="46.54081" lon="6.23313">
        <ele>1379.15</ele>
        <time>2013-07-13T15:15:30Z</time>
      </trkpt>
      <trkpt lat="46.54085" lon="6.23318">
        <ele>1379.15</ele>
        <time>2013-07-13T15:15:34Z</time>
      </trkpt>
      <trkpt lat="46.54092" lon="6.23325">
        <ele>1381.07</ele>
        <time>2013-07-13T15:15:43Z</time>
      </trkpt>
      <trkpt lat="46.54101" lon="6.23334">
        <ele>1382.51</ele>
        <time>2013-07-13T15:15:56Z</time>
      </trkpt>
      <trkpt lat="46.54104" lon="6.23335">
        <ele>1382.99</ele>
        <time>2013-07-13T15:15:59Z</time>
      </trkpt>
      <trkpt lat="46.54107" lon="6.23337">
        <ele>1383.96</ele>
        <time>2013-07-13T15:16:02Z</time>
      </trkpt>
      <trkpt lat="46.54115" lon="6.23342">
        <ele>1384.92</ele>
        <time>2013-07-13T15:16:10Z</time>
      </trkpt>
      <trkpt lat="46.54128" lon="6.2335">
        <ele>1386.36</ele>
        <time>2013-07-13T15:16:25Z</time>
      </trkpt>
      <trkpt lat="46.54131" lon="6.23353">
        <ele>1385.88</ele>
        <time>2013-07-13T15:16:29Z</time>
      </trkpt>
      <trkpt lat="46.54134" lon="6.23354">
        <ele>1384.44</ele>
        <time>2013-07-13T15:16:30Z</time>
      </trkpt>
      <trkpt lat="46.54137" lon="6.23353">
        <ele>1386.84</ele>
        <time>2013-07-13T15:16:32Z</time>
      </trkpt>
      <trkpt lat="46.54146" lon="6.23353">
        <ele>1386.84</ele>
        <time>2013-07-13T15:16:40Z</time>
      </trkpt>
      <trkpt lat="46.54163" lon="6.23365">
        <ele>1387.32</ele>
        <time>2013-07-13T15:16:56Z</time>
      </trkpt>
      <trkpt lat="46.54178" lon="6.23376">
        <ele>1387.32</ele>
        <time>2013-07-13T15:17:11Z</time>
      </trkpt>
      <trkpt lat="46.54188" lon="6.23384">
        <ele>1386.36</ele>
        <time>2013-07-13T15:17:27Z</time>
      </trkpt>
      <trkpt lat="46.54193" lon="6.23389">
        <ele>1385.4</ele>
        <time>2013-07-13T15:17:46Z</time>
      </trkpt>
      <trkpt lat="46.54196" lon="6.23394">
        <ele>1382.03</ele>
        <time>2013-07-13T15:18:00Z</time>
      </trkpt>
      <trkpt lat="46.54198" lon="6.23404">
        <ele>1380.59</ele>
        <time>2013-07-13T15:18:08Z</time>
      </trkpt>
      <trkpt lat="46.54198" lon="6.23415">
        <ele>1379.15</ele>
        <time>2013-07-13T15:18:14Z</time>
      </trkpt>
      <trkpt lat="46.54197" lon="6.23423">
        <ele>1378.19</ele>
        <time>2013-07-13T15:18:17Z</time>
      </trkpt>
      <trkpt lat="46.54205" lon="6.23431">
        <ele>1377.23</ele>
        <time>2013-07-13T15:18:25Z</time>
      </trkpt>
      <trkpt lat="46.54218" lon="6.2345">
        <ele>1376.75</ele>
        <time>2013-07-13T15:18:39Z</time>
      </trkpt>
      <trkpt lat="46.54234" lon="6.23455">
        <ele>1377.23</ele>
        <time>2013-07-13T15:18:56Z</time>
      </trkpt>
      <trkpt lat="46.54236" lon="6.23455">
        <ele>1377.23</ele>
        <time>2013-07-13T15:18:57Z</time>
      </trkpt>
      <trkpt lat="46.54243" lon="6.23453">
        <ele>1378.67</ele>
        <time>2013-07-13T15:18:59Z</time>
      </trkpt>
      <trkpt lat="46.54248" lon="6.23453">
        <ele>1379.63</ele>
        <time>2013-07-13T15:19:02Z</time>
      </trkpt>
      <trkpt lat="46.54257" lon="6.23456">
        <ele>1380.59</ele>
        <time>2013-07-13T15:19:09Z</time>
      </trkpt>
      <trkpt lat="46.54257" lon="6.23457">
        <ele>1380.59</ele>
        <time>2013-07-13T15:19:10Z</time>
      </trkpt>
      <trkpt lat="46.54263" lon="6.23459">
        <ele>1382.99</ele>
        <time>2013-07-13T15:19:15Z</time>
      </trkpt>
      <trkpt lat="46.54266" lon="6.23462">
        <ele>1383.47</ele>
        <time>2013-07-13T15:19:19Z</time>
      </trkpt>
      <trkpt lat="46.54269" lon="6.23465">
        <ele>1383.96</ele>
        <time>2013-07-13T15:19:22Z</time>
      </trkpt>
      <trkpt lat="46.54274" lon="6.2347">
        <ele>1385.4</ele>
        <time>2013-07-13T15:19:29Z</time>
      </trkpt>
      <trkpt lat="46.54279" lon="6.23468">
        <ele>1385.88</ele>
        <time>2013-07-13T15:19:44Z</time>
      </trkpt>
      <trkpt lat="46.5428" lon="6.2348">
        <ele>1386.84</ele>
        <time>2013-07-13T15:19:59Z</time>
      </trkpt>
      <trkpt lat="46.54281" lon="6.23481">
        <ele>1386.36</ele>
        <time>2013-07-13T15:20:01Z</time>
      </trkpt>
      <trkpt lat="46.54291" lon="6.23491">
        <ele>1386.84</ele>
        <time>2013-07-13T15:20:13Z</time>
      </trkpt>
      <trkpt lat="46.54305" lon="6.235">
        <ele>1388.28</ele>
        <time>2013-07-13T15:20:25Z</time>
      </trkpt>
      <trkpt lat="46.54309" lon="6.23503">
        <ele>1388.28</ele>
        <time>2013-07-13T15:20:29Z</time>
      </trkpt>
      <trkpt lat="46.54322" lon="6.23511">
        <ele>1388.28</ele>
        <time>2013-07-13T15:20:41Z</time>
      </trkpt>
      <trkpt lat="46.54323" lon="6.23513">
        <ele>1389.72</ele>
        <time>2013-07-13T15:20:43Z</time>
      </trkpt>
      <trkpt lat="46.54334" lon="6.23531">
        <ele>1391.65</ele>
        <time>2013-07-13T15:20:57Z</time>
      </trkpt>
      <trkpt lat="46.54335" lon="6.23532">
        <ele>1393.09</ele>
        <time>2013-07-13T15:20:59Z</time>
      </trkpt>
      <trkpt lat="46.54338" lon="6.23533">
        <ele>1392.13</ele>
        <time>2013-07-13T15:21:02Z</time>
      </trkpt>
      <trkpt lat="46.54342" lon="6.23538">
        <ele>1393.09</ele>
        <time>2013-07-13T15:21:07Z</time>
      </trkpt>
      <trkpt lat="46.54345" lon="6.23541">
        <ele>1394.53</ele>
        <time>2013-07-13T15:21:10Z</time>
      </trkpt>
      <trkpt lat="46.54356" lon="6.23548">
        <ele>1395.97</ele>
        <time>2013-07-13T15:21:24Z</time>
      </trkpt>
      <trkpt lat="46.54359" lon="6.23551">
        <ele>1397.41</ele>
        <time>2013-07-13T15:21:27Z</time>
      </trkpt>
      <trkpt lat="46.5437" lon="6.23564">
        <ele>1397.89</ele>
        <time>2013-07-13T15:21:39Z</time>
      </trkpt>
      <trkpt lat="46.54371" lon="6.23565">
        <ele>1396.93</ele>
        <time>2013-07-13T15:21:40Z</time>
      </trkpt>
      <trkpt lat="46.54373" lon="6.23566">
        <ele>1398.86</ele>
        <time>2013-07-13T15:21:42Z</time>
      </trkpt>
      <trkpt lat="46.54375" lon="6.2357">
        <ele>1397.41</ele>
        <time>2013-07-13T15:21:44Z</time>
      </trkpt>
      <trkpt lat="46.54381" lon="6.23578">
        <ele>1397.89</ele>
        <time>2013-07-13T15:21:52Z</time>
      </trkpt>
      <trkpt lat="46.54382" lon="6.23581">
        <ele>1399.82</ele>
        <time>2013-07-13T15:21:55Z</time>
      </trkpt>
      <trkpt lat="46.54388" lon="6.23597">
        <ele>1400.78</ele>
        <time>2013-07-13T15:22:05Z</time>
      </trkpt>
      <trkpt lat="46.5439" lon="6.23601">
        <ele>1399.82</ele>
        <time>2013-07-13T15:22:07Z</time>
      </trkpt>
      <trkpt lat="46.54399" lon="6.23612">
        <ele>1401.74</ele>
        <time>2013-07-13T15:22:18Z</time>
      </trkpt>
      <trkpt lat="46.54406" lon="6.23624">
        <ele>1402.7</ele>
        <time>2013-07-13T15:22:31Z</time>
      </trkpt>
      <trkpt lat="46.54411" lon="6.23632">
        <ele>1402.7</ele>
        <time>2013-07-13T15:22:45Z</time>
      </trkpt>
      <trkpt lat="46.54414" lon="6.23631">
        <ele>1402.7</ele>
        <time>2013-07-13T15:22:59Z</time>
      </trkpt>
      <trkpt lat="46.54416" lon="6.2363">
        <ele>1402.7</ele>
        <time>2013-07-13T15:23:18Z</time>
      </trkpt>
      <trkpt lat="46.54416" lon="6.23629">
        <ele>1402.7</ele>
        <time>2013-07-13T15:23:42Z</time>
      </trkpt>
      <trkpt lat="46.54417" lon="6.23628">
        <ele>1402.7</ele>
        <time>2013-07-13T15:24:14Z</time>
      </trkpt>
      <trkpt lat="46.54429" lon="6.23628">
        <ele>1403.66</ele>
        <time>2013-07-13T15:24:30Z</time>
      </trkpt>
      <trkpt lat="46.54428" lon="6.23636">
        <ele>1403.66</ele>
        <time>2013-07-13T15:24:46Z</time>
      </trkpt>
      <trkpt lat="46.54429" lon="6.23636">
        <ele>1403.18</ele>
        <time>2013-07-13T15:25:00Z</time>
      </trkpt>
      <trkpt lat="46.54433" lon="6.23635">
        <ele>1403.18</ele>
        <time>2013-07-13T15:25:05Z</time>
      </trkpt>
      <trkpt lat="46.54436" lon="6.23634">
        <ele>1404.14</ele>
        <time>2013-07-13T15:25:07Z</time>
      </trkpt>
      <trkpt lat="46.54439" lon="6.23636">
        <ele>1402.22</ele>
        <time>2013-07-13T15:25:10Z</time>
      </trkpt>
      <trkpt lat="46.54455" lon="6.23641">
        <ele>1403.66</ele>
        <time>2013-07-13T15:25:24Z</time>
      </trkpt>
      <trkpt lat="46.54463" lon="6.23652">
        <ele>1403.66</ele>
        <time>2013-07-13T15:25:35Z</time>
      </trkpt>
      <trkpt lat="46.54471" lon="6.23669">
        <ele>1404.62</ele>
        <time>2013-07-13T15:25:50Z</time>
      </trkpt>
      <trkpt lat="46.54472" lon="6.2367">
        <ele>1404.62</ele>
        <time>2013-07-13T15:25:52Z</time>
      </trkpt>
      <trkpt lat="46.54483" lon="6.23679">
        <ele>1404.62</ele>
        <time>2013-07-13T15:26:04Z</time>
      </trkpt>
      <trkpt lat="46.54497" lon="6.23686">
        <ele>1404.14</ele>
        <time>2013-07-13T15:26:17Z</time>
      </trkpt>
      <trkpt lat="46.54501" lon="6.23689">
        <ele>1404.62</ele>
        <time>2013-07-13T15:26:22Z</time>
      </trkpt>
      <trkpt lat="46.5451" lon="6.23707">
        <ele>1404.14</ele>
        <time>2013-07-13T15:26:36Z</time>
      </trkpt>
      <trkpt lat="46.54511" lon="6.23708">
        <ele>1403.66</ele>
        <time>2013-07-13T15:26:37Z</time>
      </trkpt>
      <trkpt lat="46.5452" lon="6.23713">
        <ele>1403.18</ele>
        <time>2013-07-13T15:26:52Z</time>
      </trkpt>
      <trkpt lat="46.54521" lon="6.23714">
        <ele>1405.1</ele>
        <time>2013-07-13T15:26:54Z</time>
      </trkpt>
      <trkpt lat="46.54522" lon="6.23717">
        <ele>1405.58</ele>
        <time>2013-07-13T15:26:59Z</time>
      </trkpt>
      <trkpt lat="46.54525" lon="6.23731">
        <ele>1402.22</ele>
        <time>2013-07-13T15:27:16Z</time>
      </trkpt>
      <trkpt lat="46.54525" lon="6.23732">
        <ele>1405.1</ele>
        <time>2013-07-13T15:27:17Z</time>
      </trkpt>
      <trkpt lat="46.5453" lon="6.23747">
        <ele>1403.66</ele>
        <time>2013-07-13T15:27:30Z</time>
      </trkpt>
      <trkpt lat="46.54535" lon="6.23751">
        <ele>1404.14</ele>
        <time>2013-07-13T15:27:35Z</time>
      </trkpt>
      <trkpt lat="46.54539" lon="6.23754">
        <ele>1404.14</ele>
        <time>2013-07-13T15:27:38Z</time>
      </trkpt>
      <trkpt lat="46.54543" lon="6.23754">
        <ele>1405.1</ele>
        <time>2013-07-13T15:27:41Z</time>
      </trkpt>
      <trkpt lat="46.54553" lon="6.23762">
        <ele>1405.1</ele>
        <time>2013-07-13T15:27:50Z</time>
      </trkpt>
      <trkpt lat="46.54564" lon="6.23769">
        <ele>1406.55</ele>
        <time>2013-07-13T15:28:01Z</time>
      </trkpt>
      <trkpt lat="46.54568" lon="6.23771">
        <ele>1407.51</ele>
        <time>2013-07-13T15:28:05Z</time>
      </trkpt>
      <trkpt lat="46.54576" lon="6.23777">
        <ele>1407.99</ele>
        <time>2013-07-13T15:28:13Z</time>
      </trkpt>
      <trkpt lat="46.5458" lon="6.23782">
        <ele>1407.99</ele>
        <time>2013-07-13T15:28:19Z</time>
      </trkpt>
      <trkpt lat="46.54585" lon="6.23789">
        <ele>1408.47</ele>
        <time>2013-07-13T15:28:26Z</time>
      </trkpt>
      <trkpt lat="46.54592" lon="6.23799">
        <ele>1409.91</ele>
        <time>2013-07-13T15:28:36Z</time>
      </trkpt>
      <trkpt lat="46.54598" lon="6.23816">
        <ele>1410.87</ele>
        <time>2013-07-13T15:28:47Z</time>
      </trkpt>
      <trkpt lat="46.54605" lon="6.23828">
        <ele>1413.28</ele>
        <time>2013-07-13T15:28:57Z</time>
      </trkpt>
      <trkpt lat="46.54609" lon="6.23839">
        <ele>1413.76</ele>
        <time>2013-07-13T15:29:04Z</time>
      </trkpt>
      <trkpt lat="46.54619" lon="6.23857">
        <ele>1415.68</ele>
        <time>2013-07-13T15:29:16Z</time>
      </trkpt>
      <trkpt lat="46.54621" lon="6.23863">
        <ele>1416.16</ele>
        <time>2013-07-13T15:29:20Z</time>
      </trkpt>
      <trkpt lat="46.54624" lon="6.23868">
        <ele>1416.16</ele>
        <time>2013-07-13T15:29:24Z</time>
      </trkpt>
      <trkpt lat="46.54629" lon="6.23872">
        <ele>1416.64</ele>
        <time>2013-07-13T15:29:29Z</time>
      </trkpt>
      <trkpt lat="46.54633" lon="6.23879">
        <ele>1417.12</ele>
        <time>2013-07-13T15:29:34Z</time>
      </trkpt>
      <trkpt lat="46.54647" lon="6.23892">
        <ele>1416.64</ele>
        <time>2013-07-13T15:29:47Z</time>
      </trkpt>
      <trkpt lat="46.54657" lon="6.23899">
        <ele>1417.12</ele>
        <time>2013-07-13T15:29:56Z</time>
      </trkpt>
      <trkpt lat="46.54662" lon="6.239">
        <ele>1417.12</ele>
        <time>2013-07-13T15:30:00Z</time>
      </trkpt>
      <trkpt lat="46.54673" lon="6.23909">
        <ele>1417.12</ele>
        <time>2013-07-13T15:30:11Z</time>
      </trkpt>
      <trkpt lat="46.54675" lon="6.23913">
        <ele>1417.12</ele>
        <time>2013-07-13T15:30:14Z</time>
      </trkpt>
      <trkpt lat="46.54686" lon="6.23917">
        <ele>1416.16</ele>
        <time>2013-07-13T15:30:26Z</time>
      </trkpt>
      <trkpt lat="46.54689" lon="6.2392">
        <ele>1415.2</ele>
        <time>2013-07-13T15:30:33Z</time>
      </trkpt>
      <trkpt lat="46.54694" lon="6.23926">
        <ele>1414.24</ele>
        <time>2013-07-13T15:30:41Z</time>
      </trkpt>
      <trkpt lat="46.54699" lon="6.23936">
        <ele>1412.31</ele>
        <time>2013-07-13T15:30:48Z</time>
      </trkpt>
      <trkpt lat="46.54705" lon="6.23943">
        <ele>1410.87</ele>
        <time>2013-07-13T15:30:55Z</time>
      </trkpt>
      <trkpt lat="46.54713" lon="6.23951">
        <ele>1409.43</ele>
        <time>2013-07-13T15:31:04Z</time>
      </trkpt>
      <trkpt lat="46.54719" lon="6.2395">
        <ele>1408.47</ele>
        <time>2013-07-13T15:31:08Z</time>
      </trkpt>
      <trkpt lat="46.54736" lon="6.23935">
        <ele>1405.58</ele>
        <time>2013-07-13T15:31:20Z</time>
      </trkpt>
      <trkpt lat="46.54749" lon="6.23932">
        <ele>1402.7</ele>
        <time>2013-07-13T15:31:32Z</time>
      </trkpt>
      <trkpt lat="46.5476" lon="6.2394">
        <ele>1399.82</ele>
        <time>2013-07-13T15:31:44Z</time>
      </trkpt>
      <trkpt lat="46.54766" lon="6.23964">
        <ele>1397.89</ele>
        <time>2013-07-13T15:31:55Z</time>
      </trkpt>
      <trkpt lat="46.54771" lon="6.23977">
        <ele>1398.37</ele>
        <time>2013-07-13T15:32:02Z</time>
      </trkpt>
      <trkpt lat="46.54778" lon="6.23984">
        <ele>1397.41</ele>
        <time>2013-07-13T15:32:10Z</time>
      </trkpt>
      <trkpt lat="46.5478" lon="6.23988">
        <ele>1397.41</ele>
        <time>2013-07-13T15:32:14Z</time>
      </trkpt>
      <trkpt lat="46.54781" lon="6.23999">
        <ele>1395.97</ele>
        <time>2013-07-13T15:32:26Z</time>
      </trkpt>
      <trkpt lat="46.54777" lon="6.24007">
        <ele>1395.97</ele>
        <time>2013-07-13T15:32:43Z</time>
      </trkpt>
      <trkpt lat="46.54777" lon="6.24005">
        <ele>1396.45</ele>
        <time>2013-07-13T15:33:00Z</time>
      </trkpt>
      <trkpt lat="46.54776" lon="6.24009">
        <ele>1395.97</ele>
        <time>2013-07-13T15:33:17Z</time>
      </trkpt>
      <trkpt lat="46.54773" lon="6.24021">
        <ele>1396.93</ele>
        <time>2013-07-13T15:33:31Z</time>
      </trkpt>
      <trkpt lat="46.54775" lon="6.2403">
        <ele>1396.93</ele>
        <time>2013-07-13T15:33:43Z</time>
      </trkpt>
      <trkpt lat="46.54777" lon="6.24034">
        <ele>1395.97</ele>
        <time>2013-07-13T15:33:47Z</time>
      </trkpt>
      <trkpt lat="46.54779" lon="6.24041">
        <ele>1396.93</ele>
        <time>2013-07-13T15:33:54Z</time>
      </trkpt>
      <trkpt lat="46.54783" lon="6.24047">
        <ele>1396.93</ele>
        <time>2013-07-13T15:34:00Z</time>
      </trkpt>
      <trkpt lat="46.54785" lon="6.24046">
        <ele>1398.37</ele>
        <time>2013-07-13T15:34:02Z</time>
      </trkpt>
      <trkpt lat="46.54789" lon="6.24047">
        <ele>1397.41</ele>
        <time>2013-07-13T15:34:06Z</time>
      </trkpt>
      <trkpt lat="46.54792" lon="6.24052">
        <ele>1397.41</ele>
        <time>2013-07-13T15:34:10Z</time>
      </trkpt>
      <trkpt lat="46.54795" lon="6.24057">
        <ele>1397.89</ele>
        <time>2013-07-13T15:34:14Z</time>
      </trkpt>
      <trkpt lat="46.548" lon="6.24059">
        <ele>1397.89</ele>
        <time>2013-07-13T15:34:19Z</time>
      </trkpt>
      <trkpt lat="46.54801" lon="6.2406">
        <ele>1398.37</ele>
        <time>2013-07-13T15:34:21Z</time>
      </trkpt>
      <trkpt lat="46.54807" lon="6.24067">
        <ele>1399.82</ele>
        <time>2013-07-13T15:34:28Z</time>
      </trkpt>
      <trkpt lat="46.54808" lon="6.24074">
        <ele>1400.78</ele>
        <time>2013-07-13T15:34:33Z</time>
      </trkpt>
      <trkpt lat="46.54815" lon="6.24089">
        <ele>1402.22</ele>
        <time>2013-07-13T15:34:46Z</time>
      </trkpt>
      <trkpt lat="46.54818" lon="6.24101">
        <ele>1402.7</ele>
        <time>2013-07-13T15:34:53Z</time>
      </trkpt>
      <trkpt lat="46.5482" lon="6.24104">
        <ele>1401.26</ele>
        <time>2013-07-13T15:34:56Z</time>
      </trkpt>
      <trkpt lat="46.54822" lon="6.24106">
        <ele>1401.26</ele>
        <time>2013-07-13T15:34:59Z</time>
      </trkpt>
      <trkpt lat="46.54832" lon="6.24112">
        <ele>1404.62</ele>
        <time>2013-07-13T15:35:08Z</time>
      </trkpt>
      <trkpt lat="46.54834" lon="6.24117">
        <ele>1404.62</ele>
        <time>2013-07-13T15:35:12Z</time>
      </trkpt>
      <trkpt lat="46.54835" lon="6.24129">
        <ele>1403.18</ele>
        <time>2013-07-13T15:35:17Z</time>
      </trkpt>
      <trkpt lat="46.54837" lon="6.24131">
        <ele>1403.66</ele>
        <time>2013-07-13T15:35:20Z</time>
      </trkpt>
      <trkpt lat="46.54846" lon="6.24135">
        <ele>1404.14</ele>
        <time>2013-07-13T15:35:27Z</time>
      </trkpt>
      <trkpt lat="46.54855" lon="6.24143">
        <ele>1403.66</ele>
        <time>2013-07-13T15:35:36Z</time>
      </trkpt>
      <trkpt lat="46.54855" lon="6.24144">
        <ele>1405.58</ele>
        <time>2013-07-13T15:35:37Z</time>
      </trkpt>
      <trkpt lat="46.54856" lon="6.24145">
        <ele>1404.14</ele>
        <time>2013-07-13T15:35:38Z</time>
      </trkpt>
      <trkpt lat="46.54858" lon="6.24149">
        <ele>1405.58</ele>
        <time>2013-07-13T15:35:41Z</time>
      </trkpt>
      <trkpt lat="46.54861" lon="6.24159">
        <ele>1404.14</ele>
        <time>2013-07-13T15:35:47Z</time>
      </trkpt>
      <trkpt lat="46.54865" lon="6.2416">
        <ele>1403.66</ele>
        <time>2013-07-13T15:35:50Z</time>
      </trkpt>
      <trkpt lat="46.54866" lon="6.24162">
        <ele>1405.58</ele>
        <time>2013-07-13T15:35:52Z</time>
      </trkpt>
      <trkpt lat="46.5487" lon="6.24171">
        <ele>1404.14</ele>
        <time>2013-07-13T15:35:58Z</time>
      </trkpt>
      <trkpt lat="46.54876" lon="6.24187">
        <ele>1405.58</ele>
        <time>2013-07-13T15:36:07Z</time>
      </trkpt>
      <trkpt lat="46.54884" lon="6.24199">
        <ele>1406.07</ele>
        <time>2013-07-13T15:36:19Z</time>
      </trkpt>
      <trkpt lat="46.54885" lon="6.242">
        <ele>1406.07</ele>
        <time>2013-07-13T15:36:20Z</time>
      </trkpt>
      <trkpt lat="46.5489" lon="6.24204">
        <ele>1406.55</ele>
        <time>2013-07-13T15:36:25Z</time>
      </trkpt>
      <trkpt lat="46.54892" lon="6.24206">
        <ele>1406.55</ele>
        <time>2013-07-13T15:36:27Z</time>
      </trkpt>
      <trkpt lat="46.54894" lon="6.2421">
        <ele>1407.51</ele>
        <time>2013-07-13T15:36:30Z</time>
      </trkpt>
      <trkpt lat="46.54897" lon="6.24214">
        <ele>1406.55</ele>
        <time>2013-07-13T15:36:34Z</time>
      </trkpt>
      <trkpt lat="46.54902" lon="6.24227">
        <ele>1407.03</ele>
        <time>2013-07-13T15:36:43Z</time>
      </trkpt>
      <trkpt lat="46.54909" lon="6.24239">
        <ele>1407.03</ele>
        <time>2013-07-13T15:36:54Z</time>
      </trkpt>
      <trkpt lat="46.54911" lon="6.24243">
        <ele>1407.51</ele>
        <time>2013-07-13T15:36:57Z</time>
      </trkpt>
      <trkpt lat="46.54913" lon="6.24246">
        <ele>1409.43</ele>
        <time>2013-07-13T15:36:59Z</time>
      </trkpt>
      <trkpt lat="46.54918" lon="6.24259">
        <ele>1408.47</ele>
        <time>2013-07-13T15:37:08Z</time>
      </trkpt>
      <trkpt lat="46.54919" lon="6.24261">
        <ele>1409.91</ele>
        <time>2013-07-13T15:37:10Z</time>
      </trkpt>
      <trkpt lat="46.54926" lon="6.24275">
        <ele>1410.39</ele>
        <time>2013-07-13T15:37:22Z</time>
      </trkpt>
      <trkpt lat="46.54929" lon="6.24279">
        <ele>1411.35</ele>
        <time>2013-07-13T15:37:26Z</time>
      </trkpt>
      <trkpt lat="46.5493" lon="6.24283">
        <ele>1410.39</ele>
        <time>2013-07-13T15:37:29Z</time>
      </trkpt>
      <trkpt lat="46.54932" lon="6.24287">
        <ele>1411.83</ele>
        <time>2013-07-13T15:37:31Z</time>
      </trkpt>
      <trkpt lat="46.54938" lon="6.24303">
        <ele>1413.76</ele>
        <time>2013-07-13T15:37:42Z</time>
      </trkpt>
      <trkpt lat="46.5494" lon="6.2431">
        <ele>1412.79</ele>
        <time>2013-07-13T15:37:46Z</time>
      </trkpt>
      <trkpt lat="46.54946" lon="6.24324">
        <ele>1411.83</ele>
        <time>2013-07-13T15:37:59Z</time>
      </trkpt>
      <trkpt lat="46.54952" lon="6.24325">
        <ele>1412.79</ele>
        <time>2013-07-13T15:38:12Z</time>
      </trkpt>
      <trkpt lat="46.54953" lon="6.24325">
        <ele>1411.35</ele>
        <time>2013-07-13T15:38:13Z</time>
      </trkpt>
      <trkpt lat="46.54965" lon="6.24331">
        <ele>1411.35</ele>
        <time>2013-07-13T15:38:28Z</time>
      </trkpt>
      <trkpt lat="46.54974" lon="6.2434">
        <ele>1410.87</ele>
        <time>2013-07-13T15:38:46Z</time>
      </trkpt>
      <trkpt lat="46.54977" lon="6.2435">
        <ele>1410.87</ele>
        <time>2013-07-13T15:39:01Z</time>
      </trkpt>
      <trkpt lat="46.54989" lon="6.24362">
        <ele>1410.87</ele>
        <time>2013-07-13T15:39:17Z</time>
      </trkpt>
      <trkpt lat="46.54989" lon="6.24363">
        <ele>1410.87</ele>
        <time>2013-07-13T15:39:18Z</time>
      </trkpt>
      <trkpt lat="46.54999" lon="6.24373">
        <ele>1410.39</ele>
        <time>2013-07-13T15:39:27Z</time>
      </trkpt>
      <trkpt lat="46.55008" lon="6.24391">
        <ele>1411.35</ele>
        <time>2013-07-13T15:39:43Z</time>
      </trkpt>
      <trkpt lat="46.5501" lon="6.24408">
        <ele>1411.35</ele>
        <time>2013-07-13T15:40:01Z</time>
      </trkpt>
      <trkpt lat="46.55007" lon="6.24418">
        <ele>1414.24</ele>
        <time>2013-07-13T15:40:15Z</time>
      </trkpt>
      <trkpt lat="46.54999" lon="6.24427">
        <ele>1417.12</ele>
        <time>2013-07-13T15:40:29Z</time>
      </trkpt>
      <trkpt lat="46.54991" lon="6.24435">
        <ele>1419.52</ele>
        <time>2013-07-13T15:40:44Z</time>
      </trkpt>
      <trkpt lat="46.54984" lon="6.24448">
        <ele>1421.93</ele>
        <time>2013-07-13T15:40:56Z</time>
      </trkpt>
      <trkpt lat="46.54979" lon="6.24451">
        <ele>1422.89</ele>
        <time>2013-07-13T15:41:02Z</time>
      </trkpt>
      <trkpt lat="46.5498" lon="6.2446">
        <ele>1424.33</ele>
        <time>2013-07-13T15:41:18Z</time>
      </trkpt>
      <trkpt lat="46.5498" lon="6.24469">
        <ele>1427.7</ele>
        <time>2013-07-13T15:41:30Z</time>
      </trkpt>
      <trkpt lat="46.54976" lon="6.24479">
        <ele>1428.66</ele>
        <time>2013-07-13T15:41:44Z</time>
      </trkpt>
      <trkpt lat="46.54967" lon="6.24486">
        <ele>1430.58</ele>
        <time>2013-07-13T15:41:59Z</time>
      </trkpt>
      <trkpt lat="46.54966" lon="6.24486">
        <ele>1433.46</ele>
        <time>2013-07-13T15:42:00Z</time>
      </trkpt>
      <trkpt lat="46.54959" lon="6.24488">
        <ele>1433.46</ele>
        <time>2013-07-13T15:42:11Z</time>
      </trkpt>
      <trkpt lat="46.54954" lon="6.24498">
        <ele>1435.39</ele>
        <time>2013-07-13T15:42:26Z</time>
      </trkpt>
      <trkpt lat="46.54952" lon="6.24502">
        <ele>1435.39</ele>
        <time>2013-07-13T15:42:48Z</time>
      </trkpt>
      <trkpt lat="46.54953" lon="6.24503">
        <ele>1435.39</ele>
        <time>2013-07-13T15:43:14Z</time>
      </trkpt>
      <trkpt lat="46.54953" lon="6.24504">
        <ele>1435.39</ele>
        <time>2013-07-13T15:43:39Z</time>
      </trkpt>
      <trkpt lat="46.54954" lon="6.24506">
        <ele>1435.39</ele>
        <time>2013-07-13T15:43:59Z</time>
      </trkpt>
      <trkpt lat="46.54957" lon="6.2452">
        <ele>1436.35</ele>
        <time>2013-07-13T15:44:17Z</time>
      </trkpt>
      <trkpt lat="46.54956" lon="6.24528">
        <ele>1438.75</ele>
        <time>2013-07-13T15:44:39Z</time>
      </trkpt>
      <trkpt lat="46.54961" lon="6.24547">
        <ele>1440.19</ele>
        <time>2013-07-13T15:44:52Z</time>
      </trkpt>
      <trkpt lat="46.54971" lon="6.24566">
        <ele>1443.56</ele>
        <time>2013-07-13T15:45:06Z</time>
      </trkpt>
      <trkpt lat="46.54972" lon="6.24566">
        <ele>1440.19</ele>
        <time>2013-07-13T15:45:08Z</time>
      </trkpt>
      <trkpt lat="46.54972" lon="6.24566">
        <ele>1445</ele>
        <time>2013-07-13T15:45:09Z</time>
      </trkpt>
      <trkpt lat="46.54979" lon="6.24584">
        <ele>1445</ele>
        <time>2013-07-13T15:45:25Z</time>
      </trkpt>
      <trkpt lat="46.54982" lon="6.24588">
        <ele>1445</ele>
        <time>2013-07-13T15:45:29Z</time>
      </trkpt>
      <trkpt lat="46.54995" lon="6.24606">
        <ele>1447.4</ele>
        <time>2013-07-13T15:45:47Z</time>
      </trkpt>
      <trkpt lat="46.55003" lon="6.24623">
        <ele>1449.81</ele>
        <time>2013-07-13T15:46:00Z</time>
      </trkpt>
      <trkpt lat="46.55016" lon="6.24633">
        <ele>1451.25</ele>
        <time>2013-07-13T15:46:16Z</time>
      </trkpt>
      <trkpt lat="46.55022" lon="6.24645">
        <ele>1451.25</ele>
        <time>2013-07-13T15:46:29Z</time>
      </trkpt>
      <trkpt lat="46.55028" lon="6.24657">
        <ele>1451.25</ele>
        <time>2013-07-13T15:46:45Z</time>
      </trkpt>
      <trkpt lat="46.55032" lon="6.24664">
        <ele>1451.25</ele>
        <time>2013-07-13T15:46:53Z</time>
      </trkpt>
      <trkpt lat="46.55044" lon="6.24681">
        <ele>1451.25</ele>
        <time>2013-07-13T15:47:09Z</time>
      </trkpt>
      <trkpt lat="46.55057" lon="6.24691">
        <ele>1449.32</ele>
        <time>2013-07-13T15:47:28Z</time>
      </trkpt>
      <trkpt lat="46.5506" lon="6.24695">
        <ele>1449.32</ele>
        <time>2013-07-13T15:47:34Z</time>
      </trkpt>
      <trkpt lat="46.55066" lon="6.24701">
        <ele>1449.32</ele>
        <time>2013-07-13T15:47:42Z</time>
      </trkpt>
      <trkpt lat="46.55068" lon="6.24702">
        <ele>1448.36</ele>
        <time>2013-07-13T15:47:44Z</time>
      </trkpt>
      <trkpt lat="46.55074" lon="6.2471">
        <ele>1448.36</ele>
        <time>2013-07-13T15:47:51Z</time>
      </trkpt>
      <trkpt lat="46.5508" lon="6.2473">
        <ele>1448.36</ele>
        <time>2013-07-13T15:48:05Z</time>
      </trkpt>
      <trkpt lat="46.55091" lon="6.24747">
        <ele>1448.36</ele>
        <time>2013-07-13T15:48:19Z</time>
      </trkpt>
      <trkpt lat="46.551" lon="6.24761">
        <ele>1449.32</ele>
        <time>2013-07-13T15:48:34Z</time>
      </trkpt>
      <trkpt lat="46.55115" lon="6.24767">
        <ele>1449.81</ele>
        <time>2013-07-13T15:48:51Z</time>
      </trkpt>
      <trkpt lat="46.55123" lon="6.24779">
        <ele>1449.81</ele>
        <time>2013-07-13T15:49:06Z</time>
      </trkpt>
      <trkpt lat="46.55127" lon="6.24787">
        <ele>1450.29</ele>
        <time>2013-07-13T15:49:12Z</time>
      </trkpt>
      <trkpt lat="46.55141" lon="6.24805">
        <ele>1449.81</ele>
        <time>2013-07-13T15:49:26Z</time>
      </trkpt>
      <trkpt lat="46.55146" lon="6.2481">
        <ele>1438.75</ele>
        <time>2013-07-13T15:49:33Z</time>
      </trkpt>
      <trkpt lat="46.55147" lon="6.2481">
        <ele>1457.02</ele>
        <time>2013-07-13T15:49:34Z</time>
      </trkpt>
      <trkpt lat="46.55147" lon="6.24811">
        <ele>1449.32</ele>
        <time>2013-07-13T15:49:35Z</time>
      </trkpt>
      <trkpt lat="46.55154" lon="6.2482">
        <ele>1448.36</ele>
        <time>2013-07-13T15:49:50Z</time>
      </trkpt>
      <trkpt lat="46.5516" lon="6.24832">
        <ele>1447.4</ele>
        <time>2013-07-13T15:50:03Z</time>
      </trkpt>
      <trkpt lat="46.55163" lon="6.24838">
        <ele>1446.92</ele>
        <time>2013-07-13T15:50:08Z</time>
      </trkpt>
      <trkpt lat="46.55171" lon="6.24849">
        <ele>1446.44</ele>
        <time>2013-07-13T15:50:18Z</time>
      </trkpt>
      <trkpt lat="46.55181" lon="6.24858">
        <ele>1445.48</ele>
        <time>2013-07-13T15:50:27Z</time>
      </trkpt>
      <trkpt lat="46.55185" lon="6.24861">
        <ele>1445</ele>
        <time>2013-07-13T15:50:31Z</time>
      </trkpt>
      <trkpt lat="46.55193" lon="6.24878">
        <ele>1444.04</ele>
        <time>2013-07-13T15:50:43Z</time>
      </trkpt>
      <trkpt lat="46.55196" lon="6.24892">
        <ele>1445</ele>
        <time>2013-07-13T15:50:57Z</time>
      </trkpt>
      <trkpt lat="46.55198" lon="6.24905">
        <ele>1445</ele>
        <time>2013-07-13T15:51:07Z</time>
      </trkpt>
      <trkpt lat="46.55199" lon="6.24912">
        <ele>1445.48</ele>
        <time>2013-07-13T15:51:13Z</time>
      </trkpt>
      <trkpt lat="46.5521" lon="6.24928">
        <ele>1445</ele>
        <time>2013-07-13T15:51:30Z</time>
      </trkpt>
      <trkpt lat="46.55212" lon="6.24931">
        <ele>1445.48</ele>
        <time>2013-07-13T15:51:33Z</time>
      </trkpt>
      <trkpt lat="46.55217" lon="6.24939">
        <ele>1446.92</ele>
        <time>2013-07-13T15:51:37Z</time>
      </trkpt>
      <trkpt lat="46.55221" lon="6.24944">
        <ele>1445.48</ele>
        <time>2013-07-13T15:51:51Z</time>
      </trkpt>
      <trkpt lat="46.55222" lon="6.24949">
        <ele>1445</ele>
        <time>2013-07-13T15:52:11Z</time>
      </trkpt>
      <trkpt lat="46.55222" lon="6.24965">
        <ele>1444.52</ele>
        <time>2013-07-13T15:52:30Z</time>
      </trkpt>
      <trkpt lat="46.55226" lon="6.24977">
        <ele>1443.08</ele>
        <time>2013-07-13T15:52:41Z</time>
      </trkpt>
      <trkpt lat="46.55232" lon="6.24988">
        <ele>1442.6</ele>
        <time>2013-07-13T15:52:53Z</time>
      </trkpt>
      <trkpt lat="46.5523" lon="6.25003">
        <ele>1442.6</ele>
        <time>2013-07-13T15:53:05Z</time>
      </trkpt>
      <trkpt lat="46.55229" lon="6.25006">
        <ele>1442.6</ele>
        <time>2013-07-13T15:53:15Z</time>
      </trkpt>
      <trkpt lat="46.55229" lon="6.25008">
        <ele>1438.75</ele>
        <time>2013-07-13T15:53:30Z</time>
      </trkpt>
      <trkpt lat="46.55229" lon="6.25008">
        <ele>1445.48</ele>
        <time>2013-07-13T15:53:31Z</time>
      </trkpt>
      <trkpt lat="46.55229" lon="6.25007">
        <ele>1442.6</ele>
        <time>2013-07-13T15:53:45Z</time>
      </trkpt>
      <trkpt lat="46.55231" lon="6.25007">
        <ele>1442.6</ele>
        <time>2013-07-13T15:54:03Z</time>
      </trkpt>
      <trkpt lat="46.5523" lon="6.25008">
        <ele>1443.08</ele>
        <time>2013-07-13T15:54:23Z</time>
      </trkpt>
      <trkpt lat="46.55231" lon="6.2501">
        <ele>1443.08</ele>
        <time>2013-07-13T15:54:39Z</time>
      </trkpt>
      <trkpt lat="46.55232" lon="6.25011">
        <ele>1443.08</ele>
        <time>2013-07-13T15:55:05Z</time>
      </trkpt>
    </trkseg>
  </trk>
</gpx>